Provisional Data: Mill Creek near Lancaster, PA


Please select a monitoring station.
Please select start date.
Please select start date.

Toggle Unit: C/F Toggle Unit: C/F
Sample Time Temperature (C) Temperature (F) Specific Conductivity (mS/cm) pH   Turbidity (NTU+) DO (mg/L)
5/17/2022 12:00:00 AM 18.35 65.03 0.768 8.15 22.87 7.07
5/17/2022 12:15:00 AM 18.28 64.904 0.766 8.14 24.64 7.09
5/17/2022 12:30:00 AM 18.21 64.778 0.766 8.14 26.14 7
5/17/2022 12:45:00 AM 18.13 64.634 0.765 8.12 25.27 7.09
5/17/2022 1:00:00 AM 18.05 64.49 0.764 8.1 24.75 7.11
5/17/2022 1:15:00 AM 17.98 64.364 0.763 8.1 22.39 7.23
5/17/2022 1:30:00 AM 17.9 64.22 0.761 8.1 25.59 7.21
5/17/2022 1:45:00 AM 17.82 64.076 0.761 8.09 26.14 7.1
5/17/2022 2:00:00 AM 17.74 63.932 0.76 8.1 25.4 7.18
5/17/2022 2:15:00 AM 17.68 63.824 0.759 8.1 24.98 7.28
5/17/2022 2:30:00 AM 17.59 63.662 0.758 8.09 21.33 7.23
5/17/2022 2:45:00 AM 17.52 63.536 0.757 8.08 23.09 7.28
5/17/2022 3:00:00 AM 17.46 63.428 0.756 8.07 20.25 7.34
5/17/2022 3:15:00 AM 17.39 63.302 0.755 8.05 20.32 7.33
5/17/2022 3:30:00 AM 17.32 63.176 0.754 8.04 21.39 7.39
5/17/2022 3:45:00 AM 17.26 63.068 0.754 8 22.87 7.37
5/17/2022 4:00:00 AM 17.21 62.978 0.753 8.03 16.98 7.48
5/17/2022 4:15:00 AM 17.15 62.87 0.753 8.03 18.42 7.42
5/17/2022 4:30:00 AM 17.1 62.78 0.752 7.98 18.06 7.48
5/17/2022 4:45:00 AM 17.04 62.672 0.751 8.01 20.73 7.52
5/17/2022 5:00:00 AM 17 62.6 0.752 7.99 18.54 7.47
5/17/2022 5:15:00 AM 16.95 62.51 0.751 7.99 19.31 7.44
5/17/2022 5:30:00 AM 16.91 62.438 0.751 7.96 16.71 7.41
5/17/2022 5:45:00 AM 16.86 62.348 0.751 7.97 18.36 7.44
5/17/2022 6:00:00 AM 16.82 62.276 0.751 7.95 16.99 7.49
5/17/2022 6:15:00 AM 16.77 62.186 0.751 7.96 16.81 7.5
5/17/2022 6:30:00 AM 16.73 62.114 0.751 8 13.19 7.62
5/17/2022 6:45:00 AM 16.7 62.06 0.752 7.96 15.02 7.73
5/17/2022 7:00:00 AM 16.67 62.006 0.752 7.99 13.99 7.7
5/17/2022 7:15:00 AM 16.65 61.97 0.752 7.96 13.52 7.71
5/17/2022 7:30:00 AM 16.64 61.952 0.752 7.98 13.38 7.78
5/17/2022 7:45:00 AM 16.62 61.916 0.753 7.97 12.71 7.85
5/17/2022 8:00:00 AM 16.61 61.898 0.753 7.97 11.4 7.9
5/17/2022 8:15:00 AM 16.61 61.898 0.753 7.98 16.12 7.95
5/17/2022 8:30:00 AM 16.62 61.916 0.754 7.97 18.36 8
5/17/2022 8:45:00 AM 16.63 61.934 0.754 7.99 12.61 8.04
5/17/2022 9:00:00 AM 16.66 61.988 0.754 7.98 12.84 8.15
5/17/2022 9:15:00 AM 16.69 62.042 0.754 8 14.79 8.25
5/17/2022 9:30:00 AM 16.74 62.132 0.754 7.99 14.54 8.41
5/17/2022 9:45:00 AM 16.86 62.348 0.72 7.93 2.83 8.65
5/17/2022 10:00:00 AM 16.93 62.474 0.717 7.98 2.16 8.54
5/17/2022 10:15:00 AM 17.11 62.798 0.716 8.03 1.52 9
5/17/2022 10:30:00 AM 17.33 63.194 0.717 8.05 1.91 9.17
5/17/2022 10:45:00 AM 17.55 63.59 0.716 8.08 1.68 9.62
5/17/2022 11:00:00 AM 17.72 63.896 0.716 8.11 1.65 9.85
5/17/2022 11:15:00 AM 17.88 64.184 0.717 8.13 1.13 10.21
5/17/2022 11:30:00 AM 18.04 64.472 0.717 8.14 1.34 10.4
5/17/2022 11:45:00 AM 18.26 64.868 0.717 8.17 1.77 10.64
5/17/2022 12:00:00 PM 18.34 65.012 0.717 8.19 1.56 10.71
5/17/2022 12:15:00 PM 18.37 65.066 0.719 8.18 1.23 10.73
5/17/2022 12:30:00 PM 18.52 65.336 0.718 8.2 2.08 10.82
5/17/2022 12:45:00 PM 18.56 65.408 0.718 8.22 1.22 10.87
5/17/2022 1:00:00 PM 18.74 65.732 0.718 8.23 1.09 10.94
5/17/2022 1:15:00 PM 18.83 65.894 0.719 8.25 1.38 11.16
5/17/2022 1:30:00 PM 18.89 66.002 0.72 8.25 1.41 11.15
5/17/2022 1:45:00 PM 18.99 66.182 0.721 8.26 1.22 11.11
5/17/2022 2:00:00 PM 19.14 66.452 0.722 8.28 0.88 11.22
5/17/2022 2:15:00 PM 19.25 66.65 0.722 8.28 1.66 11.27
5/17/2022 2:30:00 PM 19.24 66.632 0.723 8.29 1.82 11.25
5/17/2022 2:45:00 PM 19.33 66.794 0.724 8.28 4.02 11.03
5/17/2022 3:00:00 PM 19.54 67.172 0.724 8.3 1.71 11.26
5/17/2022 3:15:00 PM 19.52 67.136 0.725 8.3 1.38 11.27
5/17/2022 3:30:00 PM 19.52 67.136 0.726 8.29 1.71 11.01
5/17/2022 3:45:00 PM 19.56 67.208 0.727 8.3 1.39 10.94
5/17/2022 4:00:00 PM 19.64 67.352 0.728 8.3 1.07 10.95
5/17/2022 4:15:00 PM 19.68 67.424 0.728 8.31 1.79 10.95
5/17/2022 4:30:00 PM 19.72 67.496 0.729 8.31 1.48 10.89
5/17/2022 4:45:00 PM 19.72 67.496 0.73 8.31 1.71 10.74
5/17/2022 5:00:00 PM 19.7 67.46 0.73 8.3 1.56 10.53
5/17/2022 5:15:00 PM 19.68 67.424 0.731 8.3 1.44 10.34
5/17/2022 5:30:00 PM 19.65 67.37 0.732 8.29 1.63 10.14
5/17/2022 5:45:00 PM 19.61 67.298 0.733 8.28 2.15 9.94
5/17/2022 6:00:00 PM 19.58 67.244 0.734 8.26 4.4 9.7
5/17/2022 6:15:00 PM 19.54 67.172 0.735 8.26 2.22 9.53
5/17/2022 6:30:00 PM 19.5 67.1 0.735 8.24 1.18 9.36
5/17/2022 6:45:00 PM 19.46 67.028 0.736 8.23 1.29 9.12
5/17/2022 7:00:00 PM 19.43 66.974 0.737 8.22 1.8 9.05
5/17/2022 7:15:00 PM 19.39 66.902 0.738 8.22 1.55 8.89
5/17/2022 7:30:00 PM 19.35 66.83 0.739 8.21 1.38 8.79
5/17/2022 7:45:00 PM 19.3 66.74 0.739 8.19 1.95 8.65
5/17/2022 8:00:00 PM 19.25 66.65 0.741 8.17 1.67 8.43
5/17/2022 8:15:00 PM 19.19 66.542 0.741 8.17 1.57 8.34
5/17/2022 8:30:00 PM 19.12 66.416 0.742 8.15 1.66 8.22
5/17/2022 8:45:00 PM 19.04 66.272 0.743 8.14 1.38 8.08
5/17/2022 9:00:00 PM 18.96 66.128 0.743 8.13 1.52 8.04
5/17/2022 9:15:00 PM 18.89 66.002 0.744 8.11 2.22 7.89
5/17/2022 9:30:00 PM 18.81 65.858 0.744 8.1 1.79 7.79
5/17/2022 9:45:00 PM 18.73 65.714 0.742 8.09 1.36 7.72
5/17/2022 10:00:00 PM 18.64 65.552 0.745 8.08 1.13 7.65
5/17/2022 10:15:00 PM 18.55 65.39 0.745 8.06 1.27 7.57
5/17/2022 10:30:00 PM 18.46 65.228 0.745 8.05 2.31 7.5
5/17/2022 10:45:00 PM 18.37 65.066 0.746 8.04 2.79 7.43
5/17/2022 11:00:00 PM 18.28 64.904 0.746 8.03 1.73 7.41
5/17/2022 11:15:00 PM 18.2 64.76 0.746 8.02 2.04 7.33
5/17/2022 11:30:00 PM 18.12 64.616 0.746 8.01 1.53 7.3
5/17/2022 11:45:00 PM 18.03 64.454 0.745 8.01 1.34 7.3
5/18/2022 12:00:00 AM 17.95 64.31 0.745 8 2.9 7.26
5/18/2022 12:15:00 AM 17.87 64.166 0.745 7.99 1.52 7.22
5/18/2022 12:30:00 AM 17.78 64.004 0.745 7.98 2.07 7.25
5/18/2022 12:45:00 AM 17.69 63.842 0.744 7.98 1.21 7.25
5/18/2022 1:00:00 AM 17.61 63.698 0.744 7.97 1.4 7.23
5/18/2022 1:15:00 AM 17.52 63.536 0.743 7.97 2.05 7.23
5/18/2022 1:30:00 AM 17.45 63.41 0.743 7.97 1.44 7.24
5/18/2022 1:45:00 AM 17.36 63.248 0.742 7.96 2.08 7.24
5/18/2022 2:00:00 AM 17.28 63.104 0.742 7.96 1.97 7.27
5/18/2022 2:15:00 AM 17.2 62.96 0.739 7.96 1.62 7.24
5/18/2022 2:30:00 AM 17.12 62.816 0.741 7.96 3.18 7.25
5/18/2022 2:45:00 AM 17.04 62.672 0.741 7.96 1.34 7.29
5/18/2022 3:00:00 AM 16.98 62.564 0.74 7.95 1.94 7.28
5/18/2022 3:15:00 AM 16.9 62.42 0.74 7.95 3.47 7.32
5/18/2022 3:30:00 AM 16.83 62.294 0.74 7.95 1.59 7.33
5/18/2022 3:45:00 AM 16.76 62.168 0.74 7.95 1.68 7.34
5/18/2022 4:00:00 AM 16.69 62.042 0.739 7.95 1.8 7.37
5/18/2022 4:15:00 AM 16.62 61.916 0.739 7.95 1.92 7.41
5/18/2022 4:30:00 AM 16.55 61.79 0.739 7.95 1.94 7.4
5/18/2022 4:45:00 AM 16.49 61.682 0.739 7.95 2.41 7.43
5/18/2022 5:00:00 AM 16.42 61.556 0.739 7.95 1.88 7.45
5/18/2022 5:15:00 AM 16.35 61.43 0.739 7.95 3.48 7.46
5/18/2022 5:30:00 AM 16.28 61.304 0.74 7.95 2.24 7.49
5/18/2022 5:45:00 AM 16.21 61.178 0.74 7.95 1.34 7.49
5/18/2022 6:00:00 AM 16.15 61.07 0.74 7.95 3.07 7.54
5/18/2022 6:15:00 AM 16.1 60.98 0.741 7.95 2.18 7.53
5/18/2022 6:30:00 AM 16.04 60.872 0.742 7.96 1.39 7.6
5/18/2022 6:45:00 AM 15.98 60.764 0.743 7.96 1.43 7.66
5/18/2022 7:00:00 AM 15.93 60.674 0.744 7.97 1.02 7.73
5/18/2022 7:15:00 AM 15.9 60.62 0.745 7.97 1.66 7.79
5/18/2022 7:30:00 AM 15.87 60.566 0.747 7.97 1.95 7.81
5/18/2022 7:45:00 AM 15.84 60.512 0.748 7.97 1.56 7.89
5/18/2022 8:00:00 AM 15.81 60.458 0.75 7.98 2.43 7.97
5/18/2022 8:15:00 AM 15.79 60.422 0.751 7.98 1.86 7.99
5/18/2022 8:30:00 AM 15.79 60.422 0.753 7.99 1.63 8.06
5/18/2022 8:45:00 AM 15.78 60.404 0.755 7.99 0.91 8.15
5/18/2022 9:00:00 AM 15.79 60.422 0.757 8 2.39 8.23
5/18/2022 9:15:00 AM 15.8 60.44 0.758 8.01 1.67 8.38
5/18/2022 9:30:00 AM 15.84 60.512 0.76 8.02 2.82 8.47
5/18/2022 9:45:00 AM 15.91 60.638 0.762 8.04 1.65 8.76
5/18/2022 10:00:00 AM 16.02 60.836 0.763 8.06 1.54 9.03
5/18/2022 10:15:00 AM 16.15 61.07 0.765 8.07 1.96 9.26
5/18/2022 10:30:00 AM 16.37 61.466 0.766 8.11 1.96 9.74
5/18/2022 10:45:00 AM 16.52 61.736 0.768 8.13 1.01 10.07
5/18/2022 11:00:00 AM 16.66 61.988 0.769 8.16 3.95 10.36
5/18/2022 11:15:00 AM 16.8 62.24 0.771 8.18 1.86 10.63
5/18/2022 11:30:00 AM 16.96 62.528 0.772 8.2 1.76 10.85
5/18/2022 11:45:00 AM 17.1 62.78 0.773 8.22 1.8 11.08
5/18/2022 12:00:00 PM 17.25 63.05 0.774 8.24 1.71 11.32
5/18/2022 12:15:00 PM 17.43 63.374 0.775 8.26 1.88 11.49
5/18/2022 12:30:00 PM 17.64 63.752 0.775 8.28 0.94 11.75
5/18/2022 12:45:00 PM 17.78 64.004 0.776 8.3 1.29 11.92
5/18/2022 1:00:00 PM 17.9 64.22 0.777 8.31 1.53 12
5/18/2022 1:15:00 PM 18.04 64.472 0.777 8.33 1.45 12.11
5/18/2022 1:30:00 PM 18.2 64.76 0.777 8.35 1.72 12.21
5/18/2022 1:45:00 PM 18.35 65.03 0.778 8.36 1.07 12.21
5/18/2022 2:00:00 PM 18.49 65.282 0.778 8.36 2.16 12.27
5/18/2022 2:15:00 PM 18.59 65.462 0.778 8.37 2.88 12.23
5/18/2022 2:30:00 PM 18.71 65.67799 0.778 8.38 1.15 12.16
5/18/2022 2:45:00 PM 18.81 65.858 0.778 8.38 2 12.15
5/18/2022 3:00:00 PM 18.91 66.038 0.778 8.38 2.5 12.13
5/18/2022 3:15:00 PM 18.98 66.164 0.778 8.39 1.1 12.03
5/18/2022 3:30:00 PM 18.9 66.02 0.778 8.37 1.64 11.79
5/18/2022 3:45:00 PM 18.94 66.092 0.778 8.38 1.41 11.67
5/18/2022 4:00:00 PM 19.02 66.236 0.777 8.38 1.35 11.68
5/18/2022 4:15:00 PM 19.01 66.218 0.777 8.38 1.77 11.54
5/18/2022 4:30:00 PM 19.01 66.218 0.777 8.38 1.13 11.39
5/18/2022 4:45:00 PM 19 66.2 0.777 8.38 1.57 11.34
5/18/2022 5:00:00 PM 18.93 66.074 0.777 8.37 2.67 11
5/18/2022 5:15:00 PM 18.91 66.038 0.777 8.35 2.82 10.6
5/18/2022 5:30:00 PM 18.91 66.038 0.777 8.35 1.43 10.44
5/18/2022 5:45:00 PM 18.9 66.02 0.777 8.34 1.25 10.3
5/18/2022 6:00:00 PM 18.89 66.002 0.777 8.33 0.92 10.09
5/18/2022 6:15:00 PM 18.89 66.002 0.776 8.32 1.28 9.93
5/18/2022 6:30:00 PM 18.88 65.984 0.776 8.32 1.43 9.82
5/18/2022 6:45:00 PM 18.85 65.93 0.776 8.31 3.28 9.63
5/18/2022 7:00:00 PM 18.83 65.894 0.776 8.28 1.39 9.32
5/18/2022 7:15:00 PM 18.81 65.858 0.776 8.28 1.54 9.19
5/18/2022 7:30:00 PM 18.79 65.82201 0.776 8.26 5.67 9.05
5/18/2022 7:45:00 PM 18.76 65.768 0.775 8.25 2.05 8.82
5/18/2022 8:00:00 PM 18.72 65.696 0.775 8.23 1.63 8.67
5/18/2022 8:15:00 PM 18.68 65.624 0.775 8.21 1.45 8.49
5/18/2022 8:30:00 PM 18.63 65.534 0.766 8.2 6.95 8.35
5/18/2022 8:45:00 PM 18.58 65.444 0.773 8.18 1.53 8.2
5/18/2022 9:00:00 PM 18.53 65.354 0.773 8.17 1.54 8.08
5/18/2022 9:15:00 PM 18.49 65.282 0.772 8.15 4.94 7.99
5/18/2022 9:30:00 PM 18.43 65.174 0.771 8.14 2.72 7.88
5/18/2022 9:45:00 PM 18.37 65.066 0.77 8.12 2.06 7.77
5/18/2022 10:00:00 PM 18.31 64.958 0.769 8.11 1.63 7.67
5/18/2022 10:15:00 PM 18.25 64.85 0.768 8.09 1.69 7.62
5/18/2022 10:30:00 PM 18.18 64.724 0.766 8.08 2.77 7.56
5/18/2022 10:45:00 PM 18.11 64.598 0.764 8.07 1.65 7.49
5/18/2022 11:00:00 PM 18.05 64.49 0.762 8.05 1.64 7.4
5/18/2022 11:15:00 PM 17.97 64.346 0.761 8.04 1.45 7.36
5/18/2022 11:30:00 PM 17.9 64.22 0.759 8.03 1.85 7.31
5/18/2022 11:45:00 PM 17.83 64.094 0.757 8.02 1.75 7.26
5/19/2022 12:00:00 AM 17.76 63.968 0.755 8.01 2.25 7.26
5/19/2022 12:15:00 AM 17.69 63.842 0.752 8 2.53 7.2
5/19/2022 12:30:00 AM 17.64 63.752 0.751 7.99 2.46 7.16
5/19/2022 12:45:00 AM 17.58 63.644 0.749 7.98 11.39 7.14
5/19/2022 1:00:00 AM 17.52 63.536 0.745 7.98 1.36 7.14
5/19/2022 1:15:00 AM 17.46 63.428 0.743 7.97 1.51 7.07
5/19/2022 1:30:00 AM 17.39 63.302 0.739 7.97 2.44 7.11
5/19/2022 1:45:00 AM 17.32 63.176 0.733 7.96 6.57 7.11
5/19/2022 2:00:00 AM 17.27 63.086 0.73 7.96 3.01 7.13
5/19/2022 2:15:00 AM 17.22 62.996 0.728 7.96 7.13 7.13
5/19/2022 2:30:00 AM 17.16 62.888 0.725 7.95 9.04 7.14
5/19/2022 2:45:00 AM 17.07 62.726 0.714 7.95 9.76 7.21
5/19/2022 3:00:00 AM 17 62.6 0.707 7.95 13.8 7.26
5/19/2022 3:15:00 AM 16.93 62.474 0.703 7.95 15.94 7.32
5/19/2022 3:30:00 AM 16.88 62.384 0.696 7.95 13.78 7.31
5/19/2022 3:45:00 AM 16.85 62.33 0.703 7.94 8.48 7.27
5/19/2022 4:00:00 AM 16.78 62.204 0.694 7.94 8.29 7.3
5/19/2022 4:15:00 AM 16.73 62.114 0.691 7.94 7.83 7.3
5/19/2022 4:30:00 AM 16.64 61.952 0.677 7.93 7.85 7.35
5/19/2022 4:45:00 AM 16.63 61.934 0.686 7.93 9.26 7.36
5/19/2022 5:00:00 AM 16.6 61.88 0.685 7.93 8.76 7.37
5/19/2022 5:15:00 AM 16.58 61.844 0.69 7.93 10.48 7.36
5/19/2022 5:30:00 AM 16.54 61.772 0.692 7.93 12.33 7.39
5/19/2022 5:45:00 AM 16.45 61.61 0.69 7.92 13.1 7.45
5/19/2022 6:00:00 AM 16.33 61.394 0.687 7.92 9.32 7.51
5/19/2022 6:15:00 AM 16.23 61.214 0.683 7.92 11.9 7.6
5/19/2022 6:30:00 AM 16.16 61.088 0.675 7.92 17.87 7.62
5/19/2022 6:45:00 AM 16.13 61.034 0.663 7.91 19.61 7.62
5/19/2022 7:00:00 AM 16.15 61.07 0.65 7.91 24.69 7.61
5/19/2022 7:15:00 AM 16.19 61.142 0.642 7.9 30.33 7.59
5/19/2022 7:30:00 AM 16.25 61.25 0.638 7.9 30.3 7.58
5/19/2022 7:45:00 AM 16.32 61.376 0.638 7.91 28.44 7.61
5/19/2022 8:00:00 AM 16.38 61.484 0.64 7.91 26.21 7.65
5/19/2022 8:15:00 AM 16.43 61.574 0.644 7.92 18.6 7.69
5/19/2022 8:30:00 AM 16.49 61.682 0.649 7.93 17.86 7.78
5/19/2022 8:45:00 AM 16.53 61.754 0.654 7.94 16.68 7.85
5/19/2022 9:00:00 AM 16.56 61.808 0.659 7.95 11.23 7.91
5/19/2022 9:15:00 AM 16.59 61.862 0.662 7.95 11.24 7.98
5/19/2022 9:30:00 AM 16.63 61.934 0.664 7.96 10.49 8.09
5/19/2022 9:45:00 AM 16.66 61.988 0.665 7.96 9.51 8.19
5/19/2022 10:00:00 AM 16.69 62.042 0.666 7.97 9.4 8.25
5/19/2022 10:15:00 AM 16.73 62.114 0.667 7.98 8.31 8.36
5/19/2022 10:30:00 AM 16.78 62.204 0.668 7.99 9.03 8.5
5/19/2022 10:45:00 AM 16.82 62.276 0.67 7.99 11.71 8.59
5/19/2022 11:00:00 AM 16.88 62.384 0.673 8 8.57 8.7
5/19/2022 11:15:00 AM 16.94 62.492 0.675 8.01 6.9 8.86
5/19/2022 11:30:00 AM 16.97 62.546 0.677 8.02 6.39 8.89
5/19/2022 11:45:00 AM 17 62.6 0.678 8.02 7.38 8.93
5/19/2022 12:00:00 PM 17.06 62.708 0.679 8.03 5 9.01
5/19/2022 12:15:00 PM 17.18 62.924 0.678 8.04 4.13 9.16
5/19/2022 12:30:00 PM 17.42 63.356 0.676 8.07 6.15 9.55
5/19/2022 12:45:00 PM 17.55 63.59 0.674 8.08 6.35 9.74
5/19/2022 1:00:00 PM 17.53 63.554 0.672 8.09 6.42 9.73
5/19/2022 1:15:00 PM 17.67 63.806 0.67 8.09 5.53 9.69
5/19/2022 1:30:00 PM 17.84 64.112 0.669 8.12 5.48 10.01
5/19/2022 1:45:00 PM 17.97 64.346 0.67 8.13 4.22 10.13
5/19/2022 2:00:00 PM 18.06 64.508 0.672 8.14 5.24 10.16
5/19/2022 2:15:00 PM 18.12 64.616 0.675 8.14 8.29 10.14
5/19/2022 2:30:00 PM 18.25 64.85 0.679 8.15 5.63 10.2
5/19/2022 2:45:00 PM 18.38 65.084 0.683 8.15 5.41 10.21
5/19/2022 3:00:00 PM 18.47 65.246 0.688 8.16 7.23 10.19
5/19/2022 3:15:00 PM 18.53 65.354 0.692 8.16 5.96 10.12
5/19/2022 3:30:00 PM 18.5 65.3 0.696 8.14 6.31 9.91
5/19/2022 3:45:00 PM 18.52 65.336 0.7 8.13 10.11 9.74
5/19/2022 4:00:00 PM 18.55 65.39 0.703 8.12 6.37 9.63
5/19/2022 4:15:00 PM 18.63 65.534 0.704 8.12 7.41 9.57
5/19/2022 4:30:00 PM 18.63 65.534 0.705 8.12 9.47 9.42
5/19/2022 4:45:00 PM 18.66 65.588 0.704 8.11 5.61 9.34
5/19/2022 5:00:00 PM 18.71 65.67799 0.701 8.1 7.34 9.26
5/19/2022 5:15:00 PM 18.72 65.696 0.698 8.09 7.75 9.11
5/19/2022 5:30:00 PM 18.74 65.732 0.693 8.08 36.67 8.95
5/19/2022 5:45:00 PM 18.74 65.732 0.687 8.06 14.25 8.81
5/19/2022 6:00:00 PM 18.74 65.732 0.682 8.06 9.3 8.71
5/19/2022 6:15:00 PM 18.74 65.732 0.677 8.04 7.7 8.59
5/19/2022 6:30:00 PM 18.74 65.732 0.673 8.03 13.33 8.51
5/19/2022 6:45:00 PM 18.75 65.75 0.67 8.03 6.52 8.45
5/19/2022 7:00:00 PM 18.74 65.732 0.669 8.02 6.11 8.37
5/19/2022 7:15:00 PM 18.73 65.714 0.67 8.01 5.31 8.3
5/19/2022 7:30:00 PM 18.69 65.642 0.671 8 7.53 8.22
5/19/2022 7:45:00 PM 18.65 65.57 0.674 8 4.81 8.15
5/19/2022 8:00:00 PM 18.6 65.48 0.677 7.99 5.53 8.11
5/19/2022 8:15:00 PM 18.55 65.39 0.681 7.99 7.9 8.02
5/19/2022 8:30:00 PM 18.49 65.282 0.685 7.98 8.71 7.91
5/19/2022 8:45:00 PM 18.43 65.174 0.69 7.97 5.88 7.88
5/19/2022 9:00:00 PM 18.37 65.066 0.694 7.97 5.26 7.81
5/19/2022 9:15:00 PM 18.31 64.958 0.697 7.96 5.09 7.76
5/19/2022 9:30:00 PM 18.26 64.868 0.701 7.96 6.46 7.72
5/19/2022 9:45:00 PM 18.2 64.76 0.704 7.95 5.41 7.66
5/19/2022 10:00:00 PM 18.15 64.67 0.707 7.95 7.59 7.64
5/19/2022 10:15:00 PM 18.09 64.562 0.709 7.95 6.12 7.57
5/19/2022 10:30:00 PM 18.04 64.472 0.711 7.94 6.63 7.58
5/19/2022 10:45:00 PM 17.99 64.382 0.713 7.93 5.59 7.53
5/19/2022 11:00:00 PM 17.94 64.292 0.714 7.93 4.46 7.51
5/19/2022 11:15:00 PM 17.89 64.202 0.716 7.92 5.12 7.47
5/19/2022 11:30:00 PM 17.84 64.112 0.716 7.93 4.87 7.45
5/19/2022 11:45:00 PM 17.79 64.022 0.718 7.92 4.44 7.43
5/20/2022 12:00:00 AM 17.74 63.932 0.719 7.92 4.6 7.42
5/20/2022 12:15:00 AM 17.69 63.842 0.72 7.92 8.94 7.41
5/20/2022 12:30:00 AM 17.64 63.752 0.72 7.92 6.39 7.41
5/20/2022 12:45:00 AM 17.59 63.662 0.72 7.92 4.38 7.39
5/20/2022 1:00:00 AM 17.54 63.572 0.719 7.92 3.05 7.4
5/20/2022 1:15:00 AM 17.48 63.464 0.717 7.91 5 7.38
5/20/2022 1:30:00 AM 17.43 63.374 0.715 7.91 3.73 7.37
5/20/2022 1:45:00 AM 17.38 63.284 0.712 7.9 6.06 7.34
5/20/2022 2:00:00 AM 17.33 63.194 0.709 7.9 5.78 7.32
5/20/2022 2:15:00 AM 17.28 63.104 0.705 7.89 5.72 7.32
5/20/2022 2:30:00 AM 17.23 63.014 0.701 7.89 4.32 7.3
5/20/2022 2:45:00 AM 17.17 62.906 0.696 7.88 5.4 7.28
5/20/2022 3:00:00 AM 17.12 62.816 0.69 7.88 7.87 7.26
5/20/2022 3:15:00 AM 17.08 62.744 0.685 7.87 5.55 7.22
5/20/2022 3:30:00 AM 17.03 62.654 0.663 7.86 7.26 7.18
5/20/2022 3:45:00 AM 16.99 62.582 0.664 7.85 6.87 7.13
5/20/2022 4:00:00 AM 16.95 62.51 0.609 7.84 5.92 7.1
5/20/2022 4:15:00 AM 16.91 62.438 0.639 7.83 6.2 7.06
5/20/2022 4:30:00 AM 16.87 62.366 0.627 7.82 7.02 6.98
5/20/2022 4:45:00 AM 16.83 62.294 0.654 7.82 7.07 6.95
5/20/2022 5:00:00 AM 16.79 62.222 0.656 7.81 7.84 6.88
5/20/2022 5:15:00 AM 16.76 62.168 0.653 7.8 7.34 6.84
5/20/2022 5:30:00 AM 16.73 62.114 0.652 7.79 6.63 6.79
5/20/2022 5:45:00 AM 16.7 62.06 0.651 7.79 6.01 6.77
5/20/2022 6:00:00 AM 16.67 62.006 0.65 7.78 6.07 6.78
5/20/2022 6:15:00 AM 16.65 61.97 0.65 7.78 4.82 6.79
5/20/2022 6:30:00 AM 16.64 61.952 0.65 7.78 5.54 6.85
5/20/2022 6:45:00 AM 16.63 61.934 0.651 7.78 6.43 6.9
5/20/2022 7:00:00 AM 16.63 61.934 0.652 7.78 6.45 6.97
5/20/2022 7:15:00 AM 16.63 61.934 0.653 7.79 4.35 7.08
5/20/2022 7:30:00 AM 16.63 61.934 0.655 7.79 4.93 7.15
5/20/2022 7:45:00 AM 16.65 61.97 0.657 7.8 7.29 7.23
5/20/2022 8:00:00 AM 16.65 61.97 0.659 7.8 5.93 7.31
5/20/2022 8:15:00 AM 16.66 61.988 0.662 7.8 5.71 7.31
5/20/2022 8:30:00 AM 16.67 62.006 0.664 7.8 4.39 7.36
5/20/2022 8:45:00 AM 16.7 62.06 0.667 7.81 4.86 7.5
5/20/2022 9:00:00 AM 16.73 62.114 0.669 7.82 5.32 7.66
5/20/2022 9:15:00 AM 16.76 62.168 0.672 7.83 4.78 7.79
5/20/2022 9:30:00 AM 16.8 62.24 0.675 7.84 4.53 7.9
5/20/2022 9:45:00 AM 16.85 62.33 0.677 7.85 4.36 8.02
5/20/2022 10:00:00 AM 16.9 62.42 0.68 7.86 5.31 8.11
5/20/2022 10:15:00 AM 16.98 62.564 0.682 7.88 4.28 8.31
5/20/2022 10:30:00 AM 17.16 62.888 0.684 7.9 4.42 8.68
5/20/2022 10:45:00 AM 17.27 63.086 0.686 7.93 4.23 8.94
5/20/2022 11:00:00 AM 17.3 63.14 0.689 7.93 4.49 8.95
5/20/2022 11:15:00 AM 17.34 63.212 0.691 7.94 3.82 8.92
5/20/2022 11:30:00 AM 17.47 63.446 0.693 7.96 4.08 9.13
5/20/2022 11:45:00 AM 17.63 63.734 0.695 7.98 4.58 9.41
5/20/2022 12:00:00 PM 17.84 64.112 0.696 8.01 3.06 9.67
5/20/2022 12:15:00 PM 17.88 64.184 0.697 8.02 4.18 9.75
5/20/2022 12:30:00 PM 17.94 64.292 0.698 8.03 2.77 9.74
5/20/2022 12:45:00 PM 18.05 64.49 0.7 8.04 3.36 9.84
5/20/2022 1:00:00 PM 18.24 64.832 0.7 8.06 2.75 10.05
5/20/2022 1:15:00 PM 18.27 64.886 0.701 8.07 3.55 10.04
5/20/2022 1:30:00 PM 18.26 64.868 0.701 8.05 2.76 9.65
5/20/2022 1:45:00 PM 18.32 64.976 0.702 8.04 2.59 9.54
5/20/2022 2:00:00 PM 18.38 65.084 0.701 8.05 2.51 9.56
5/20/2022 2:15:00 PM 18.54 65.372 0.701 8.06 3.19 9.77
5/20/2022 2:30:00 PM 18.67 65.606 0.7 8.09 2.15 10
5/20/2022 2:45:00 PM 18.67 65.606 0.7 8.09 2.47 9.86
5/20/2022 3:00:00 PM 18.64 65.552 0.699 8.07 2.64 9.55
5/20/2022 3:15:00 PM 18.63 65.534 0.698 8.05 2.33 9.25
5/20/2022 3:30:00 PM 18.66 65.588 0.696 8.05 2.57 9.14
5/20/2022 3:45:00 PM 18.7 65.66 0.695 8.05 2.3 9.12
5/20/2022 4:00:00 PM 18.76 65.768 0.693 8.05 2.21 9.15
5/20/2022 4:15:00 PM 18.8 65.84 0.692 8.06 3.12 9.19
5/20/2022 4:30:00 PM 18.84 65.912 0.69 8.05 6.86 9.15
5/20/2022 4:45:00 PM 18.86 65.948 0.689 8.06 3.01 9.17
5/20/2022 5:00:00 PM 18.9 66.02 0.687 8.06 3.6 9.13
5/20/2022 5:15:00 PM 18.93 66.074 0.685 8.06 2.47 9.09
5/20/2022 5:30:00 PM 18.96 66.128 0.683 8.05 3.41 9.01
5/20/2022 5:45:00 PM 18.98 66.164 0.682 8.05 4.23 8.95
5/20/2022 6:00:00 PM 18.99 66.182 0.68 8.05 3.03 8.89
5/20/2022 6:15:00 PM 19 66.2 0.678 8.04 2.56 8.77
5/20/2022 6:30:00 PM 19.02 66.236 0.677 8.04 2.4 8.77
5/20/2022 6:45:00 PM 19.01 66.218 0.675 8.04 1.62 8.71
5/20/2022 7:00:00 PM 18.99 66.182 0.674 8.02 2.77 8.54
5/20/2022 7:15:00 PM 18.97 66.146 0.672 8.01 2.18 8.42
5/20/2022 7:30:00 PM 18.95 66.11 0.671 8 3.78 8.26
5/20/2022 7:45:00 PM 18.93 66.074 0.669 7.99 2.51 8.17
5/20/2022 8:00:00 PM 18.91 66.038 0.669 7.98 2.1 8.03
5/20/2022 8:15:00 PM 18.89 66.002 0.667 7.97 2.45 7.99
5/20/2022 8:30:00 PM 18.86 65.948 0.665 7.96 2.84 7.85
5/20/2022 8:45:00 PM 18.83 65.894 0.664 7.94 2.27 7.71
5/20/2022 9:00:00 PM 18.8 65.84 0.662 7.93 2.16 7.66
5/20/2022 9:15:00 PM 18.77 65.786 0.63 7.92 2.86 7.59
5/20/2022 9:30:00 PM 18.74 65.732 0.611 7.91 3.07 7.48
5/20/2022 9:45:00 PM 18.71 65.67799 0.649 7.9 2.35 7.43
5/20/2022 10:00:00 PM 18.67 65.606 0.643 7.89 2.86 7.31
5/20/2022 10:15:00 PM 18.64 65.552 0.619 7.88 3.26 7.31
5/20/2022 10:30:00 PM 18.6 65.48 0.606 7.87 2.51 7.19
5/20/2022 10:45:00 PM 18.57 65.426 0.651 7.86 3.57 7.13
5/20/2022 11:00:00 PM 18.54 65.372 0.65 7.85 3.05 7.1
5/20/2022 11:15:00 PM 18.51 65.318 0.649 7.85 2 7.04
5/20/2022 11:30:00 PM 18.47 65.246 0.648 7.84 3.25 7.02
5/20/2022 11:45:00 PM 18.44 65.192 0.647 7.84 2.69 6.99
5/21/2022 12:00:00 AM 18.41 65.138 0.646 7.83 2.66 7.03
5/21/2022 12:15:00 AM 18.38 65.084 0.646 7.82 2.47 6.89
5/21/2022 12:30:00 AM 18.36 65.048 0.645 7.82 2.13 6.93
5/21/2022 12:45:00 AM 18.33 64.994 0.645 7.81 2.48 6.86
5/21/2022 1:00:00 AM 18.3 64.94 0.645 7.81 3.83 6.84
5/21/2022 1:15:00 AM 18.27 64.886 0.644 7.81 2.27 6.9
5/21/2022 1:30:00 AM 18.24 64.832 0.645 7.8 2.07 6.85
5/21/2022 1:45:00 AM 18.21 64.778 0.646 7.8 2.32 6.86
5/21/2022 2:00:00 AM 18.18 64.724 0.646 7.79 2.76 6.84
5/21/2022 2:15:00 AM 18.15 64.67 0.647 7.79 3.11 6.81
5/21/2022 2:30:00 AM 18.13 64.634 0.648 7.78 2.53 6.8
5/21/2022 2:45:00 AM 18.1 64.58 0.648 7.78 2.19 6.78
5/21/2022 3:00:00 AM 18.07 64.526 0.65 7.78 3.17 6.83
5/21/2022 3:15:00 AM 18.05 64.49 0.649 7.78 2.56 6.82
5/21/2022 3:30:00 AM 18.02 64.436 0.649 7.78 3.27 6.83
5/21/2022 3:45:00 AM 18 64.4 0.65 7.78 3.49 6.8
5/21/2022 4:00:00 AM 17.97 64.346 0.651 7.77 3.83 6.75
5/21/2022 4:15:00 AM 17.94 64.292 0.653 7.78 3.92 6.82
5/21/2022 4:30:00 AM 17.91 64.238 0.654 7.77 2.93 6.8
5/21/2022 4:45:00 AM 17.89 64.202 0.654 7.78 2.62 6.83
5/21/2022 5:00:00 AM 17.87 64.166 0.658 7.77 2.48 6.84
5/21/2022 5:15:00 AM 17.84 64.112 0.657 7.78 3.77 6.86
5/21/2022 5:30:00 AM 17.81 64.058 0.658 7.78 3.44 6.85
5/21/2022 5:45:00 AM 17.79 64.022 0.662 7.78 2.54 6.85
5/21/2022 6:00:00 AM 17.76 63.968 0.663 7.77 3.48 6.86
5/21/2022 6:15:00 AM 17.74 63.932 0.666 7.78 2.74 6.9
5/21/2022 6:30:00 AM 17.73 63.914 0.667 7.78 2.46 6.92
5/21/2022 6:45:00 AM 17.72 63.896 0.67 7.78 2.99 6.91
5/21/2022 7:00:00 AM 17.71 63.878 0.672 7.78 1.61 6.97
5/21/2022 7:15:00 AM 17.7 63.86 0.674 7.79 2.87 7.07
5/21/2022 7:30:00 AM 17.7 63.86 0.676 7.8 3.11 7.12
5/21/2022 7:45:00 AM 17.7 63.86 0.678 7.8 2.1 7.12
5/21/2022 8:00:00 AM 17.71 63.878 0.68 7.81 2.1 7.25
5/21/2022 8:15:00 AM 17.71 63.878 0.681 7.81 2.22 7.26
5/21/2022 8:30:00 AM 17.73 63.914 0.684 7.82 2.87 7.39
5/21/2022 8:45:00 AM 17.76 63.968 0.686 7.83 2.08 7.44
5/21/2022 9:00:00 AM 17.79 64.022 0.684 7.83 2.05 7.5
5/21/2022 9:15:00 AM 17.84 64.112 0.682 7.84 2.66 7.56
5/21/2022 9:30:00 AM 17.91 64.238 0.686 7.85 2.8 7.75
5/21/2022 9:45:00 AM 18 64.4 0.689 7.87 2.61 7.94
5/21/2022 10:00:00 AM 18.12 64.616 0.692 7.89 2.43 8.13
5/21/2022 10:15:00 AM 18.28 64.904 0.693 7.9 3.19 8.29
5/21/2022 10:30:00 AM 18.52 65.336 0.69 7.93 2.26 8.62
5/21/2022 10:45:00 AM 18.71 65.67799 0.696 7.95 2.68 8.93
5/21/2022 11:00:00 AM 18.9 66.02 0.697 7.98 4.06 9.23
5/21/2022 11:15:00 AM 19.08 66.344 0.699 8 2.66 9.41
5/21/2022 11:30:00 AM 19.27 66.686 0.699 8.02 2.12 9.61
5/21/2022 11:45:00 AM 19.47 67.046 0.698 8.04 2.07 9.8
5/21/2022 12:00:00 PM 19.67 67.406 0.7 8.05 2.21 9.93
5/21/2022 12:15:00 PM 19.9 67.82 0.7 8.09 2.49 10.21
5/21/2022 12:30:00 PM 20.07 68.126 0.702 8.1 2.17 10.35
5/21/2022 12:45:00 PM 20.25 68.45 0.706 8.12 1.9 10.47
5/21/2022 1:00:00 PM 20.39 68.702 0.707 8.12 1.89 10.5
5/21/2022 1:15:00 PM 20.54 68.972 0.709 8.13 2.16 10.52
5/21/2022 1:30:00 PM 20.65 69.17 0.711 8.15 1.65 10.6
5/21/2022 1:45:00 PM 20.83 69.494 0.711 8.16 1.73 10.66
5/21/2022 2:00:00 PM 20.93 69.674 0.713 8.17 2.32 10.61
5/21/2022 2:15:00 PM 21.01 69.818 0.717 8.16 2.25 10.44
5/21/2022 2:30:00 PM 21.13 70.034 0.72 8.18 2.09 10.63
5/21/2022 2:45:00 PM 21.2 70.16 0.712 8.18 3.32 10.52
5/21/2022 3:00:00 PM 21.22 70.196 0.733 8.17 7.52 10.28
5/21/2022 3:15:00 PM 21.22 70.196 0.734 8.17 5.13 10.07
5/21/2022 3:30:00 PM 21.31 70.358 0.736 8.16 2.95 9.97
5/21/2022 3:45:00 PM 21.38 70.484 0.739 8.18 9.18 10.11
5/21/2022 4:00:00 PM 21.41 70.538 0.741 8.18 2.59 9.96
5/21/2022 4:15:00 PM 21.53 70.754 0.742 8.18 2.24 9.92
5/21/2022 4:30:00 PM 21.59 70.862 0.743 8.18 3.33 9.87
5/21/2022 4:45:00 PM 21.54 70.772 0.745 8.17 3.7 9.58
5/21/2022 5:00:00 PM 21.64 70.952 0.745 8.17 1.9 9.51
5/21/2022 5:15:00 PM 21.66 70.988 0.748 8.16 3.19 9.25
5/21/2022 5:30:00 PM 21.69 71.042 0.749 8.16 1.93 9.09
5/21/2022 5:45:00 PM 21.73 71.114 0.75 8.15 2.33 8.94
5/21/2022 6:00:00 PM 21.73 71.114 0.753 8.14 3.09 8.73
5/21/2022 6:15:00 PM 21.78 71.204 0.753 8.14 4.41 8.69
5/21/2022 6:30:00 PM 21.72 71.096 0.755 8.13 3.39 8.37
5/21/2022 6:45:00 PM 21.78 71.204 0.755 8.13 5.18 8.31
5/21/2022 7:00:00 PM 21.77 71.186 0.757 8.12 2.17 8.13
5/21/2022 7:15:00 PM 21.78 71.204 0.757 8.11 2.27 8.06
5/21/2022 7:30:00 PM 21.78 71.204 0.758 8.11 1.56 7.89
5/21/2022 7:45:00 PM 21.76 71.168 0.759 8.09 1.7 7.75
5/21/2022 8:00:00 PM 21.72 71.096 0.76 8.08 1.73 7.57
5/21/2022 8:15:00 PM 21.69 71.042 0.748 8.07 1.97 7.45
5/21/2022 8:30:00 PM 21.65 70.97 0.745 8.06 1.52 7.36
5/21/2022 8:45:00 PM 21.6 70.88 0.746 8.05 2.11 7.17
5/21/2022 9:00:00 PM 21.54 70.772 0.755 8.03 2.04 6.95
5/21/2022 9:15:00 PM 21.49 70.682 0.758 8.02 1.95 6.98
5/21/2022 9:30:00 PM 21.42 70.556 0.758 8 4.11 6.7
5/21/2022 9:45:00 PM 21.36 70.448 0.758 8 1.98 6.8
5/21/2022 10:00:00 PM 21.29 70.32201 0.766 7.97 2.12 6.5
5/21/2022 10:15:00 PM 21.22 70.196 0.766 7.96 5.33 6.45
5/21/2022 10:30:00 PM 21.16 70.088 0.75 7.95 2.54 6.43
5/21/2022 10:45:00 PM 21.1 69.98 0.744 7.94 3.57 6.29
5/21/2022 11:00:00 PM 21.01 69.818 0.743 7.93 4.55 6.15
5/21/2022 11:15:00 PM 20.96 69.728 0.767 7.91 11.21 6.16
5/21/2022 11:30:00 PM 20.9 69.62 0.766 7.9 7.69 6.08
5/21/2022 11:45:00 PM 20.84 69.512 0.764 7.9 9.93 6.05
5/22/2022 12:00:00 AM 20.79 69.422 0.765 7.89 4.35 6
5/22/2022 12:15:00 AM 20.73 69.314 0.765 7.89 5.38 6.02
5/22/2022 12:30:00 AM 20.67 69.206 0.766 7.89 2.73 6.01
5/22/2022 12:45:00 AM 20.62 69.116 0.769 7.86 8.89 5.94
5/22/2022 1:00:00 AM 20.55 68.99 0.77 7.86 4.65 5.77
5/22/2022 1:15:00 AM 20.49 68.882 0.77 7.86 1.82 5.8
5/22/2022 1:30:00 AM 20.45 68.81 0.764 7.86 5.09 5.85
5/22/2022 1:45:00 AM 20.41 68.738 0.764 7.86 2.18 6
5/22/2022 2:00:00 AM 20.36 68.648 0.765 7.85 4.07 5.86
5/22/2022 2:15:00 AM 20.33 68.594 0.765 7.86 2.15 5.95
5/22/2022 2:30:00 AM 20.27 68.486 0.714 7.85 1.87 5.94
5/22/2022 2:45:00 AM 20.22 68.396 0.71 7.83 17.37 5.74
5/22/2022 3:00:00 AM 20.19 68.342 0.753 7.84 6.48 5.87
5/22/2022 3:15:00 AM 20.16 68.288 0.725 7.84 3.12 5.89
5/22/2022 3:30:00 AM 20.12 68.216 0.772 7.84 2 5.98
5/22/2022 3:45:00 AM 20.08 68.144 0.767 7.84 4.74 5.91
5/22/2022 4:00:00 AM 20.06 68.108 0.764 7.84 3.59 6.05
5/22/2022 4:15:00 AM 20.01 68.018 0.765 7.83 8.79 5.87
5/22/2022 4:30:00 AM 19.99 67.982 0.755 7.84 4.2 5.93
5/22/2022 4:45:00 AM 19.96 67.92799 0.75 7.83 6.02 5.85
5/22/2022 5:00:00 AM 19.94 67.892 0.747 7.83 8.33 5.88
5/22/2022 5:15:00 AM 19.91 67.838 0.751 7.83 3.7 5.94
5/22/2022 5:30:00 AM 19.89 67.802 0.759 7.83 18.79 5.96
5/22/2022 5:45:00 AM 19.87 67.766 0.758 7.83 2.72 5.93
5/22/2022 6:00:00 AM 19.85 67.73 0.766 7.83 3.3 5.96
5/22/2022 6:15:00 AM 19.84 67.712 0.768 7.84 1.84 6.05
5/22/2022 6:30:00 AM 19.81 67.658 0.765 7.83 2.44 5.95
5/22/2022 6:45:00 AM 19.8 67.64 0.765 7.83 8.45 5.91
5/22/2022 7:00:00 AM 19.79 67.622 0.765 7.83 5.14 6.04
5/22/2022 7:15:00 AM 19.79 67.622 0.765 7.84 4.53 6.07
5/22/2022 7:30:00 AM 19.8 67.64 0.754 7.84 6.91 6.21
5/22/2022 7:45:00 AM 19.8 67.64 0.764 7.85 3.89 6.31
5/22/2022 8:00:00 AM 19.8 67.64 0.765 7.85 5.01 6.37
5/22/2022 8:15:00 AM 19.82 67.676 0.756 7.86 2.43 6.45
5/22/2022 8:30:00 AM 19.83 67.694 0.754 7.86 2.84 6.46
5/22/2022 8:45:00 AM 19.85 67.73 0.753 7.86 1.84 6.52
5/22/2022 9:00:00 AM 19.88 67.784 0.753 7.86 4.1 6.61
5/22/2022 9:15:00 AM 19.92 67.856 0.763 7.87 3.81 6.7
5/22/2022 9:30:00 AM 20 68 0.728 7.88 8.69 6.84
5/22/2022 9:45:00 AM 20.02 68.036 0.731 7.89 4.61 6.98
5/22/2022 10:00:00 AM 20.1 68.18 0.732 7.9 3.41 7.22
5/22/2022 10:15:00 AM 20.17 68.306 0.731 7.91 1.68 7.37
5/22/2022 10:30:00 AM 20.29 68.522 0.733 7.93 3.92 7.54
5/22/2022 10:45:00 AM 20.52 68.936 0.732 7.95 3.79 7.91
5/22/2022 11:00:00 AM 20.72 69.296 0.732 7.98 2.64 8.36
5/22/2022 11:15:00 AM 20.88 69.584 0.734 8 3.37 8.65
5/22/2022 11:30:00 AM 21.05 69.89 0.733 8.01 2.12 8.67
5/22/2022 11:45:00 AM 21.32 70.376 0.734 8.04 2.58 8.98
5/22/2022 12:00:00 PM 21.48 70.664 0.728 8.05 5.55 9.06
5/22/2022 12:15:00 PM 21.65 70.97 0.736 8.06 6.49 9.22
5/22/2022 12:30:00 PM 21.81 71.258 0.736 8.07 2.96 9.3
5/22/2022 12:45:00 PM 22.03 71.654 0.735 8.09 3.88 9.57
5/22/2022 1:00:00 PM 22.22 71.996 0.716 8.12 2.89 9.77
5/22/2022 1:15:00 PM 22.27 72.086 0.714 8.12 6.13 9.7
5/22/2022 1:30:00 PM 22.43 72.374 0.714 8.13 2.08 9.77
5/22/2022 1:45:00 PM 22.64 72.752 0.784 8.16 5.96 9.79
5/22/2022 2:00:00 PM 22.67 72.806 0.786 8.19 4.5 9.79
5/22/2022 2:15:00 PM 22.77 72.986 0.786 8.19 2.44 9.81
5/22/2022 2:30:00 PM 22.77 72.986 0.788 8.18 8.27 9.43
5/22/2022 2:45:00 PM 22.87 73.166 0.788 8.19 3.53 9.39
5/22/2022 3:00:00 PM 23.01 73.418 0.789 8.2 2.35 9.52
5/22/2022 3:15:00 PM 23.06 73.508 0.791 8.19 2.37 9.45
5/22/2022 3:30:00 PM 23.15 73.67 0.792 8.21 1.8 9.63
5/22/2022 3:45:00 PM 23.18 73.724 0.793 8.2 4.16 9.33
5/22/2022 4:00:00 PM 23.21 73.778 0.794 8.2 5.08 9.16
5/22/2022 4:15:00 PM 23.2 73.76 0.795 8.19 3.87 9.01
5/22/2022 4:30:00 PM 23.22 73.796 0.795 8.2 3.17 9.03
5/22/2022 4:45:00 PM 23.16 73.688 0.796 8.18 3.88 8.65
5/22/2022 5:00:00 PM 23.19 73.742 0.797 8.18 2.94 8.51
5/22/2022 5:15:00 PM 23.25 73.85 0.798 8.19 1.98 8.58
5/22/2022 5:30:00 PM 23.25 73.85 0.797 8.2 2.1 8.72
5/22/2022 5:45:00 PM 23.25 73.85 0.794 8.19 4.03 8.48
5/22/2022 6:00:00 PM 23.27 73.886 0.794 8.19 1.85 8.35
5/22/2022 6:15:00 PM 23.24 73.832 0.792 8.19 2.33 8.33
5/22/2022 6:30:00 PM 23.23 73.814 0.79 8.18 2.49 8.15
5/22/2022 6:45:00 PM 23.2 73.76 0.789 8.17 1.86 7.89
5/22/2022 7:00:00 PM 23.17 73.706 0.789 8.15 1.94 7.58
5/22/2022 7:15:00 PM 23.15 73.67 0.792 8.14 2.21 7.58
5/22/2022 7:30:00 PM 23.09 73.562 0.793 8.13 3.78 7.36
5/22/2022 7:45:00 PM 23.04 73.472 0.791 8.11 2.24 7.12
5/22/2022 8:00:00 PM 22.99 73.382 0.791 8.09 2.3 6.97
5/22/2022 8:15:00 PM 22.91 73.238 0.791 8.07 2.78 6.66
5/22/2022 8:30:00 PM 22.85 73.13 0.8 8.07 5.24 6.69
5/22/2022 8:45:00 PM 22.8 73.04 0.8 8.05 4.89 6.49
5/22/2022 9:00:00 PM 22.75 72.95 0.799 8.06 2.25 6.63
5/22/2022 9:15:00 PM 22.61 72.698 0.784 8.05 18.27 6.61
5/22/2022 9:30:00 PM 22.5 72.5 0.74 8.04 22.08 6.48
5/22/2022 9:45:00 PM 22.46 72.42799 0.733 8.02 9.68 6.32
5/22/2022 10:00:00 PM 22.42 72.356 0.687 8.01 5.02 6.27
5/22/2022 10:15:00 PM 22.35 72.23 0.695 7.99 5.36 6.08
5/22/2022 10:30:00 PM 22.29 72.122 0.775 7.98 2.96 6.08
5/22/2022 10:45:00 PM 22.21 71.978 0.774 7.98 7.51 6.06
5/22/2022 11:00:00 PM 22.15 71.87 0.781 7.97 5.5 6.2
5/22/2022 11:15:00 PM 22.09 71.762 0.784 7.97 3.83 6.23
5/22/2022 11:30:00 PM 22.03 71.654 0.783 7.97 3.8 6.25
5/22/2022 11:45:00 PM 21.96 71.528 0.784 7.96 3.02 6.24
5/23/2022 12:00:00 AM 21.9 71.42 0.783 7.95 5.4 6.24
5/23/2022 12:15:00 AM 21.84 71.312 0.782 7.95 5.31 6.23
5/23/2022 12:30:00 AM 21.79 71.222 0.781 7.94 6.13 6.23
5/23/2022 12:45:00 AM 21.72 71.096 0.778 7.94 4.85 6.22
5/23/2022 1:00:00 AM 21.63 70.934 0.77 7.93 6.86 6.23
5/23/2022 1:15:00 AM 21.53 70.754 0.756 7.92 8.02 6.23
5/23/2022 1:30:00 AM 21.43 70.574 0.746 7.91 7.68 6.24
5/23/2022 1:45:00 AM 21.33 70.394 0.74 7.9 9.76 6.21
5/23/2022 2:00:00 AM 21.22 70.196 0.736 7.9 10.12 6.26
5/23/2022 2:15:00 AM 21.12 70.016 0.733 7.9 10.43 6.27
5/23/2022 2:30:00 AM 21.04 69.872 0.732 7.89 8.59 6.29
5/23/2022 2:45:00 AM 20.97 69.746 0.73 7.89 10.49 6.31
5/23/2022 3:00:00 AM 20.93 69.674 0.73 7.89 13.52 6.3
5/23/2022 3:15:00 AM 20.89 69.602 0.73 7.89 13.21 6.32
5/23/2022 3:30:00 AM 20.85 69.53 0.729 7.89 12.05 6.3
5/23/2022 3:45:00 AM 20.82 69.476 0.728 7.89 8.81 6.26
5/23/2022 4:00:00 AM 20.78 69.404 0.726 7.88 9.48 6.26
5/23/2022 4:15:00 AM 20.74 69.332 0.724 7.88 8.1 6.26
5/23/2022 4:30:00 AM 20.69 69.242 0.722 7.88 10.35 6.26
5/23/2022 4:45:00 AM 20.64 69.152 0.721 7.88 7.49 6.28
5/23/2022 5:00:00 AM 20.59 69.062 0.719 7.88 8.7 6.26
5/23/2022 5:15:00 AM 20.53 68.954 0.717 7.88 6.7 6.28
5/23/2022 5:30:00 AM 20.47 68.846 0.714 7.88 6.63 6.31
5/23/2022 5:45:00 AM 20.41 68.738 0.712 7.88 6.48 6.32
5/23/2022 6:00:00 AM 20.35 68.63 0.709 7.88 6.55 6.33
5/23/2022 6:15:00 AM 20.29 68.522 0.708 7.88 6.5 6.33
5/23/2022 6:30:00 AM 20.23 68.414 0.707 7.88 5.19 6.39
5/23/2022 6:45:00 AM 20.18 68.324 0.707 7.89 5.22 6.49
5/23/2022 7:00:00 AM 20.14 68.252 0.707 7.9 6.62 6.56
5/23/2022 7:15:00 AM 20.09 68.162 0.708 7.9 5.44 6.6
5/23/2022 7:30:00 AM 20.04 68.07201 0.709 7.91 5.79 6.67
5/23/2022 7:45:00 AM 20 68 0.709 7.91 4.7 6.7
5/23/2022 8:00:00 AM 19.95 67.91 0.708 7.92 6.99 6.78
5/23/2022 8:15:00 AM 19.92 67.856 0.705 7.92 5.46 6.85
5/23/2022 8:30:00 AM 19.87 67.766 0.702 7.92 5.57 6.86
5/23/2022 8:45:00 AM 19.85 67.73 0.698 7.92 6.21 6.9
5/23/2022 9:00:00 AM 19.86 67.748 0.694 7.93 7.37 7.03
5/23/2022 9:15:00 AM 19.86 67.748 0.69 7.93 8.77 7.11
5/23/2022 9:30:00 AM 19.86 67.748 0.688 7.94 8.18 7.2
5/23/2022 9:45:00 AM 19.9 67.82 0.687 7.95 7.82 7.34
5/23/2022 10:00:00 AM 19.96 67.92799 0.686 7.96 7.54 7.57
5/23/2022 10:15:00 AM 20.06 68.108 0.687 7.98 7.69 7.8
5/23/2022 10:30:00 AM 20.21 68.378 0.689 8 5.87 8.09
5/23/2022 10:45:00 AM 20.33 68.594 0.691 8.02 8.94 8.3
5/23/2022 11:00:00 AM 20.43 68.774 0.694 8.04 8.47 8.54
5/23/2022 11:15:00 AM 20.53 68.954 0.698 8.06 9.39 8.77
5/23/2022 11:30:00 AM 20.63 69.134 0.699 8.08 8.9 9.02
5/23/2022 11:45:00 AM 20.75 69.35 0.702 8.1 12.43 9.17
5/23/2022 12:00:00 PM 20.88 69.584 0.706 8.12 12.59 9.42
5/23/2022 12:15:00 PM 21.01 69.818 0.709 8.14 10.36 9.6
5/23/2022 12:30:00 PM 21.11 69.998 0.711 8.15 11.2 9.75
5/23/2022 12:45:00 PM 21.2 70.16 0.716 8.17 10.68 9.89
5/23/2022 1:00:00 PM 21.32 70.376 0.716 8.18 13.28 10.03
5/23/2022 1:15:00 PM 21.4 70.52 0.718 8.2 13.09 10.11
5/23/2022 1:30:00 PM 21.48 70.664 0.72 8.21 12.02 10.17
5/23/2022 1:45:00 PM 21.57 70.826 0.721 8.21 15.17 10.21
5/23/2022 2:00:00 PM 21.6 70.88 0.722 8.23 12.06 10.3
5/23/2022 2:15:00 PM 21.62 70.916 0.722 8.23 12.76 10.27
5/23/2022 2:30:00 PM 21.67 71.006 0.721 8.24 16.46 10.33
5/23/2022 2:45:00 PM 21.69 71.042 0.721 8.25 14.69 10.32
5/23/2022 3:00:00 PM 21.75 71.15 0.719 8.25 14.37 10.28
5/23/2022 3:15:00 PM 21.76 71.168 0.717 8.25 15.45 10.2
5/23/2022 3:30:00 PM 21.73 71.114 0.715 8.25 13.38 10.11
5/23/2022 3:45:00 PM 21.69 71.042 0.712 8.24 14.81 9.96
5/23/2022 4:00:00 PM 21.69 71.042 0.708 8.25 13.33 9.96
5/23/2022 4:15:00 PM 21.68 71.024 0.705 8.24 10.84 9.86
5/23/2022 4:30:00 PM 21.65 70.97 0.702 8.24 10.74 9.72
5/23/2022 4:45:00 PM 21.64 70.952 0.699 8.23 9.74 9.62
5/23/2022 5:00:00 PM 21.61 70.898 0.696 8.23 7.73 9.55
5/23/2022 5:15:00 PM 21.58 70.844 0.694 8.22 8.09 9.34
5/23/2022 5:30:00 PM 21.53 70.754 0.693 8.2 8.53 9.08
5/23/2022 5:45:00 PM 21.48 70.664 0.692 8.19 7.45 8.89
5/23/2022 6:00:00 PM 21.44 70.592 0.691 8.18 8.6 8.71
5/23/2022 6:15:00 PM 21.39 70.502 0.692 8.16 9.24 8.48
5/23/2022 6:30:00 PM 21.34 70.412 0.693 8.15 8.58 8.36
5/23/2022 6:45:00 PM 21.3 70.34 0.694 8.14 10.63 8.24
5/23/2022 7:00:00 PM 21.26 70.268 0.696 8.13 9.69 8.11
5/23/2022 7:15:00 PM 21.21 70.17799 0.698 8.12 10.67 7.98
5/23/2022 7:30:00 PM 21.18 70.124 0.7 8.11 9.09 7.79
5/23/2022 7:45:00 PM 21.12 70.016 0.703 8.1 10.47 7.68
5/23/2022 8:00:00 PM 21.06 69.908 0.706 8.09 14.1 7.58
5/23/2022 8:15:00 PM 21.01 69.818 0.709 8.08 11.6 7.37
5/23/2022 8:30:00 PM 20.95 69.71 0.712 8.06 12.4 7.24
5/23/2022 8:45:00 PM 20.89 69.602 0.715 8.05 12.83 7.18
5/23/2022 9:00:00 PM 20.83 69.494 0.718 8.04 15.25 7.09
5/23/2022 9:15:00 PM 20.77 69.386 0.72 8.04 15.94 7.07
5/23/2022 9:30:00 PM 20.71 69.278 0.723 8.02 15.56 6.84
5/23/2022 9:45:00 PM 20.64 69.152 0.725 8.01 17.47 6.8
5/23/2022 10:00:00 PM 20.57 69.026 0.727 8 16.54 6.64
5/23/2022 10:15:00 PM 20.51 68.918 0.729 7.99 16.63 6.67
5/23/2022 10:30:00 PM 20.44 68.792 0.731 7.97 24.1 6.47
5/23/2022 10:45:00 PM 20.38 68.684 0.733 7.97 24.1 6.43
5/23/2022 11:00:00 PM 20.3 68.54 0.734 7.97 23.39 6.53
5/23/2022 11:15:00 PM 20.23 68.414 0.735 7.96 23.09 6.47
5/23/2022 11:30:00 PM 20.17 68.306 0.732 7.96 26.59 6.37
5/23/2022 11:45:00 PM 20.1 68.18 0.738 7.94 32.42 6.29
5/24/2022 12:00:00 AM 20.03 68.054 0.738 7.94 25.03 6.37
5/24/2022 12:15:00 AM 19.96 67.92799 0.738 7.94 30.66 6.37
5/24/2022 12:30:00 AM 19.89 67.802 0.737 7.93 29.46 6.32
5/24/2022 12:45:00 AM 19.83 67.694 0.742 7.93 33.61 6.28
5/24/2022 1:00:00 AM 19.77 67.586 0.742 7.92 38.21 6.26
5/24/2022 1:15:00 AM 19.71 67.478 0.742 7.92 5.58 6.24
5/24/2022 1:30:00 AM 19.65 67.37 0.739 7.92 6.67 6.36
5/24/2022 1:45:00 AM 19.57 67.226 0.738 7.93 9.51 6.46
5/24/2022 2:00:00 AM 19.51 67.118 0.741 7.92 6.72 6.33
5/24/2022 2:15:00 AM 19.46 67.028 0.737 7.92 13.05 6.44
5/24/2022 2:30:00 AM 19.4 66.92 0.737 7.91 9.64 6.36
5/24/2022 2:45:00 AM 19.34 66.812 0.735 7.92 13.54 6.43
5/24/2022 3:00:00 AM 19.29 66.722 0.735 7.91 13.14 6.43
5/24/2022 3:15:00 AM 19.24 66.632 0.737 7.91 14.67 6.41
5/24/2022 3:30:00 AM 19.2 66.56 0.733 7.92 17.03 6.46
5/24/2022 3:45:00 AM 19.14 66.452 0.732 7.92 17.11 6.56
5/24/2022 4:00:00 AM 19.1 66.38 0.731 7.91 16.81 6.45
5/24/2022 4:15:00 AM 19.05 66.29 0.73 7.91 19.18 6.52
5/24/2022 4:30:00 AM 19.01 66.218 0.729 7.91 17.29 6.53
5/24/2022 4:45:00 AM 18.97 66.146 0.728 7.91 17.85 6.5
5/24/2022 5:00:00 AM 18.93 66.074 0.727 7.91 26.36 6.44
5/24/2022 5:15:00 AM 18.9 66.02 0.726 7.91 22.57 6.48
5/24/2022 5:30:00 AM 18.85 65.93 0.724 7.91 23.07 6.6
5/24/2022 5:45:00 AM 18.82 65.876 0.723 7.91 23.71 6.54
5/24/2022 6:00:00 AM 18.78 65.804 0.722 7.9 38.25 6.58
5/24/2022 6:15:00 AM 18.74 65.732 0.72 7.92 18.92 6.81
5/24/2022 6:30:00 AM 18.71 65.67799 0.72 7.9 26.18 6.59
5/24/2022 6:45:00 AM 18.69 65.642 0.719 7.91 30.93 6.65
5/24/2022 7:00:00 AM 18.67 65.606 0.717 7.92 35.11 6.85
5/24/2022 7:15:00 AM 18.65 65.57 0.717 7.92 28.96 6.76
5/24/2022 7:30:00 AM 18.64 65.552 0.716 7.92 38.55 6.79
5/24/2022 7:45:00 AM 18.64 65.552 0.715 7.93 32.37 6.95
5/24/2022 8:00:00 AM 18.63 65.534 0.714 7.93 33.88 7.01
5/24/2022 8:15:00 AM 18.62 65.516 0.714 7.93 33.57 7
5/24/2022 8:30:00 AM 18.62 65.516 0.714 7.93 30.5 7.06
5/24/2022 8:45:00 AM 18.62 65.516 0.713 7.94 33.32 7.2
5/24/2022 9:00:00 AM 18.62 65.516 0.713 7.94 35.34 7.22
5/24/2022 9:15:00 AM 18.62 65.516 0.713 7.95 32.54 7.45
5/24/2022 9:30:00 AM 18.63 65.534 0.713 7.97 34.92 7.54
5/24/2022 9:45:00 AM 18.65 65.57 0.714 7.96 34.72 7.54
5/24/2022 10:00:00 AM 18.66 65.588 0.714 7.96 36.88 7.66
5/24/2022 10:15:00 AM 18.66 65.588 0.715 7.98 36.42 7.78
5/24/2022 10:30:00 AM 18.68 65.624 0.716 8 42.01 7.89
5/24/2022 10:45:00 AM 18.71 65.67799 0.717 7.98 48.39 7.79
5/24/2022 11:00:00 AM 18.8 65.84 0.717 8 39.89 8.16
5/24/2022 11:15:00 AM 18.88 65.984 0.718 8.04 46.94 8.63
5/24/2022 11:30:00 AM 18.9 66.02 0.719 8.04 49.24 8.65
5/24/2022 11:45:00 AM 18.89 66.002 0.721 8.04 49.43 8.57
5/24/2022 12:00:00 PM 18.87 65.966 0.723 8.05 44.84 8.56
5/24/2022 12:15:00 PM 18.86 65.948 0.724 8.04 44.14 8.43
5/24/2022 12:30:00 PM 18.85 65.93 0.726 8.05 45.13 8.48
5/24/2022 12:45:00 PM 18.85 65.93 0.728 8.04 42.21 8.35
5/24/2022 1:00:00 PM 18.84 65.912 0.729 8.06 49.15 8.46
5/24/2022 1:15:00 PM 18.83 65.894 0.73 8.05 40.47 8.45
5/24/2022 1:30:00 PM 18.86 65.948 0.731 8.07 45.65 8.57
5/24/2022 1:45:00 PM 18.89 66.002 0.732 8.11 38.62 9.01
5/24/2022 2:00:00 PM 18.89 66.002 0.733 8.12 42.22 9.08
5/24/2022 2:15:00 PM 18.89 66.002 0.734 8.13 38.21 9.08
5/24/2022 2:30:00 PM 18.87 65.966 0.735 8.13 46.76 8.96
5/24/2022 2:45:00 PM 18.86 65.948 0.735 8.12 48.56 8.85
5/24/2022 3:00:00 PM 18.84 65.912 0.736 8.12 55.45 8.8
5/24/2022 3:15:00 PM 18.84 65.912 0.735 8.12 39.95 8.76
5/24/2022 3:30:00 PM 18.89 66.002 0.735 8.13 52.4 8.92
5/24/2022 3:45:00 PM 18.9 66.02 0.734 8.14 38.24 9.07
5/24/2022 4:00:00 PM 18.93 66.074 0.733 8.15 50.22 9.16
5/24/2022 4:15:00 PM 18.97 66.146 0.732 8.16 47.43 9.3
5/24/2022 4:30:00 PM 18.99 66.182 0.73 8.17 50.57 9.38
5/24/2022 4:45:00 PM 19.01 66.218 0.729 8.17 47.72 9.31
5/24/2022 5:00:00 PM 19.02 66.236 0.727 8.18 46.4 9.38
5/24/2022 5:15:00 PM 19.02 66.236 0.725 8.18 40.09 9.38
5/24/2022 5:30:00 PM 19 66.2 0.722 8.18 38.65 9.3
5/24/2022 5:45:00 PM 19 66.2 0.721 8.17 44.14 9.17
5/24/2022 6:00:00 PM 19 66.2 0.719 8.17 42.77 9.18
5/24/2022 6:15:00 PM 18.99 66.182 0.716 8.17 43.9 9.28
5/24/2022 6:30:00 PM 18.97 66.146 0.714 8.16 35.32 9.06
5/24/2022 6:45:00 PM 18.94 66.092 0.711 8.16 33.79 9.04
5/24/2022 7:00:00 PM 18.91 66.038 0.709 8.15 33.25 8.96
5/24/2022 7:15:00 PM 18.88 65.984 0.706 8.14 26.65 8.83
5/24/2022 7:30:00 PM 18.84 65.912 0.704 8.14 35.85 8.77
5/24/2022 7:45:00 PM 18.8 65.84 0.702 8.13 29.14 8.64
5/24/2022 8:00:00 PM 18.77 65.786 0.7 8.12 25.12 8.52
5/24/2022 8:15:00 PM 18.72 65.696 0.699 8.11 25.29 8.38
5/24/2022 8:30:00 PM 18.67 65.606 0.697 8.09 32.78 8.21
5/24/2022 8:45:00 PM 18.63 65.534 0.696 8.08 28.98 8.13
5/24/2022 9:00:00 PM 18.59 65.462 0.694 8.07 32.34 7.99
5/24/2022 9:15:00 PM 18.54 65.372 0.693 8.06 32.53 7.95
5/24/2022 9:30:00 PM 18.5 65.3 0.692 8.06 30.74 7.94
5/24/2022 9:45:00 PM 18.46 65.228 0.691 8.05 28.68 7.79
5/24/2022 10:00:00 PM 18.42 65.156 0.69 8.04 30.19 7.75
5/24/2022 10:15:00 PM 18.38 65.084 0.689 8.03 21.19 7.57
5/24/2022 10:30:00 PM 18.35 65.03 0.689 8.02 31.69 7.56
5/24/2022 10:45:00 PM 18.31 64.958 0.688 8.01 27.55 7.56
5/24/2022 11:00:00 PM 18.28 64.904 0.688 8.01 24.25 7.54
5/24/2022 11:15:00 PM 18.25 64.85 0.687 8 25.13 7.41
5/24/2022 11:30:00 PM 18.21 64.778 0.688 8 27.88 7.43
5/24/2022 11:45:00 PM 18.18 64.724 0.688 7.99 25.46 7.39
5/25/2022 12:00:00 AM 18.15 64.67 0.688 8 31.7 7.44
5/25/2022 12:15:00 AM 18.11 64.598 0.688 7.98 17.62 7.32
5/25/2022 12:30:00 AM 18.08 64.544 0.688 7.97 29.32 7.2
5/25/2022 12:45:00 AM 18.04 64.472 0.689 7.97 27.9 7.33
5/25/2022 1:00:00 AM 18 64.4 0.689 7.97 15.27 7.32
5/25/2022 1:15:00 AM 17.95 64.31 0.689 7.97 31.81 7.37
5/25/2022 1:30:00 AM 17.91 64.238 0.69 7.97 27.97 7.33
5/25/2022 1:45:00 AM 17.86 64.148 0.69 7.96 27.4 7.27
5/25/2022 2:00:00 AM 17.81 64.058 0.691 7.96 30.13 7.27
5/25/2022 2:15:00 AM 17.76 63.968 0.691 7.95 32.59 7.18
5/25/2022 2:30:00 AM 17.71 63.878 0.691 7.95 32.69 7.26
5/25/2022 2:45:00 AM 17.66 63.788 0.692 7.95 30.94 7.2
5/25/2022 3:00:00 AM 17.6 63.68 0.692 7.95 32.55 7.25
5/25/2022 3:15:00 AM 17.55 63.59 0.692 7.96 36.84 7.36
5/25/2022 3:30:00 AM 17.49 63.482 0.692 7.96 34.76 7.36
5/25/2022 3:45:00 AM 17.44 63.392 0.693 7.96 36.17 7.35
5/25/2022 4:00:00 AM 17.37 63.266 0.693 7.96 34.74 7.38
5/25/2022 4:15:00 AM 17.31 63.158 0.693 7.96 37.12 7.36
5/25/2022 4:30:00 AM 17.25 63.05 0.693 7.96 39.83 7.38
5/25/2022 4:45:00 AM 17.19 62.942 0.693 7.95 40.53 7.33
5/25/2022 5:00:00 AM 17.12 62.816 0.694 7.96 41.64 7.43
5/25/2022 5:15:00 AM 17.07 62.726 0.694 7.96 42.09 7.42
5/25/2022 5:30:00 AM 17.01 62.618 0.694 7.96 45.94 7.47
5/25/2022 5:45:00 AM 16.97 62.546 0.694 7.95 41.24 7.45
5/25/2022 6:00:00 AM 16.91 62.438 0.694 7.97 37.77 7.54
5/25/2022 6:15:00 AM 16.87 62.366 0.694 7.97 42.61 7.55
5/25/2022 6:30:00 AM 16.84 62.312 0.695 7.97 42.96 7.57
5/25/2022 6:45:00 AM 16.81 62.258 0.695 7.97 39.51 7.62
5/25/2022 7:00:00 AM 16.78 62.204 0.696 7.98 41.88 7.77
5/25/2022 7:15:00 AM 16.76 62.168 0.696 7.97 40.66 7.7
5/25/2022 7:30:00 AM 16.74 62.132 0.697 7.99 40.32 7.85
5/25/2022 7:45:00 AM 16.72 62.096 0.697 7.99 40.39 7.97
5/25/2022 8:00:00 AM 16.7 62.06 0.698 8 38.81 8.05
5/25/2022 8:15:00 AM 16.67 62.006 0.699 8.01 39.37 8.17
5/25/2022 8:30:00 AM 16.65 61.97 0.7 8.01 44.72 8.12
5/25/2022 8:45:00 AM 16.65 61.97 0.701 8.01 43.09 8.16
5/25/2022 9:00:00 AM 16.65 61.97 0.702 8.03 45.18 8.37
5/25/2022 9:15:00 AM 16.67 62.006 0.703 8.03 49.42 8.5
5/25/2022 9:30:00 AM 16.72 62.096 0.705 8.05 47.85 8.65
5/25/2022 9:45:00 AM 16.78 62.204 0.706 8.07 51.58 8.96
5/25/2022 10:00:00 AM 16.84 62.312 0.707 8.08 49.7 9.14
5/25/2022 10:15:00 AM 16.91 62.438 0.708 8.1 49.9 9.4
5/25/2022 10:30:00 AM 16.98 62.564 0.71 8.12 49.31 9.64
5/25/2022 10:45:00 AM 17.04 62.672 0.711 8.12 51.86 9.72
5/25/2022 11:00:00 AM 17.1 62.78 0.712 8.14 47.68 9.85
5/25/2022 11:15:00 AM 17.22 62.996 0.714 8.16 49.08 10.02
5/25/2022 11:30:00 AM 17.3 63.14 0.715 8.18 34.13 10.28
5/25/2022 11:45:00 AM 17.4 63.32 0.717 8.19 49.22 10.46
5/25/2022 12:00:00 PM 17.48 63.464 0.719 8.21 48.17 10.51
5/25/2022 12:15:00 PM 17.57 63.626 0.721 8.22 48.18 10.47
5/25/2022 12:30:00 PM 17.77 63.986 0.722 8.25 49.05 10.94
5/25/2022 12:45:00 PM 17.91 64.238 0.724 8.27 31.46 11.14
5/25/2022 1:00:00 PM 18.04 64.472 0.724 8.29 3.44 11.29
5/25/2022 1:15:00 PM 18.19 64.742 0.727 8.29 17.7 11.28
5/25/2022 1:30:00 PM 18.31 64.958 0.73 8.31 15.85 11.34
5/25/2022 1:45:00 PM 18.49 65.282 0.731 8.32 22.42 11.49
5/25/2022 2:00:00 PM 18.54 65.372 0.734 8.32 19.22 11.38
5/25/2022 2:15:00 PM 18.59 65.462 0.736 8.31 21.44 11.31
5/25/2022 2:30:00 PM 18.64 65.552 0.738 8.32 7.42 11.27
5/25/2022 2:45:00 PM 18.71 65.67799 0.739 8.33 19.81 11.32
5/25/2022 3:00:00 PM 18.78 65.804 0.741 8.33 19.25 11.29
5/25/2022 3:15:00 PM 18.81 65.858 0.743 8.34 11.96 11.26
5/25/2022 3:30:00 PM 18.86 65.948 0.745 8.35 14.49 11.19
5/25/2022 3:45:00 PM 18.94 66.092 0.746 8.35 23.67 11.09
5/25/2022 4:00:00 PM 19 66.2 0.748 8.35 18.38 11.02
5/25/2022 4:15:00 PM 19.01 66.218 0.75 8.35 3.25 10.9
5/25/2022 4:30:00 PM 19.02 66.236 0.752 8.35 3.17 10.75
5/25/2022 4:45:00 PM 19.02 66.236 0.754 8.35 7.29 10.64
5/25/2022 5:00:00 PM 19.03 66.254 0.755 8.35 4.2 10.49
5/25/2022 5:15:00 PM 18.99 66.182 0.757 8.35 22.04 10.34
5/25/2022 5:30:00 PM 19 66.2 0.759 8.35 10.77 10.23
5/25/2022 5:45:00 PM 19 66.2 0.76 8.35 16.39 10.19
5/25/2022 6:00:00 PM 19.02 66.236 0.761 8.34 14.07 10.06
5/25/2022 6:15:00 PM 19.02 66.236 0.763 8.34 22.54 9.89
5/25/2022 6:30:00 PM 19.02 66.236 0.765 8.33 23.11 9.68
5/25/2022 6:45:00 PM 19.03 66.254 0.766 8.33 21.49 9.71
5/25/2022 7:00:00 PM 19.02 66.236 0.767 8.32 20.31 9.5
5/25/2022 7:15:00 PM 19.02 66.236 0.769 8.31 23.23 9.39
5/25/2022 7:30:00 PM 19.01 66.218 0.77 8.32 23.73 9.35
5/25/2022 7:45:00 PM 18.98 66.164 0.764 8.3 26.09 9.08
5/25/2022 8:00:00 PM 18.95 66.11 0.773 8.28 26.63 8.83
5/25/2022 8:15:00 PM 18.92 66.056 0.774 8.26 21.18 8.68
5/25/2022 8:30:00 PM 18.88 65.984 0.775 8.25 6.85 8.6
5/25/2022 8:45:00 PM 18.84 65.912 0.777 8.24 18.97 8.42
5/25/2022 9:00:00 PM 18.79 65.82201 0.778 8.23 23 8.35
5/25/2022 9:15:00 PM 18.75 65.75 0.779 8.22 23.67 8.3
5/25/2022 9:30:00 PM 18.69 65.642 0.78 8.2 11.93 8.06
5/25/2022 9:45:00 PM 18.63 65.534 0.781 8.19 29.24 7.99
5/25/2022 10:00:00 PM 18.58 65.444 0.782 8.17 18.86 7.8
5/25/2022 10:15:00 PM 18.53 65.354 0.783 8.16 27.16 7.84
5/25/2022 10:30:00 PM 18.47 65.246 0.784 8.15 15.25 7.8
5/25/2022 10:45:00 PM 18.41 65.138 0.784 8.14 24.96 7.68
5/25/2022 11:00:00 PM 18.36 65.048 0.785 8.13 12.53 7.55
5/25/2022 11:15:00 PM 18.29 64.922 0.786 8.12 23.84 7.64
5/25/2022 11:30:00 PM 18.24 64.832 0.787 8.1 24.12 7.51
5/25/2022 11:45:00 PM 18.17 64.706 0.788 8.1 17.58 7.47
5/26/2022 12:00:00 AM 18.12 64.616 0.788 8.08 2.99 7.36
5/26/2022 12:15:00 AM 18.06 64.508 0.789 8.08 3.35 7.45
5/26/2022 12:30:00 AM 18 64.4 0.79 8.07 3.45 7.44
5/26/2022 12:45:00 AM 17.95 64.31 0.79 8.07 2.74 7.39
5/26/2022 1:00:00 AM 17.89 64.202 0.791 8.06 3.25 7.36
5/26/2022 1:15:00 AM 17.83 64.094 0.791 8.06 3.16 7.42
5/26/2022 1:30:00 AM 17.78 64.004 0.792 8.05 2.64 7.4
5/26/2022 1:45:00 AM 17.72 63.896 0.792 8.05 3.6 7.46
5/26/2022 2:00:00 AM 17.66 63.788 0.792 8.04 4.78 7.4
5/26/2022 2:15:00 AM 17.6 63.68 0.793 8.03 3.02 7.39
5/26/2022 2:30:00 AM 17.53 63.554 0.793 8.03 4.27 7.43
5/26/2022 2:45:00 AM 17.48 63.464 0.793 8.03 7.07 7.39
5/26/2022 3:00:00 AM 17.43 63.374 0.793 8.02 3.72 7.35
5/26/2022 3:15:00 AM 17.37 63.266 0.793 8.02 3.34 7.42
5/26/2022 3:30:00 AM 17.33 63.194 0.793 8.01 3.09 7.34
5/26/2022 3:45:00 AM 17.27 63.086 0.793 8.02 4.95 7.43
5/26/2022 4:00:00 AM 17.21 62.978 0.793 8.02 5.71 7.41
5/26/2022 4:15:00 AM 17.16 62.888 0.793 8.02 3.99 7.48
5/26/2022 4:30:00 AM 17.1 62.78 0.793 8.02 5.86 7.47
5/26/2022 4:45:00 AM 17.04 62.672 0.792 8.02 5.6 7.49
5/26/2022 5:00:00 AM 17 62.6 0.792 8.01 3.4 7.43
5/26/2022 5:15:00 AM 16.94 62.492 0.791 8.01 4.29 7.47
5/26/2022 5:30:00 AM 16.87 62.366 0.79 8.02 3.05 7.58
5/26/2022 5:45:00 AM 16.85 62.33 0.79 8.01 5.26 7.43
5/26/2022 6:00:00 AM 16.79 62.222 0.789 8.01 4.87 7.44
5/26/2022 6:15:00 AM 16.75 62.15 0.788 8.02 4.77 7.56
5/26/2022 6:30:00 AM 16.72 62.096 0.788 8.01 3.38 7.57
5/26/2022 6:45:00 AM 16.69 62.042 0.787 8.01 4.42 7.55
5/26/2022 7:00:00 AM 16.65 61.97 0.786 8.02 3.51 7.7
5/26/2022 7:15:00 AM 16.63 61.934 0.785 8.01 4.49 7.63
5/26/2022 7:30:00 AM 16.61 61.898 0.784 8.02 5.75 7.69
5/26/2022 7:45:00 AM 16.6 61.88 0.783 8.03 2.82 7.8
5/26/2022 8:00:00 AM 16.59 61.862 0.782 8.04 3.57 8.01
5/26/2022 8:15:00 AM 16.6 61.88 0.781 8.04 2.93 8.08
5/26/2022 8:30:00 AM 16.6 61.88 0.78 8.05 3.08 8.14
5/26/2022 8:45:00 AM 16.6 61.88 0.779 8.08 2.38 8.47
5/26/2022 9:00:00 AM 16.62 61.916 0.778 8.07 2.88 8.44
5/26/2022 9:15:00 AM 16.64 61.952 0.777 8.08 2.94 8.53
5/26/2022 9:30:00 AM 16.66 61.988 0.776 8.08 3.8 8.6
5/26/2022 9:45:00 AM 16.68 62.024 0.775 8.09 2.19 8.75
5/26/2022 10:00:00 AM 16.71 62.078 0.774 8.11 4.1 8.94
5/26/2022 10:15:00 AM 16.74 62.132 0.773 8.1 2.83 8.85
5/26/2022 10:30:00 AM 16.81 62.258 0.773 8.12 2.27 9.13
5/26/2022 10:45:00 AM 16.87 62.366 0.771 8.14 2.54 9.38
5/26/2022 11:00:00 AM 16.92 62.456 0.771 8.16 3.63 9.53
5/26/2022 11:15:00 AM 16.98 62.564 0.77 8.16 2.73 9.55
5/26/2022 11:30:00 AM 17.1 62.78 0.769 8.19 2.83 9.95
5/26/2022 11:45:00 AM 17.19 62.942 0.768 8.2 4.44 10.12
5/26/2022 12:00:00 PM 17.26 63.068 0.768 8.22 2.75 10.29
5/26/2022 12:15:00 PM 17.39 63.302 0.767 8.23 2.04 10.4
5/26/2022 12:30:00 PM 17.55 63.59 0.766 8.26 2.74 10.72
5/26/2022 12:45:00 PM 17.69 63.842 0.766 8.28 2.45 10.85
5/26/2022 1:00:00 PM 17.79 64.022 0.766 8.29 2.23 10.95
5/26/2022 1:15:00 PM 17.83 64.094 0.767 8.29 4.67 10.97
5/26/2022 1:30:00 PM 17.88 64.184 0.766 8.31 2.58 11.02
5/26/2022 1:45:00 PM 17.93 64.274 0.766 8.31 1.8 10.92
5/26/2022 2:00:00 PM 17.98 64.364 0.767 8.33 2.1 10.97
5/26/2022 2:15:00 PM 18 64.4 0.767 8.33 1.35 10.79
5/26/2022 2:30:00 PM 18.02 64.436 0.768 8.33 1.74 10.66
5/26/2022 2:45:00 PM 18.06 64.508 0.768 8.31 2.12 10.45
5/26/2022 3:00:00 PM 18.14 64.652 0.769 8.32 2.58 10.49
5/26/2022 3:15:00 PM 18.21 64.778 0.768 8.35 1.89 10.65
5/26/2022 3:30:00 PM 18.25 64.85 0.769 8.35 2.12 10.67
5/26/2022 3:45:00 PM 18.27 64.886 0.77 8.34 2.84 10.39
5/26/2022 4:00:00 PM 18.31 64.958 0.771 8.34 3.84 10.36
5/26/2022 4:15:00 PM 18.41 65.138 0.772 8.35 2.03 10.44
5/26/2022 4:30:00 PM 18.44 65.192 0.773 8.35 2.96 10.46
5/26/2022 4:45:00 PM 18.46 65.228 0.773 8.35 3.29 10.34
5/26/2022 5:00:00 PM 18.48 65.264 0.775 8.34 3.5 10.13
5/26/2022 5:15:00 PM 18.52 65.336 0.699 8.35 4.43 10.18
5/26/2022 5:30:00 PM 18.57 65.426 0.765 8.36 5.62 10.2
5/26/2022 5:45:00 PM 18.57 65.426 0.776 8.35 2.79 10
5/26/2022 6:00:00 PM 18.59 65.462 0.778 8.34 1.92 9.88
5/26/2022 6:15:00 PM 18.6 65.48 0.78 8.34 1.92 9.74
5/26/2022 6:30:00 PM 18.61 65.498 0.781 8.34 1.62 9.64
5/26/2022 6:45:00 PM 18.62 65.516 0.782 8.33 1.68 9.51
5/26/2022 7:00:00 PM 18.62 65.516 0.778 8.32 2.72 9.31
5/26/2022 7:15:00 PM 18.62 65.516 0.784 8.31 1.52 9.15
5/26/2022 7:30:00 PM 18.61 65.498 0.786 8.3 1.74 8.97
5/26/2022 7:45:00 PM 18.61 65.498 0.787 8.29 1.7 8.9
5/26/2022 8:00:00 PM 18.6 65.48 0.788 8.28 2.53 8.73
5/26/2022 8:15:00 PM 18.58 65.444 0.789 8.26 3.24 8.52
5/26/2022 8:30:00 PM 18.57 65.426 0.79 8.25 2.08 8.44
5/26/2022 8:45:00 PM 18.55 65.39 0.791 8.24 2.43 8.33
5/26/2022 9:00:00 PM 18.54 65.372 0.792 8.23 2.05 8.26
5/26/2022 9:15:00 PM 18.52 65.336 0.793 8.21 2.42 8.06
5/26/2022 9:30:00 PM 18.49 65.282 0.794 8.19 2.75 7.84
5/26/2022 9:45:00 PM 18.48 65.264 0.795 8.2 1.74 7.93
5/26/2022 10:00:00 PM 18.46 65.228 0.796 8.18 1.6 7.83
5/26/2022 10:15:00 PM 18.44 65.192 0.797 8.18 3.11 7.86
5/26/2022 10:30:00 PM 18.42 65.156 0.798 8.16 2.56 7.73
5/26/2022 10:45:00 PM 18.41 65.138 0.799 8.16 2.3 7.69
5/26/2022 11:00:00 PM 18.38 65.084 0.8 8.15 2.34 7.64
5/26/2022 11:15:00 PM 18.37 65.066 0.8 8.14 3.26 7.6
5/26/2022 11:30:00 PM 18.35 65.03 0.798 8.13 2.59 7.63
5/26/2022 11:45:00 PM 18.33 64.994 0.801 8.13 2.65 7.61
5/27/2022 12:00:00 AM 18.31 64.958 0.802 8.11 2.75 7.42
5/27/2022 12:15:00 AM 18.29 64.922 0.802 8.1 5.14 7.46
5/27/2022 12:30:00 AM 18.26 64.868 0.803 8.09 2.81 7.37
5/27/2022 12:45:00 AM 18.24 64.832 0.803 8.08 2.15 7.34
5/27/2022 1:00:00 AM 18.22 64.796 0.765 8.08 3.03 7.38
5/27/2022 1:15:00 AM 18.19 64.742 0.804 8.08 2.47 7.33
5/27/2022 1:30:00 AM 18.17 64.706 0.804 8.07 2.86 7.32
5/27/2022 1:45:00 AM 18.15 64.67 0.804 8.07 2.5 7.35
5/27/2022 2:00:00 AM 18.12 64.616 0.791 8.07 5.04 7.42
5/27/2022 2:15:00 AM 18.1 64.58 0.804 8.06 3.23 7.38
5/27/2022 2:30:00 AM 18.08 64.544 0.805 8.06 2.64 7.36
5/27/2022 2:45:00 AM 18.06 64.508 0.805 8.04 3.2 7.23
5/27/2022 3:00:00 AM 18.03 64.454 0.805 8.05 2.3 7.38
5/27/2022 3:15:00 AM 18.01 64.418 0.806 8.04 3.19 7.32
5/27/2022 3:30:00 AM 17.99 64.382 0.805 8.04 2.92 7.34
5/27/2022 3:45:00 AM 17.97 64.346 0.805 8.04 2.4 7.36
5/27/2022 4:00:00 AM 17.95 64.31 0.805 8.04 2.64 7.38
5/27/2022 4:15:00 AM 17.93 64.274 0.806 8.02 2.27 7.29
5/27/2022 4:30:00 AM 17.9 64.22 0.788 8.03 2.84 7.35
5/27/2022 4:45:00 AM 17.87 64.166 0.805 8.03 3.19 7.37
5/27/2022 5:00:00 AM 17.86 64.148 0.806 8.02 3.11 7.35
5/27/2022 5:15:00 AM 17.85 64.13 0.806 8.03 2.53 7.34
5/27/2022 5:30:00 AM 17.83 64.094 0.805 8.03 2.52 7.36
5/27/2022 5:45:00 AM 17.82 64.076 0.806 8.02 2.52 7.27
5/27/2022 6:00:00 AM 17.8 64.04 0.806 8.01 3.45 7.28
5/27/2022 6:15:00 AM 17.79 64.022 0.805 8.02 3.84 7.31
5/27/2022 6:30:00 AM 17.78 64.004 0.805 8.02 2.69 7.4
5/27/2022 6:45:00 AM 17.77 63.986 0.805 8.03 2.95 7.47
5/27/2022 7:00:00 AM 17.77 63.986 0.804 8.03 2.86 7.51
5/27/2022 7:15:00 AM 17.76 63.968 0.804 8.01 2.61 7.35
5/27/2022 7:30:00 AM 17.76 63.968 0.804 8.02 2.63 7.41
5/27/2022 7:45:00 AM 17.76 63.968 0.803 8.02 2.52 7.48
5/27/2022 8:00:00 AM 17.77 63.986 0.803 8.03 2.35 7.51
5/27/2022 8:15:00 AM 17.78 64.004 0.802 8.02 2.35 7.47
5/27/2022 8:30:00 AM 17.79 64.022 0.802 8.03 4.26 7.62
5/27/2022 8:45:00 AM 17.79 64.022 0.801 8.03 2.17 7.67
5/27/2022 9:00:00 AM 17.82 64.076 0.8 8.04 2.88 7.72
5/27/2022 9:15:00 AM 17.82 64.076 0.8 8.04 2.48 7.76
5/27/2022 9:30:00 AM 17.84 64.112 0.799 8.05 2.13 7.82
5/27/2022 9:45:00 AM 17.87 64.166 0.798 8.05 2.96 7.89
5/27/2022 10:00:00 AM 17.91 64.238 0.797 8.06 2.98 7.99
5/27/2022 10:15:00 AM 17.97 64.346 0.795 8.09 2.54 8.36
5/27/2022 10:30:00 AM 17.98 64.364 0.795 8.08 2.1 8.33
5/27/2022 10:45:00 AM 18.01 64.418 0.793 8.09 2.29 8.36
5/27/2022 11:00:00 AM 18.04 64.472 0.792 8.1 2.06 8.38
5/27/2022 11:15:00 AM 18.07 64.526 0.791 8.11 1.78 8.5
5/27/2022 11:30:00 AM 18.08 64.544 0.79 8.1 3.53 8.53
5/27/2022 11:45:00 AM 18.11 64.598 0.789 8.11 1.95 8.48
5/27/2022 12:00:00 PM 18.14 64.652 0.788 8.12 1.92 8.58
5/27/2022 12:15:00 PM 18.16 64.688 0.787 8.13 2.11 8.65
5/27/2022 12:30:00 PM 18.21 64.778 0.786 8.12 1.78 8.62
5/27/2022 12:45:00 PM 18.26 64.868 0.784 8.15 1.97 8.81
5/27/2022 1:00:00 PM 18.32 64.976 0.784 8.16 1.92 8.94
5/27/2022 1:15:00 PM 18.44 65.192 0.783 8.18 2.49 9.23
5/27/2022 1:30:00 PM 18.51 65.318 0.782 8.2 1.47 9.5
5/27/2022 1:45:00 PM 18.55 65.39 0.782 8.2 1.97 9.51
5/27/2022 2:00:00 PM 18.51 65.318 0.782 8.18 2.19 9.16
5/27/2022 2:15:00 PM 18.49 65.282 0.768 8.18 10.65 8.85
5/27/2022 2:30:00 PM 18.49 65.282 0.763 8.19 5.89 8.87
5/27/2022 2:45:00 PM 18.5 65.3 0.77 8.17 4.41 8.64
5/27/2022 3:00:00 PM 18.54 65.372 0.771 8.2 3.39 9.02
5/27/2022 3:15:00 PM 18.57 65.426 0.772 8.21 3.77 9.12
5/27/2022 3:30:00 PM 18.59 65.462 0.772 8.2 2.56 9.08
5/27/2022 3:45:00 PM 18.67 65.606 0.772 8.23 3.39 9.39
5/27/2022 4:00:00 PM 18.69 65.642 0.773 8.23 2.86 9.43
5/27/2022 4:15:00 PM 18.71 65.67799 0.774 8.24 3.42 9.43
5/27/2022 4:30:00 PM 18.72 65.696 0.773 8.25 4.06 9.43
5/27/2022 4:45:00 PM 18.73 65.714 0.777 8.23 2.92 9.22
5/27/2022 5:00:00 PM 18.75 65.75 0.778 8.24 2.7 9.28
5/27/2022 5:15:00 PM 18.78 65.804 0.779 8.25 2.45 9.31
5/27/2022 5:30:00 PM 18.8 65.84 0.78 8.25 2.86 9.33
5/27/2022 5:45:00 PM 18.78 65.804 0.781 8.24 3.25 9.24
5/27/2022 6:00:00 PM 18.78 65.804 0.782 8.23 4.06 9.06
5/27/2022 6:15:00 PM 18.79 65.82201 0.78 8.23 4.53 9.09
5/27/2022 6:30:00 PM 18.8 65.84 0.776 8.23 5.41 9.04
5/27/2022 6:45:00 PM 18.8 65.84 0.772 8.22 8.16 8.91
5/27/2022 7:00:00 PM 18.78 65.804 0.77 8.2 5.6 8.71
5/27/2022 7:15:00 PM 18.76 65.768 0.77 8.19 3.91 8.6
5/27/2022 7:30:00 PM 18.73 65.714 0.771 8.18 4.5 8.5
5/27/2022 7:45:00 PM 18.7 65.66 0.772 8.17 4.84 8.4
5/27/2022 8:00:00 PM 18.67 65.606 0.773 8.16 3.76 8.3
5/27/2022 8:15:00 PM 18.63 65.534 0.774 8.15 4.09 8.21
5/27/2022 8:30:00 PM 18.61 65.498 0.775 8.14 3.3 8.12
5/27/2022 8:45:00 PM 18.58 65.444 0.776 8.13 2.86 8.05
5/27/2022 9:00:00 PM 18.56 65.408 0.778 8.13 3.82 7.97
5/27/2022 9:15:00 PM 18.55 65.39 0.78 8.12 4.08 7.87
5/27/2022 9:30:00 PM 18.53 65.354 0.782 8.11 4.48 7.82
5/27/2022 9:45:00 PM 18.52 65.336 0.783 8.1 4.08 7.79
5/27/2022 10:00:00 PM 18.51 65.318 0.784 8.09 4.94 7.64
5/27/2022 10:15:00 PM 18.49 65.282 0.784 8.09 4.28 7.64
5/27/2022 10:30:00 PM 18.48 65.264 0.785 8.08 3.75 7.57
5/27/2022 10:45:00 PM 18.46 65.228 0.784 8.07 3.55 7.56
5/27/2022 11:00:00 PM 18.45 65.21 0.784 8.06 4.39 7.44
5/27/2022 11:15:00 PM 18.43 65.174 0.782 8.06 4.76 7.47
5/27/2022 11:30:00 PM 18.42 65.156 0.779 8.05 5.41 7.43
5/27/2022 11:45:00 PM 18.4 65.12 0.777 8.04 8.01 7.36
5/28/2022 12:00:00 AM 18.39 65.102 0.774 8.03 4.58 7.35
5/28/2022 12:15:00 AM 18.37 65.066 0.773 8.03 4.68 7.3
5/28/2022 12:30:00 AM 18.36 65.048 0.769 8.02 3.67 7.32
5/28/2022 12:45:00 AM 18.34 65.012 0.768 8.02 3.96 7.3
5/28/2022 1:00:00 AM 18.32 64.976 0.77 8.01 4.15 7.3
5/28/2022 1:15:00 AM 18.3 64.94 0.77 8.01 5.1 7.28
5/28/2022 1:30:00 AM 18.28 64.904 0.77 8 4.13 7.26
5/28/2022 1:45:00 AM 18.26 64.868 0.772 7.99 3.02 7.13
5/28/2022 2:00:00 AM 18.24 64.832 0.773 7.99 4.88 7.06
5/28/2022 2:15:00 AM 18.23 64.814 0.774 7.99 3.4 7.2
5/28/2022 2:30:00 AM 18.2 64.76 0.774 8 3.89 7.19
5/28/2022 2:45:00 AM 18.18 64.724 0.774 8 3.39 7.22
5/28/2022 3:00:00 AM 18.16 64.688 0.773 8 5.03 7.25
5/28/2022 3:15:00 AM 18.15 64.67 0.771 7.99 4.36 7.25
5/28/2022 3:30:00 AM 18.14 64.652 0.769 7.99 4.73 7.24
5/28/2022 3:45:00 AM 18.12 64.616 0.767 7.99 4.45 7.24
5/28/2022 4:00:00 AM 18.11 64.598 0.765 7.98 5.48 7.2
5/28/2022 4:15:00 AM 18.09 64.562 0.762 7.98 5.01 7.23
5/28/2022 4:30:00 AM 18.07 64.526 0.76 7.98 4.21 7.18
5/28/2022 4:45:00 AM 18.05 64.49 0.735 7.98 8.61 7.21
5/28/2022 5:00:00 AM 18.03 64.454 0.738 7.97 5.13 7.2
5/28/2022 5:15:00 AM 18.02 64.436 0.738 7.97 5.1 7.23
5/28/2022 5:30:00 AM 18 64.4 0.746 7.97 6.74 7.25
5/28/2022 5:45:00 AM 17.97 64.346 0.751 7.97 5.95 7.19
5/28/2022 6:00:00 AM 17.95 64.31 0.751 7.97 6.72 7.23
5/28/2022 6:15:00 AM 17.92 64.256 0.751 7.97 3.99 7.3
5/28/2022 6:30:00 AM 17.91 64.238 0.75 7.96 5.27 7.24
5/28/2022 6:45:00 AM 17.88 64.184 0.697 7.98 6.38 7.37
5/28/2022 7:00:00 AM 17.86 64.148 0.675 7.97 4.98 7.4
5/28/2022 7:15:00 AM 17.83 64.094 0.675 7.98 5.03 7.45
5/28/2022 7:30:00 AM 17.82 64.076 0.677 7.99 4.17 7.49
5/28/2022 7:45:00 AM 17.81 64.058 0.677 8 5.78 7.55
5/28/2022 8:00:00 AM 17.8 64.04 0.674 8 5.77 7.59
5/28/2022 8:15:00 AM 17.81 64.058 0.677 8 3.51 7.65
5/28/2022 8:30:00 AM 17.81 64.058 0.676 8.02 4.27 7.77
5/28/2022 8:45:00 AM 17.83 64.094 0.674 8.03 5.21 7.85
5/28/2022 9:00:00 AM 17.87 64.166 0.674 8.04 3.68 8
5/28/2022 9:15:00 AM 17.91 64.238 0.673 8.06 5.24 8.22
5/28/2022 9:30:00 AM 17.91 64.238 0.672 8.07 4.21 8.32
5/28/2022 9:45:00 AM 17.96 64.328 0.673 8.08 5.6 8.42
5/28/2022 10:00:00 AM 18.03 64.454 0.671 8.09 3.64 8.59
5/28/2022 10:15:00 AM 18.13 64.634 0.67 8.1 3.2 8.74
5/28/2022 10:30:00 AM 18.29 64.922 0.748 8.13 3.99 9
5/28/2022 10:45:00 AM 18.45 65.21 0.746 8.15 3.9 9.25
5/28/2022 11:00:00 AM 18.56 65.408 0.745 8.17 3.42 9.53
5/28/2022 11:15:00 AM 18.66 65.588 0.743 8.19 5.68 9.69
5/28/2022 11:30:00 AM 18.8 65.84 0.741 8.2 3.19 9.79
5/28/2022 11:45:00 AM 18.93 66.074 0.74 8.21 4.12 9.97
5/28/2022 12:00:00 PM 18.92 66.056 0.739 8.22 4.58 10.03
5/28/2022 12:15:00 PM 18.93 66.074 0.737 8.22 4.81 9.91
5/28/2022 12:30:00 PM 19.07 66.326 0.736 8.22 7.2 9.97
5/28/2022 12:45:00 PM 19.28 66.704 0.735 8.25 2.76 10.33
5/28/2022 1:00:00 PM 19.49 67.082 0.731 8.27 3.07 10.55
5/28/2022 1:15:00 PM 19.59 67.262 0.73 8.28 5.31 10.63
5/28/2022 1:30:00 PM 19.63 67.334 0.727 8.27 3.77 10.48
5/28/2022 1:45:00 PM 19.7 67.46 0.73 8.29 3.08 10.63
5/28/2022 2:00:00 PM 19.78 67.604 0.731 8.3 3 10.67
5/28/2022 2:15:00 PM 19.97 67.946 0.72 8.31 2.31 10.78
5/28/2022 2:30:00 PM 19.97 67.946 0.723 8.31 2.65 10.73
5/28/2022 2:45:00 PM 20.07 68.126 0.713 8.31 3.96 10.64
5/28/2022 3:00:00 PM 20.04 68.07201 0.721 8.31 3.45 10.57
5/28/2022 3:15:00 PM 20.03 68.054 0.722 8.3 5.65 10.45
5/28/2022 3:30:00 PM 20.11 68.198 0.707 8.3 4.67 10.37
5/28/2022 3:45:00 PM 20.21 68.378 0.729 8.32 5.24 10.45
5/28/2022 4:00:00 PM 20.16 68.288 0.744 8.31 5.51 10.3
5/28/2022 4:15:00 PM 20.18 68.324 0.748 8.3 4.78 10.08
5/28/2022 4:30:00 PM 20.28 68.504 0.745 8.31 3.71 10.09
5/28/2022 4:45:00 PM 20.28 68.504 0.748 8.31 5.06 9.97
5/28/2022 5:00:00 PM 20.23 68.414 0.751 8.3 3.81 9.85
5/28/2022 5:15:00 PM 20.21 68.378 0.754 8.29 2.94 9.64
5/28/2022 5:30:00 PM 20.21 68.378 0.757 8.29 3.46 9.54
5/28/2022 5:45:00 PM 20.23 68.414 0.759 8.29 3.02 9.47
5/28/2022 6:00:00 PM 20.25 68.45 0.758 8.28 4.14 9.43
5/28/2022 6:15:00 PM 20.23 68.414 0.765 8.28 3.35 9.3
5/28/2022 6:30:00 PM 20.2 68.36 0.768 8.26 3.12 9.03
5/28/2022 6:45:00 PM 20.17 68.306 0.785 8.25 2.79 8.83
5/28/2022 7:00:00 PM 20.14 68.252 0.785 8.24 2.8 8.71
5/28/2022 7:15:00 PM 20.11 68.198 0.772 8.23 2.93 8.57
5/28/2022 7:30:00 PM 20.1 68.18 0.76 8.23 2.96 8.49
5/28/2022 7:45:00 PM 20.09 68.162 0.789 8.21 6.97 8.35
5/28/2022 8:00:00 PM 20.07 68.126 0.759 8.21 4.13 8.26
5/28/2022 8:15:00 PM 20.04 68.07201 0.788 8.19 3.52 8.05
5/28/2022 8:30:00 PM 20 68 0.789 8.18 2.51 7.97
5/28/2022 8:45:00 PM 19.95 67.91 0.79 8.16 3.92 7.85
5/28/2022 9:00:00 PM 19.9 67.82 0.791 8.15 3.02 7.76
5/28/2022 9:15:00 PM 19.85 67.73 0.794 8.14 3 7.68
5/28/2022 9:30:00 PM 19.8 67.64 0.794 8.13 3.3 7.62
5/28/2022 9:45:00 PM 19.75 67.55 0.793 8.13 3.21 7.57
5/28/2022 10:00:00 PM 19.7 67.46 0.792 8.11 3.16 7.47
5/28/2022 10:15:00 PM 19.65 67.37 0.791 8.1 2.95 7.37
5/28/2022 10:30:00 PM 19.61 67.298 0.79 8.09 3.75 7.27
5/28/2022 10:45:00 PM 19.55 67.19 0.789 8.08 3.4 7.31
5/28/2022 11:00:00 PM 19.49 67.082 0.79 8.07 3.83 7.23
5/28/2022 11:15:00 PM 19.44 66.992 0.788 8.06 4.47 7.17
5/28/2022 11:30:00 PM 19.39 66.902 0.781 8.05 4.66 7.07
5/28/2022 11:45:00 PM 19.35 66.83 0.75 8.04 2.76 7.12
5/29/2022 12:00:00 AM 19.31 66.758 0.76 8.03 4.56 7.08
5/29/2022 12:15:00 AM 19.27 66.686 0.768 8.02 3.59 7.03
5/29/2022 12:30:00 AM 19.23 66.614 0.766 8.02 4.32 6.94
5/29/2022 12:45:00 AM 19.18 66.524 0.765 8.01 5.39 7.06
5/29/2022 1:00:00 AM 19.14 66.452 0.762 8.01 4.77 7.03
5/29/2022 1:15:00 AM 19.09 66.362 0.768 8 5.83 7.01
5/29/2022 1:30:00 AM 19.04 66.272 0.765 8 5.12 6.98
5/29/2022 1:45:00 AM 19 66.2 0.763 7.99 4.94 7
5/29/2022 2:00:00 AM 18.96 66.128 0.762 7.99 4.07 6.98
5/29/2022 2:15:00 AM 18.92 66.056 0.767 7.98 5.54 6.93
5/29/2022 2:30:00 AM 18.87 65.966 0.766 7.99 4.91 7.02
5/29/2022 2:45:00 AM 18.82 65.876 0.774 7.98 5.87 6.97
5/29/2022 3:00:00 AM 18.78 65.804 0.774 7.98 5.19 6.97
5/29/2022 3:15:00 AM 18.73 65.714 0.773 7.97 5.31 6.94
5/29/2022 3:30:00 AM 18.7 65.66 0.773 7.98 4.9 7.02
5/29/2022 3:45:00 AM 18.66 65.588 0.773 7.97 3.88 6.94
5/29/2022 4:00:00 AM 18.6 65.48 0.773 7.97 3.77 7
5/29/2022 4:15:00 AM 18.55 65.39 0.773 7.97 5.8 7.04
5/29/2022 4:30:00 AM 18.51 65.318 0.773 7.97 3.88 7.03
5/29/2022 4:45:00 AM 18.45 65.21 0.773 7.97 4.3 7.06
5/29/2022 5:00:00 AM 18.41 65.138 0.772 7.97 4.7 7.05
5/29/2022 5:15:00 AM 18.37 65.066 0.772 7.97 5.15 7.07
5/29/2022 5:30:00 AM 18.33 64.994 0.772 7.97 6.34 6.86
5/29/2022 5:45:00 AM 18.3 64.94 0.772 7.97 5.42 7.12
5/29/2022 6:00:00 AM 18.26 64.868 0.771 7.98 3.6 7.17
5/29/2022 6:15:00 AM 18.23 64.814 0.772 7.98 3.46 7.17
5/29/2022 6:30:00 AM 18.21 64.778 0.771 7.98 4.67 7.18
5/29/2022 6:45:00 AM 18.18 64.724 0.771 7.98 4.07 7.24
5/29/2022 7:00:00 AM 18.15 64.67 0.771 7.98 4.18 7.3
5/29/2022 7:15:00 AM 18.14 64.652 0.771 7.98 2.88 7.34
5/29/2022 7:30:00 AM 18.14 64.652 0.771 7.99 3.96 7.45
5/29/2022 7:45:00 AM 18.13 64.634 0.771 7.99 4.82 7.46
5/29/2022 8:00:00 AM 18.13 64.634 0.77 8 4.19 7.58
5/29/2022 8:15:00 AM 18.15 64.67 0.77 8 3.92 7.66
5/29/2022 8:30:00 AM 18.17 64.706 0.77 8.01 3.57 7.8
5/29/2022 8:45:00 AM 18.16 64.688 0.771 8.01 4.95 7.77
5/29/2022 9:00:00 AM 18.19 64.742 0.771 8.02 4.54 7.93
5/29/2022 9:15:00 AM 18.21 64.778 0.771 8.03 3.11 7.96
5/29/2022 9:30:00 AM 18.24 64.832 0.772 8.03 3.73 7.96
5/29/2022 9:45:00 AM 18.33 64.994 0.772 8.05 4.08 8.23
5/29/2022 10:00:00 AM 18.42 65.156 0.772 8.07 3.56 8.44
5/29/2022 10:15:00 AM 18.56 65.408 0.772 8.09 3.16 8.74
5/29/2022 10:30:00 AM 18.72 65.696 0.773 8.11 2.68 9
5/29/2022 10:45:00 AM 18.77 65.786 0.774 8.11 5.05 9.04
5/29/2022 11:00:00 AM 18.87 65.966 0.774 8.13 3 9.18
5/29/2022 11:15:00 AM 18.94 66.092 0.775 8.13 3.05 9.15
5/29/2022 11:30:00 AM 19.14 66.452 0.775 8.15 2.71 9.5
5/29/2022 11:45:00 AM 19.38 66.884 0.776 8.19 2.32 9.9
5/29/2022 12:00:00 PM 19.57 67.226 0.776 8.21 3.01 10.17
5/29/2022 12:15:00 PM 19.76 67.568 0.777 8.22 2.94 10.3
5/29/2022 12:30:00 PM 19.98 67.964 0.778 8.25 2.59 10.6
5/29/2022 12:45:00 PM 20.14 68.252 0.778 8.26 3.11 10.71
5/29/2022 1:00:00 PM 20.31 68.558 0.779 8.29 2.45 10.92
5/29/2022 1:15:00 PM 20.46 68.828 0.78 8.3 2.4 11.09
5/29/2022 1:30:00 PM 20.57 69.026 0.78 8.3 6.36 10.91
5/29/2022 1:45:00 PM 20.73 69.314 0.781 8.32 3.37 11.14
5/29/2022 2:00:00 PM 20.7 69.26 0.782 8.31 3.55 10.86
5/29/2022 2:15:00 PM 20.77 69.386 0.783 8.31 3.02 10.77
5/29/2022 2:30:00 PM 20.77 69.386 0.783 8.3 4.76 10.47
5/29/2022 2:45:00 PM 21.03 69.854 0.783 8.32 2.85 10.85
5/29/2022 3:00:00 PM 21.1 69.98 0.784 8.33 27.14 10.75
5/29/2022 3:15:00 PM 21.19 70.142 0.784 8.33 3.81 10.78
5/29/2022 3:30:00 PM 21.22 70.196 0.785 8.33 8.27 10.57
5/29/2022 3:45:00 PM 21.24 70.232 0.782 8.32 2.3 10.41
5/29/2022 4:00:00 PM 21.33 70.394 0.761 8.32 3.62 10.42
5/29/2022 4:15:00 PM 21.33 70.394 0.782 8.31 4.05 10.2
5/29/2022 4:30:00 PM 21.36 70.448 0.783 8.32 3.36 10.19
5/29/2022 4:45:00 PM 21.32 70.376 0.784 8.3 2.89 9.84
5/29/2022 5:00:00 PM 21.34 70.412 0.785 8.3 2.87 9.78
5/29/2022 5:15:00 PM 21.3 70.34 0.786 8.29 3.36 9.59
5/29/2022 5:30:00 PM 21.29 70.32201 0.788 8.29 3.16 9.42
5/29/2022 5:45:00 PM 21.31 70.358 0.782 8.28 2.86 9.27
5/29/2022 6:00:00 PM 21.31 70.358 0.785 8.28 3.34 9.19
5/29/2022 6:15:00 PM 21.3 70.34 0.788 8.27 3.62 8.88
5/29/2022 6:30:00 PM 21.31 70.358 0.788 8.26 2.21 8.8
5/29/2022 6:45:00 PM 21.3 70.34 0.787 8.25 3.16 8.61
5/29/2022 7:00:00 PM 21.27 70.286 0.788 8.23 2.23 8.41
5/29/2022 7:15:00 PM 21.27 70.286 0.787 8.23 2.58 8.3
5/29/2022 7:30:00 PM 21.25 70.25 0.787 8.22 2.5 8.26
5/29/2022 7:45:00 PM 21.22 70.196 0.787 8.21 2.22 8.05
5/29/2022 8:00:00 PM 21.19 70.142 0.786 8.2 4.05 7.92
5/29/2022 8:15:00 PM 21.16 70.088 0.786 8.19 3.97 7.87
5/29/2022 8:30:00 PM 21.12 70.016 0.785 8.18 2.7 7.7
5/29/2022 8:45:00 PM 21.08 69.944 0.783 8.17 2.7 7.56
5/29/2022 9:00:00 PM 21.02 69.836 0.757 8.15 4.02 7.38
5/29/2022 9:15:00 PM 20.99 69.782 0.783 8.15 3.21 7.39
5/29/2022 9:30:00 PM 20.95 69.71 0.782 8.14 3.38 7.32
5/29/2022 9:45:00 PM 20.91 69.638 0.782 8.12 4.38 7.16
5/29/2022 10:00:00 PM 20.87 69.566 0.78 8.11 3.6 7.1
5/29/2022 10:15:00 PM 20.82 69.476 0.78 8.11 3.66 7.1
5/29/2022 10:30:00 PM 20.76 69.368 0.779 8.09 3.68 7
5/29/2022 10:45:00 PM 20.71 69.278 0.778 8.08 4.27 6.91
5/29/2022 11:00:00 PM 20.64 69.152 0.777 8.07 4.05 6.91
5/29/2022 11:15:00 PM 20.58 69.044 0.776 8.06 2.67 6.79
5/29/2022 11:30:00 PM 20.51 68.918 0.775 8.05 3.3 6.8
5/29/2022 11:45:00 PM 20.44 68.792 0.775 8.04 3.94 6.72
5/30/2022 12:00:00 AM 20.37 68.666 0.773 8.04 2.95 6.76
5/30/2022 12:15:00 AM 20.29 68.522 0.772 8.03 3.09 6.75
5/30/2022 12:30:00 AM 20.22 68.396 0.771 8.02 3.34 6.69
5/30/2022 12:45:00 AM 20.15 68.27 0.77 8.02 3.39 6.7
5/30/2022 1:00:00 AM 20.09 68.162 0.769 8.01 2.9 6.72
5/30/2022 1:15:00 AM 20.02 68.036 0.768 8 4.56 6.67
5/30/2022 1:30:00 AM 19.95 67.91 0.767 8 3.35 6.69
5/30/2022 1:45:00 AM 19.89 67.802 0.766 7.99 5.5 6.65
5/30/2022 2:00:00 AM 19.83 67.694 0.765 7.99 5.17 6.67
5/30/2022 2:15:00 AM 19.77 67.586 0.764 7.99 3.71 6.71
5/30/2022 2:30:00 AM 19.7 67.46 0.763 7.98 3.54 6.68
5/30/2022 2:45:00 AM 19.65 67.37 0.762 7.98 3.6 6.65
5/30/2022 3:00:00 AM 19.59 67.262 0.761 7.97 3.6 6.56
5/30/2022 3:15:00 AM 19.53 67.154 0.76 7.96 3.11 6.58
5/30/2022 3:30:00 AM 19.48 67.064 0.759 7.97 3.91 6.68
5/30/2022 3:45:00 AM 19.43 66.974 0.708 7.96 3.6 6.6
5/30/2022 4:00:00 AM 19.37 66.866 0.757 7.96 3.4 6.65
5/30/2022 4:15:00 AM 19.31 66.758 0.758 7.96 3.82 6.72
5/30/2022 4:30:00 AM 19.26 66.668 0.755 7.96 3.33 6.71
5/30/2022 4:45:00 AM 19.21 66.578 0.754 7.96 3.48 6.73
5/30/2022 5:00:00 AM 19.16 66.488 0.753 7.95 4.31 6.71
5/30/2022 5:15:00 AM 19.11 66.398 0.753 7.96 3.7 6.72
5/30/2022 5:30:00 AM 19.05 66.29 0.727 7.96 3.23 6.79
5/30/2022 5:45:00 AM 19 66.2 0.729 7.96 3.97 6.84
5/30/2022 6:00:00 AM 18.96 66.128 0.732 7.95 2.89 6.77
5/30/2022 6:15:00 AM 18.91 66.038 0.742 7.95 3.46 6.82
5/30/2022 6:30:00 AM 18.86 65.948 0.742 7.95 3.45 6.9
5/30/2022 6:45:00 AM 18.83 65.894 0.742 7.95 3.47 6.77
5/30/2022 7:00:00 AM 18.79 65.82201 0.742 7.95 4.12 6.9
5/30/2022 7:15:00 AM 18.76 65.768 0.741 7.96 2.97 6.97
5/30/2022 7:30:00 AM 18.73 65.714 0.741 7.96 2.71 7.04
5/30/2022 7:45:00 AM 18.72 65.696 0.741 7.96 3.1 7.13
5/30/2022 8:00:00 AM 18.7 65.66 0.74 7.97 3.75 7.19
5/30/2022 8:15:00 AM 18.7 65.66 0.739 7.97 4.29 7.26
5/30/2022 8:30:00 AM 18.7 65.66 0.738 7.97 3.86 7.28
5/30/2022 8:45:00 AM 18.71 65.67799 0.739 7.97 3.42 7.31
5/30/2022 9:00:00 AM 18.72 65.696 0.738 7.98 3.67 7.34
5/30/2022 9:15:00 AM 18.75 65.75 0.734 7.98 6.84 7.38
5/30/2022 9:30:00 AM 18.81 65.858 0.734 7.99 3.94 7.56
5/30/2022 9:45:00 AM 18.88 65.984 0.733 8.01 4.52 7.84
5/30/2022 10:00:00 AM 18.99 66.182 0.733 8.02 4.08 8.03
5/30/2022 10:15:00 AM 19.1 66.38 0.732 8.03 2.91 8.2
5/30/2022 10:30:00 AM 19.37 66.866 0.725 8.07 15.9 8.71
5/30/2022 10:45:00 AM 19.49 67.082 0.727 8.06 9.61 8.65
5/30/2022 11:00:00 AM 19.63 67.334 0.727 8.08 6.05 8.95
5/30/2022 11:15:00 AM 19.77 67.586 0.727 8.09 8.54 9.03
5/30/2022 11:30:00 AM 19.99 67.982 0.727 8.11 4.32 9.29
5/30/2022 11:45:00 AM 20.18 68.324 0.728 8.13 3.41 9.45
5/30/2022 12:00:00 PM 20.37 68.666 0.715 8.14 3.37 9.7
5/30/2022 12:15:00 PM 20.6 69.08 0.714 8.17 3.99 9.95
5/30/2022 12:30:00 PM 20.79 69.422 0.715 8.2 2.92 10.21
5/30/2022 12:45:00 PM 20.97 69.746 0.716 8.21 3.24 10.36
5/30/2022 1:00:00 PM 21.18 70.124 0.708 8.24 2.5 10.48
5/30/2022 1:15:00 PM 21.33 70.394 0.715 8.24 3.47 10.62
5/30/2022 1:30:00 PM 21.43 70.574 0.711 8.25 2.33 10.48
5/30/2022 1:45:00 PM 21.64 70.952 0.711 8.27 2.62 10.76
5/30/2022 2:00:00 PM 21.89 71.402 0.708 8.29 3.28 10.92
5/30/2022 2:15:00 PM 21.99 71.582 0.712 8.3 3.49 10.85
5/30/2022 2:30:00 PM 22.09 71.762 0.709 8.29 3 10.65
5/30/2022 2:45:00 PM 22.27 72.086 0.707 8.31 3.37 10.84
5/30/2022 3:00:00 PM 22.36 72.248 0.709 8.31 5.23 10.74
5/30/2022 3:15:00 PM 22.4 72.32 0.701 8.3 3.09 10.48
5/30/2022 3:30:00 PM 22.51 72.518 0.73 8.31 3.59 10.47
5/30/2022 3:45:00 PM 22.59 72.662 0.73 8.31 11.14 10.35
5/30/2022 4:00:00 PM 22.63 72.734 0.695 8.31 3.56 10.2
5/30/2022 4:15:00 PM 22.68 72.824 0.699 8.3 3.95 10
5/30/2022 4:30:00 PM 22.73 72.914 0.702 8.3 2.82 9.92
5/30/2022 4:45:00 PM 22.74 72.932 0.703 8.3 10.53 9.78
5/30/2022 5:00:00 PM 22.74 72.932 0.705 8.29 3.8 9.53
5/30/2022 5:15:00 PM 22.73 72.914 0.707 8.28 3.29 9.38
5/30/2022 5:30:00 PM 22.75 72.95 0.694 8.27 3.37 9.13
5/30/2022 5:45:00 PM 22.73 72.914 0.698 8.26 3.24 8.84
5/30/2022 6:00:00 PM 22.71 72.878 0.707 8.25 2.77 8.63
5/30/2022 6:15:00 PM 22.72 72.896 0.711 8.24 3.32 8.46
5/30/2022 6:30:00 PM 22.75 72.95 0.713 8.24 7.24 8.34
5/30/2022 6:45:00 PM 22.76 72.968 0.712 8.23 4.19 8.19
5/30/2022 7:00:00 PM 22.75 72.95 0.716 8.21 4.23 7.96
5/30/2022 7:15:00 PM 22.76 72.968 0.69 8.21 3.35 7.85
5/30/2022 7:30:00 PM 22.76 72.968 0.692 8.19 3.34 7.68
5/30/2022 7:45:00 PM 22.77 72.986 0.691 8.2 4.35 7.72
5/30/2022 8:00:00 PM 22.75 72.95 0.696 8.19 2.94 7.56
5/30/2022 8:15:00 PM 22.73 72.914 0.697 8.18 6.33 7.41
5/30/2022 8:30:00 PM 22.71 72.878 0.697 8.17 3.77 7.27
5/30/2022 8:45:00 PM 22.68 72.824 0.698 8.16 3.37 7.18
5/30/2022 9:00:00 PM 22.63 72.734 0.682 8.14 3.69 6.97
5/30/2022 9:15:00 PM 22.59 72.662 0.692 8.14 4.15 6.93
5/30/2022 9:30:00 PM 22.56 72.608 0.696 8.13 4.24 6.86
5/30/2022 9:45:00 PM 22.52 72.536 0.692 8.12 3.16 6.82
5/30/2022 10:00:00 PM 22.47 72.446 0.749 8.11 3.97 6.77
5/30/2022 10:15:00 PM 22.41 72.338 0.701 8.1 3.49 6.7
5/30/2022 10:30:00 PM 22.36 72.248 0.757 8.08 3.59 6.52
5/30/2022 10:45:00 PM 22.29 72.122 0.759 8.07 3.27 6.53
5/30/2022 11:00:00 PM 22.23 72.014 0.741 8.06 3.34 6.39
5/30/2022 11:15:00 PM 22.17 71.906 0.737 8.05 3.99 6.41
5/30/2022 11:30:00 PM 22.1 71.78 0.766 8.04 3.52 6.33
5/30/2022 11:45:00 PM 22.04 71.672 0.767 8.04 3.92 6.32
5/31/2022 12:00:00 AM 21.96 71.528 0.768 8.02 4.99 6.24
5/31/2022 12:15:00 AM 21.9 71.42 0.768 8.02 2.9 6.31
5/31/2022 12:30:00 AM 21.82 71.276 0.769 8.02 4.42 6.33
5/31/2022 12:45:00 AM 21.75 71.15 0.77 8.01 4.88 6.25
5/31/2022 1:00:00 AM 21.68 71.024 0.77 8 4.46 6.29
5/31/2022 1:15:00 AM 21.61 70.898 0.771 8 3.83 6.25
5/31/2022 1:30:00 AM 21.54 70.772 0.771 7.99 3.82 6.16
5/31/2022 1:45:00 AM 21.48 70.664 0.771 7.99 5.11 6.28
5/31/2022 2:00:00 AM 21.42 70.556 0.772 7.98 4.49 6.22
5/31/2022 2:15:00 AM 21.35 70.43 0.772 7.98 4.19 6.3
5/31/2022 2:30:00 AM 21.3 70.34 0.772 7.98 5.15 6.29
5/31/2022 2:45:00 AM 21.23 70.214 0.772 7.98 4.9 6.3
5/31/2022 3:00:00 AM 21.18 70.124 0.772 7.97 2.94 6.29
5/31/2022 3:15:00 AM 21.13 70.034 0.772 7.96 4.01 6.23
5/31/2022 3:30:00 AM 21.08 69.944 0.772 7.97 3.58 6.28
5/31/2022 3:45:00 AM 21.02 69.836 0.772 7.96 4.74 6.23
5/31/2022 4:00:00 AM 20.97 69.746 0.771 7.96 4.81 6.22
5/31/2022 4:15:00 AM 20.92 69.656 0.771 7.96 5.09 6.26
5/31/2022 4:30:00 AM 20.87 69.566 0.77 7.96 5.75 6.26
5/31/2022 4:45:00 AM 20.82 69.476 0.77 7.97 3.58 6.38
5/31/2022 5:00:00 AM 20.78 69.404 0.77 7.95 3.37 6.28
5/31/2022 5:15:00 AM 20.73 69.314 0.769 7.95 3.86 6.29
5/31/2022 5:30:00 AM 20.68 69.224 0.769 7.96 5.03 6.32
5/31/2022 5:45:00 AM 20.64 69.152 0.768 7.95 3.44 6.28
5/31/2022 6:00:00 AM 20.59 69.062 0.767 7.95 3.96 6.36
5/31/2022 6:15:00 AM 20.55 68.99 0.753 7.95 3.79 6.29
5/31/2022 6:30:00 AM 20.51 68.918 0.753 7.95 8.5 6.35
5/31/2022 6:45:00 AM 20.48 68.864 0.754 7.95 3.7 6.35
5/31/2022 7:00:00 AM 20.45 68.81 0.744 7.96 4.31 6.54
5/31/2022 7:15:00 AM 20.42 68.756 0.762 7.96 3.38 6.44
5/31/2022 7:30:00 AM 20.39 68.702 0.763 7.96 4.12 6.43
5/31/2022 7:45:00 AM 20.38 68.684 0.763 7.97 3.06 6.62
5/31/2022 8:00:00 AM 20.37 68.666 0.762 7.97 3.29 6.68
5/31/2022 8:15:00 AM 20.36 68.648 0.762 7.97 4 6.69
5/31/2022 8:30:00 AM 20.36 68.648 0.762 7.96 4.53 6.78
5/31/2022 8:45:00 AM 20.36 68.648 0.762 7.96 3.81 6.72
5/31/2022 9:00:00 AM 20.39 68.702 0.761 7.97 4.05 6.94
5/31/2022 9:15:00 AM 20.41 68.738 0.761 7.98 5.09 6.94
5/31/2022 9:30:00 AM 20.47 68.846 0.76 7.98 3.92 7
5/31/2022 9:45:00 AM 20.54 68.972 0.76 8 3.26 7.27
5/31/2022 10:00:00 AM 20.63 69.134 0.759 8.01 3.44 7.36
5/31/2022 10:15:00 AM 20.75 69.35 0.758 8.01 4.45 7.53
5/31/2022 10:30:00 AM 21.02 69.836 0.758 8.04 5.09 7.97
5/31/2022 10:45:00 AM 21.17 70.106 0.757 8.05 4.78 8.06
5/31/2022 11:00:00 AM 21.38 70.484 0.756 8.09 7.17 8.46
5/31/2022 11:15:00 AM 21.52 70.736 0.756 8.12 6.16 8.95
5/31/2022 11:30:00 AM 21.76 71.168 0.754 8.15 5.55 9.2
5/31/2022 11:45:00 AM 21.93 71.474 0.754 8.16 6.13 9.37
5/31/2022 12:00:00 PM 22.13 71.834 0.753 8.17 5.73 9.54
5/31/2022 12:15:00 PM 22.35 72.23 0.751 8.21 5.25 9.95
5/31/2022 12:30:00 PM 22.52 72.536 0.75 8.23 5.39 10.07
5/31/2022 12:45:00 PM 22.71 72.878 0.75 8.25 4.42 10.34
5/31/2022 1:00:00 PM 22.89 73.202 0.749 8.26 4.78 10.44
5/31/2022 1:15:00 PM 23.06 73.508 0.748 8.29 4.53 10.63
5/31/2022 1:30:00 PM 23.22 73.796 0.747 8.29 6.97 10.58
5/31/2022 1:45:00 PM 23.39 74.102 0.746 8.29 4.04 10.56
5/31/2022 2:00:00 PM 23.57 74.426 0.744 8.32 4.16 10.81
5/31/2022 2:15:00 PM 23.67 74.606 0.744 8.32 6.55 10.75
5/31/2022 2:30:00 PM 23.79 74.82201 0.743 8.33 3.99 10.71
5/31/2022 2:45:00 PM 23.9 75.02 0.742 8.33 4.6 10.63
5/31/2022 3:00:00 PM 24.01 75.218 0.74 8.34 5.63 10.67
5/31/2022 3:15:00 PM 24.1 75.38 0.74 8.35 3.71 10.64
5/31/2022 3:30:00 PM 24.17 75.506 0.739 8.34 3.96 10.5
5/31/2022 3:45:00 PM 24.17 75.506 0.738 8.34 4.95 10.26
5/31/2022 4:00:00 PM 24.17 75.506 0.738 8.33 3.86 9.96
5/31/2022 4:15:00 PM 24.18 75.524 0.737 8.31 5.35 9.66
5/31/2022 4:30:00 PM 24.23 75.614 0.737 8.31 5.86 9.55
5/31/2022 4:45:00 PM 24.26 75.668 0.736 8.31 5.38 9.59
5/31/2022 5:00:00 PM 24.23 75.614 0.736 8.3 4.28 9.35
5/31/2022 5:15:00 PM 24.24 75.632 0.735 8.3 5.45 9.13
5/31/2022 5:30:00 PM 24.21 75.578 0.735 8.28 5.28 8.77
5/31/2022 5:45:00 PM 24.2 75.56 0.735 8.26 4.37 8.52
5/31/2022 6:00:00 PM 24.18 75.524 0.735 8.26 5.56 8.33
5/31/2022 6:15:00 PM 24.18 75.524 0.734 8.27 5.12 8.2
5/31/2022 6:30:00 PM 24.19 75.542 0.734 8.25 5.09 8.16
5/31/2022 6:45:00 PM 24.19 75.542 0.734 8.25 7.08 8.03
5/31/2022 7:00:00 PM 24.19 75.542 0.734 8.24 6.35 7.85
5/31/2022 7:15:00 PM 24.19 75.542 0.734 8.23 6.3 7.71
5/31/2022 7:30:00 PM 24.18 75.524 0.734 8.22 5.86 7.55
5/31/2022 7:45:00 PM 24.16 75.488 0.734 8.21 5.62 7.42
5/31/2022 8:00:00 PM 24.13 75.434 0.735 8.2 8 7.2
5/31/2022 8:15:00 PM 24.1 75.38 0.735 8.19 5.42 7.19
5/31/2022 8:30:00 PM 24.07 75.326 0.735 8.18 5.05 7.01
5/31/2022 8:45:00 PM 24.03 75.254 0.736 8.18 6.36 6.83
5/31/2022 9:00:00 PM 23.98 75.164 0.736 8.17 7.41 6.74
5/31/2022 9:15:00 PM 23.94 75.092 0.628 8.16 5.29 6.75
5/31/2022 9:30:00 PM 23.89 75.002 0.627 8.15 6.5 6.62
5/31/2022 9:45:00 PM 23.83 74.894 0.737 8.14 5.62 6.48
5/31/2022 10:00:00 PM 23.77 74.786 0.738 8.13 6.03 6.45
5/31/2022 10:15:00 PM 23.71 74.67799 0.739 8.11 8.19 6.35
5/31/2022 10:30:00 PM 23.65 74.57 0.74 8.11 6.84 6.31
5/31/2022 10:45:00 PM 23.58 74.444 0.741 8.1 7.52 6.27
5/31/2022 11:00:00 PM 23.51 74.318 0.742 8.08 7.16 6.17
5/31/2022 11:15:00 PM 23.43 74.174 0.742 8.08 3.51 6.14
5/31/2022 11:30:00 PM 23.36 74.048 0.693 8.07 3.69 6.06
5/31/2022 11:45:00 PM 23.28 73.904 0.692 8.06 5.11 6.09
6/1/2022 12:00:00 AM 23.2 73.76 0.697 8.05 4.87 6
6/1/2022 12:15:00 AM 23.12 73.616 0.693 8.05 4.61 6.08
6/1/2022 12:30:00 AM 23.04 73.472 0.688 8.04 5.09 6.03
6/1/2022 12:45:00 AM 22.96 73.328 0.659 8.03 4.09 6.02
6/1/2022 1:00:00 AM 22.88 73.184 0.659 8.02 4.16 6.03
6/1/2022 1:15:00 AM 22.81 73.058 0.747 8.01 4.17 6
6/1/2022 1:30:00 AM 22.74 72.932 0.737 8.01 3.92 6.02
6/1/2022 1:45:00 AM 22.66 72.788 0.738 8.01 4.43 6.02
6/1/2022 2:00:00 AM 22.59 72.662 0.738 8 4.15 6.05
6/1/2022 2:15:00 AM 22.52 72.536 0.738 8 4.52 6.06
6/1/2022 2:30:00 AM 22.45 72.41 0.74 7.99 4.91 5.99
6/1/2022 2:45:00 AM 22.38 72.284 0.741 7.99 5.09 6.04
6/1/2022 3:00:00 AM 22.31 72.158 0.636 7.98 4.13 6.05
6/1/2022 3:15:00 AM 22.25 72.05 0.751 7.98 3.64 6.03
6/1/2022 3:30:00 AM 22.19 71.942 0.751 7.98 6.24 6.06
6/1/2022 3:45:00 AM 22.12 71.816 0.752 7.97 5.47 6
6/1/2022 4:00:00 AM 22.06 71.708 0.752 7.97 4.28 6.06
6/1/2022 4:15:00 AM 22 71.6 0.752 7.97 3.62 6.09
6/1/2022 4:30:00 AM 21.95 71.51 0.751 7.97 4.73 6.12
6/1/2022 4:45:00 AM 21.9 71.42 0.743 7.97 4.43 6.07
6/1/2022 5:00:00 AM 21.84 71.312 0.736 7.96 4.85 6.09
6/1/2022 5:15:00 AM 21.79 71.222 0.74 7.96 6.58 6.11
6/1/2022 5:30:00 AM 21.74 71.132 0.739 7.97 5.73 6.14
6/1/2022 5:45:00 AM 21.7 71.06 0.738 7.96 4.71 6.16
6/1/2022 6:00:00 AM 21.64 70.952 0.737 7.97 4.52 6.23
6/1/2022 6:15:00 AM 21.6 70.88 0.736 7.97 4.24 6.21
6/1/2022 6:30:00 AM 21.55 70.79 0.736 7.97 6.79 6.33
6/1/2022 6:45:00 AM 21.51 70.718 0.734 7.96 3.7 6.21
6/1/2022 7:00:00 AM 21.48 70.664 0.754 7.98 4.67 6.44
6/1/2022 7:15:00 AM 21.45 70.61 0.754 7.98 3.53 6.44
6/1/2022 7:30:00 AM 21.43 70.574 0.754 7.98 4.26 6.53
6/1/2022 7:45:00 AM 21.41 70.538 0.755 7.99 4.34 6.56
6/1/2022 8:00:00 AM 21.4 70.52 0.755 7.99 3.86 6.65
6/1/2022 8:15:00 AM 21.39 70.502 0.755 7.99 4.96 6.66
6/1/2022 8:30:00 AM 21.4 70.52 0.755 8 4.32 6.77
6/1/2022 8:45:00 AM 21.41 70.538 0.755 8 4.06 6.85
6/1/2022 9:00:00 AM 21.43 70.574 0.755 8 5.59 6.91
6/1/2022 9:15:00 AM 21.46 70.628 0.755 8 3.41 6.99
6/1/2022 9:30:00 AM 21.51 70.718 0.755 8.02 4.01 7.15
6/1/2022 9:45:00 AM 21.6 70.88 0.755 8.03 7.89 7.38
6/1/2022 10:00:00 AM 21.7 71.06 0.756 8.03 4.12 7.32
6/1/2022 10:15:00 AM 21.82 71.276 0.755 8.05 13.4 7.64
6/1/2022 10:30:00 AM 22.06 71.708 0.755 8.1 4.95 8.01
6/1/2022 10:45:00 AM 22.21 71.978 0.755 8.12 6.05 8.49
6/1/2022 11:00:00 AM 22.4 72.32 0.754 8.15 4.88 8.8
6/1/2022 11:15:00 AM 22.56 72.608 0.754 8.17 4.64 9.07
6/1/2022 11:30:00 AM 22.74 72.932 0.753 8.19 3.66 9.38
6/1/2022 11:45:00 AM 22.9 73.22 0.754 8.2 4.05 9.48
6/1/2022 12:00:00 PM 23.09 73.562 0.755 8.23 3.5 9.81
6/1/2022 12:15:00 PM 23.27 73.886 0.752 8.25 3.78 9.99
6/1/2022 12:30:00 PM 23.33 73.994 0.752 8.26 3.33 10.11
6/1/2022 12:45:00 PM 23.39 74.102 0.752 8.26 35.5 9.96
6/1/2022 1:00:00 PM 23.5 74.3 0.751 8.25 4.16 9.79
6/1/2022 1:15:00 PM 23.52 74.336 0.751 8.26 2.72 9.86
6/1/2022 1:30:00 PM 23.65 74.57 0.749 8.28 3.71 9.92
6/1/2022 1:45:00 PM 23.87 74.966 0.748 8.3 4.19 10.17
6/1/2022 2:00:00 PM 24 75.2 0.748 8.32 3.31 10.45
6/1/2022 2:15:00 PM 24.07 75.326 0.747 8.33 3.26 10.39
6/1/2022 2:30:00 PM 24.09 75.362 0.748 8.32 4.32 10.13
6/1/2022 2:45:00 PM 24.25 75.65 0.747 8.33 3.89 10.32
6/1/2022 3:00:00 PM 24.31 75.758 0.746 8.33 5.58 10.22
6/1/2022 3:15:00 PM 24.37 75.866 0.745 8.33 4.45 10.17
6/1/2022 3:30:00 PM 24.41 75.938 0.745 8.33 6.29 10.04
6/1/2022 3:45:00 PM 24.46 76.028 0.744 8.33 5.5 9.98
6/1/2022 4:00:00 PM 24.53 76.154 0.743 8.34 4.99 10.04
6/1/2022 4:15:00 PM 24.58 76.244 0.743 8.34 5.79 9.89
6/1/2022 4:30:00 PM 24.61 76.298 0.742 8.34 7.1 9.77
6/1/2022 4:45:00 PM 24.56 76.208 0.742 8.33 4.11 9.54
6/1/2022 5:00:00 PM 24.54 76.172 0.741 8.32 3.54 9.3
6/1/2022 5:15:00 PM 24.57 76.226 0.741 8.31 3.57 9.16
6/1/2022 5:30:00 PM 24.6 76.28 0.74 8.31 4.44 9.1
6/1/2022 5:45:00 PM 24.6 76.28 0.739 8.31 4.15 8.94
6/1/2022 6:00:00 PM 24.59 76.262 0.741 8.31 3.62 8.75
6/1/2022 6:15:00 PM 24.6 76.28 0.741 8.3 3.46 8.6
6/1/2022 6:30:00 PM 24.6 76.28 0.74 8.3 3.95 8.43
6/1/2022 6:45:00 PM 24.59 76.262 0.74 8.29 5.66 8.29
6/1/2022 7:00:00 PM 24.59 76.262 0.74 8.29 3.94 8.19
6/1/2022 7:15:00 PM 24.59 76.262 0.74 8.28 3.69 8.02
6/1/2022 7:30:00 PM 24.58 76.244 0.742 8.27 3.69 7.81
6/1/2022 7:45:00 PM 24.56 76.208 0.74 8.26 3.04 7.7
6/1/2022 8:00:00 PM 24.54 76.172 0.74 8.25 3.94 7.54
6/1/2022 8:15:00 PM 24.51 76.118 0.741 8.24 2.79 7.36
6/1/2022 8:30:00 PM 24.47 76.046 0.74 8.22 3.74 7.19
6/1/2022 8:45:00 PM 24.43 75.974 0.741 8.21 3.96 7.02
6/1/2022 9:00:00 PM 24.39 75.902 0.741 8.2 4.27 6.91
6/1/2022 9:15:00 PM 24.35 75.83 0.741 8.18 7.13 6.77
6/1/2022 9:30:00 PM 24.31 75.758 0.741 8.17 3.82 6.66
6/1/2022 9:45:00 PM 24.27 75.686 0.742 8.16 3.46 6.56
6/1/2022 10:00:00 PM 24.23 75.614 0.742 8.14 4.82 6.44
6/1/2022 10:15:00 PM 24.19 75.542 0.743 8.14 3.74 6.38
6/1/2022 10:30:00 PM 24.14 75.452 0.743 8.13 4.22 6.32
6/1/2022 10:45:00 PM 24.1 75.38 0.744 8.12 3.01 6.28
6/1/2022 11:00:00 PM 24.04 75.272 0.744 8.11 4.29 6.21
6/1/2022 11:15:00 PM 23.97 75.146 0.745 8.1 4.85 6.18
6/1/2022 11:30:00 PM 23.89 75.002 0.725 8.09 4.29 6.15
6/1/2022 11:45:00 PM 23.8 74.84 0.725 8.08 3.36 6.08
6/2/2022 12:00:00 AM 23.72 74.696 0.722 8.07 3.48 6.07
6/2/2022 12:15:00 AM 23.65 74.57 0.722 8.07 4.48 6.08
6/2/2022 12:30:00 AM 23.57 74.426 0.746 8.06 3.86 6.03
6/2/2022 12:45:00 AM 23.49 74.282 0.747 8.06 4.03 6.04
6/2/2022 1:00:00 AM 23.4 74.12 0.701 8.05 10.58 6.01
6/2/2022 1:15:00 AM 23.32 73.976 0.705 8.05 4.97 6.01
6/2/2022 1:30:00 AM 23.24 73.832 0.707 8.04 5.78 6.02
6/2/2022 1:45:00 AM 23.16 73.688 0.689 8.04 4.62 6
6/2/2022 2:00:00 AM 23.08 73.544 0.676 8.03 5.06 6.01
6/2/2022 2:15:00 AM 22.99 73.382 0.679 8.03 4.04 5.98
6/2/2022 2:30:00 AM 22.92 73.256 0.685 8.02 3.89 6
6/2/2022 2:45:00 AM 22.84 73.112 0.751 8.02 5.1 6
6/2/2022 3:00:00 AM 22.77 72.986 0.735 8.02 3.99 5.99
6/2/2022 3:15:00 AM 22.7 72.86 0.746 8.01 14.3 5.99
6/2/2022 3:30:00 AM 22.62 72.716 0.748 8.01 4.28 5.99
6/2/2022 3:45:00 AM 22.55 72.59 0.752 8.01 4.59 5.98
6/2/2022 4:00:00 AM 22.49 72.482 0.71 8 5.83 6
6/2/2022 4:15:00 AM 22.42 72.356 0.711 8 4.27 6
6/2/2022 4:30:00 AM 22.37 72.266 0.716 8 4.39 6.01
6/2/2022 4:45:00 AM 22.3 72.14 0.719 8 4.08 6.01
6/2/2022 5:00:00 AM 22.25 72.05 0.715 8 4.94 6.05
6/2/2022 5:15:00 AM 22.19 71.942 0.716 8 5.25 6.04
6/2/2022 5:30:00 AM 22.14 71.852 0.717 8 5.81 6.09
6/2/2022 5:45:00 AM 22.08 71.744 0.717 8 5.1 6.07
6/2/2022 6:00:00 AM 22.03 71.654 0.714 8 6.07 6.14
6/2/2022 6:15:00 AM 21.99 71.582 0.719 8 4.92 6.11
6/2/2022 6:30:00 AM 21.95 71.51 0.72 8 6.14 6.18
6/2/2022 6:45:00 AM 21.91 71.438 0.716 8 3.79 6.23
6/2/2022 7:00:00 AM 21.88 71.384 0.715 8 4.71 6.31
6/2/2022 7:15:00 AM 21.86 71.348 0.718 8.01 5.09 6.35
6/2/2022 7:30:00 AM 21.83 71.294 0.724 8.01 4.57 6.44
6/2/2022 7:45:00 AM 21.8 71.24 0.708 8.02 6.54 6.49
6/2/2022 8:00:00 AM 21.79 71.222 0.707 8.02 4.58 6.58
6/2/2022 8:15:00 AM 21.77 71.186 0.716 8.03 4.35 6.67
6/2/2022 8:30:00 AM 21.8 71.24 0.705 8.03 4.35 6.85
6/2/2022 8:45:00 AM 21.81 71.258 0.705 8.04 4.08 6.99
6/2/2022 9:00:00 AM 21.82 71.276 0.722 8.06 6.41 7.2
6/2/2022 9:15:00 AM 21.81 71.258 0.768 8.06 4.14 7.29
6/2/2022 9:30:00 AM 21.8 71.24 0.768 8.07 5.79 7.32
6/2/2022 9:45:00 AM 21.84 71.312 0.767 8.08 4.62 7.43
6/2/2022 10:00:00 AM 21.91 71.438 0.767 8.09 5.4 7.67
6/2/2022 10:15:00 AM 22.05 71.69 0.766 8.11 5.31 7.93
6/2/2022 10:30:00 AM 22.25 72.05 0.766 8.13 7.99 8.29
6/2/2022 10:45:00 AM 22.37 72.266 0.765 8.15 6.08 8.54
6/2/2022 11:00:00 AM 22.48 72.464 0.764 8.18 10.76 8.83
6/2/2022 11:15:00 AM 22.54 72.57201 0.764 8.18 5.21 8.87
6/2/2022 11:30:00 AM 22.61 72.698 0.763 8.2 4.23 9.11
6/2/2022 11:45:00 AM 22.79 73.022 0.762 8.21 5.6 9.28
6/2/2022 12:00:00 PM 22.88 73.184 0.762 8.23 6.07 9.56
6/2/2022 12:15:00 PM 22.89 73.202 0.761 8.25 4.69 9.62
6/2/2022 12:30:00 PM 22.99 73.382 0.76 8.26 4.04 9.73
6/2/2022 12:45:00 PM 23.07 73.526 0.759 8.28 5.17 9.92
6/2/2022 1:00:00 PM 23.04 73.472 0.759 8.27 5.52 9.69
6/2/2022 1:15:00 PM 23.11 73.598 0.758 8.27 4.59 9.6
6/2/2022 1:30:00 PM 23.3 73.94 0.757 8.29 5.5 9.98
6/2/2022 1:45:00 PM 23.38 74.084 0.755 8.31 4.62 10.16
6/2/2022 2:00:00 PM 23.45 74.21 0.755 8.32 5.39 10.24
6/2/2022 2:15:00 PM 23.56 74.408 0.753 8.34 5.14 10.38
6/2/2022 2:30:00 PM 23.6 74.48 0.753 8.34 4.74 10.22
6/2/2022 2:45:00 PM 23.7 74.66 0.753 8.34 4.44 10.11
6/2/2022 3:00:00 PM 23.78 74.804 0.752 8.35 5.29 10.29
6/2/2022 3:15:00 PM 23.73 74.714 0.752 8.35 6.08 10.1
6/2/2022 3:30:00 PM 23.86 74.948 0.751 8.35 13.48 10.11
6/2/2022 3:45:00 PM 23.91 75.038 0.751 8.35 6 10.11
6/2/2022 4:00:00 PM 23.98 75.164 0.751 8.36 5.86 10.09
6/2/2022 4:15:00 PM 23.96 75.128 0.75 8.36 5.79 9.97
6/2/2022 4:30:00 PM 23.95 75.11 0.75 8.36 7.52 9.81
6/2/2022 4:45:00 PM 23.95 75.11 0.751 8.36 5.86 9.67
6/2/2022 5:00:00 PM 23.88 74.984 0.748 8.34 7.11 9.34
6/2/2022 5:15:00 PM 23.86 74.948 0.746 8.34 8.54 9.07
6/2/2022 5:30:00 PM 23.85 74.93 0.748 8.33 8.4 8.99
6/2/2022 5:45:00 PM 23.83 74.894 0.749 8.32 7.99 8.86
6/2/2022 6:00:00 PM 23.81 74.858 0.751 8.32 8.44 8.67
6/2/2022 6:15:00 PM 23.77 74.786 0.751 8.31 7.94 8.43
6/2/2022 6:30:00 PM 23.73 74.714 0.752 8.3 8.88 8.18
6/2/2022 6:45:00 PM 23.7 74.66 0.752 8.29 10.9 8.02
6/2/2022 7:00:00 PM 23.68 74.624 0.753 8.28 11.51 7.96
6/2/2022 7:15:00 PM 23.65 74.57 0.755 8.27 10.56 7.84
6/2/2022 7:30:00 PM 23.62 74.516 0.757 8.26 10.11 7.68
6/2/2022 7:45:00 PM 23.58 74.444 0.758 8.25 16.13 7.53
6/2/2022 8:00:00 PM 23.53 74.354 0.76 8.24 13.25 7.39
6/2/2022 8:15:00 PM 23.49 74.282 0.761 8.23 12.99 7.22
6/2/2022 8:30:00 PM 23.44 74.192 0.763 8.21 14.69 7.08
6/2/2022 8:45:00 PM 23.39 74.102 0.765 8.2 11.97 6.95
6/2/2022 9:00:00 PM 23.33 73.994 0.767 8.19 14.69 6.84
6/2/2022 9:15:00 PM 23.28 73.904 0.766 8.18 13.92 6.74
6/2/2022 9:30:00 PM 23.22 73.796 0.769 8.17 12.25 6.66
6/2/2022 9:45:00 PM 23.17 73.706 0.769 8.16 13.35 6.61
6/2/2022 10:00:00 PM 23.12 73.616 0.771 8.15 11.26 6.49
6/2/2022 10:15:00 PM 23.07 73.526 0.771 8.14 11.52 6.46
6/2/2022 10:30:00 PM 23.02 73.436 0.727 8.13 10.58 6.36
6/2/2022 10:45:00 PM 22.97 73.346 0.713 8.12 10.54 6.3
6/2/2022 11:00:00 PM 22.92 73.256 0.775 8.11 9.06 6.23
6/2/2022 11:15:00 PM 22.87 73.166 0.777 8.1 7.85 6.17
6/2/2022 11:30:00 PM 22.82 73.076 0.779 8.09 9.19 6.17
6/2/2022 11:45:00 PM 22.76 72.968 0.782 8.08 14.65 6.15
6/3/2022 12:00:00 AM 22.71 72.878 0.785 8.08 11.42 6.15
6/3/2022 12:15:00 AM 22.65 72.77 0.786 8.07 11.03 6.13
6/3/2022 12:30:00 AM 22.58 72.644 0.773 8.07 12.17 6.17
6/3/2022 12:45:00 AM 22.51 72.518 0.783 8.06 15.55 6.17
6/3/2022 1:00:00 AM 22.45 72.41 0.783 8.05 10.41 6.09
6/3/2022 1:15:00 AM 22.39 72.302 0.722 8.05 10.21 6.13
6/3/2022 1:30:00 AM 22.32 72.176 0.789 8.04 14.7 6.14
6/3/2022 1:45:00 AM 22.26 72.068 0.797 8.04 12.2 6.13
6/3/2022 2:00:00 AM 22.2 71.96 0.799 8.03 11.16 6.12
6/3/2022 2:15:00 AM 22.13 71.834 0.789 8.03 11.89 6.13
6/3/2022 2:30:00 AM 22.07 71.726 0.742 8.02 13.45 6.13
6/3/2022 2:45:00 AM 22.01 71.618 0.792 8.02 13 6.14
6/3/2022 3:00:00 AM 21.95 71.51 0.799 8.01 14.99 6.15
6/3/2022 3:15:00 AM 21.89 71.402 0.8 8.01 13.64 6.15
6/3/2022 3:30:00 AM 21.84 71.312 0.803 8.01 16.43 6.15
6/3/2022 3:45:00 AM 21.79 71.222 0.701 8 14.7 6.15
6/3/2022 4:00:00 AM 21.74 71.132 0.811 8 15.94 6.11
6/3/2022 4:15:00 AM 21.69 71.042 0.812 7.99 17.4 6.18
6/3/2022 4:30:00 AM 21.65 70.97 0.813 7.99 16.1 6.18
6/3/2022 4:45:00 AM 21.61 70.898 0.814 7.99 14.58 6.18
6/3/2022 5:00:00 AM 21.57 70.826 0.816 7.99 16.73 6.15
6/3/2022 5:15:00 AM 21.53 70.754 0.817 7.99 14.59 6.18
6/3/2022 5:30:00 AM 21.48 70.664 0.818 7.99 14.53 6.23
6/3/2022 5:45:00 AM 21.42 70.556 0.819 7.99 14.79 6.25
6/3/2022 6:00:00 AM 21.37 70.466 0.82 7.99 15.1 6.23
6/3/2022 6:15:00 AM 21.33 70.394 0.821 7.99 14.86 6.29
6/3/2022 6:30:00 AM 21.29 70.32201 0.821 7.99 13.99 6.29
6/3/2022 6:45:00 AM 21.25 70.25 0.822 7.99 17.42 6.37
6/3/2022 7:00:00 AM 21.22 70.196 0.823 8 16.51 6.44
6/3/2022 7:15:00 AM 21.2 70.16 0.823 8 16.16 6.48
6/3/2022 7:30:00 AM 21.15 70.07 0.824 8.01 17.59 6.58
6/3/2022 7:45:00 AM 21.1 69.98 0.824 8.01 17.18 6.62
6/3/2022 8:00:00 AM 21.08 69.944 0.825 8.01 14.96 6.59
6/3/2022 8:15:00 AM 21.04 69.872 0.826 8.01 17.04 6.65
6/3/2022 8:30:00 AM 21.02 69.836 0.826 8.01 16.47 6.66
6/3/2022 8:45:00 AM 20.99 69.782 0.828 8.02 16.39 6.75
6/3/2022 9:00:00 AM 20.97 69.746 0.827 8.02 16.39 6.83
6/3/2022 9:15:00 AM 20.96 69.728 0.828 8.03 19.17 6.87
6/3/2022 9:30:00 AM 20.98 69.764 0.829 8.03 17.42 6.96
6/3/2022 9:45:00 AM 21.01 69.818 0.829 8.05 20.58 7.2
6/3/2022 10:00:00 AM 21.09 69.962 0.828 8.06 19.92 7.34
6/3/2022 10:15:00 AM 21.19 70.142 0.829 8.07 17.58 7.63
6/3/2022 10:30:00 AM 21.39 70.502 0.83 8.1 20.38 8.03
6/3/2022 10:45:00 AM 21.48 70.664 0.83 8.12 21.3 8.28
6/3/2022 11:00:00 AM 21.58 70.844 0.829 8.14 28.54 8.61
6/3/2022 11:15:00 AM 21.65 70.97 0.829 8.16 22.17 8.79
6/3/2022 11:30:00 AM 21.75 71.15 0.829 8.17 17.92 8.99
6/3/2022 11:45:00 AM 21.87 71.366 0.829 8.19 14.98 9.21
6/3/2022 12:00:00 PM 21.97 71.546 0.829 8.21 17.88 9.48
6/3/2022 12:15:00 PM 22.09 71.762 0.828 8.23 17.06 9.72
6/3/2022 12:30:00 PM 22.23 72.014 0.816 8.25 20.62 9.97
6/3/2022 12:45:00 PM 22.36 72.248 0.828 8.27 16.85 10.17
6/3/2022 1:00:00 PM 22.46 72.42799 0.827 8.29 17.29 10.27
6/3/2022 1:15:00 PM 22.57 72.626 0.827 8.3 18.73 10.42
6/3/2022 1:30:00 PM 22.66 72.788 0.826 8.31 21.06 10.52
6/3/2022 1:45:00 PM 22.67 72.806 0.826 8.31 21.54 10.43
6/3/2022 2:00:00 PM 22.72 72.896 0.825 8.32 21.56 10.45
6/3/2022 2:15:00 PM 22.84 73.112 0.825 8.33 26.05 10.52
6/3/2022 2:30:00 PM 22.95 73.31 0.824 8.34 25.69 10.63
6/3/2022 2:45:00 PM 22.95 73.31 0.824 8.35 25.69 10.52
6/3/2022 3:00:00 PM 22.98 73.364 0.823 8.35 30.83 10.51
6/3/2022 3:15:00 PM 23 73.4 0.822 8.35 23.66 10.44
6/3/2022 3:30:00 PM 23.02 73.436 0.822 8.35 30.54 10.37
6/3/2022 3:45:00 PM 23.03 73.454 0.821 8.36 33.23 10.31
6/3/2022 4:00:00 PM 23.01 73.418 0.821 8.36 31.04 10.19
6/3/2022 4:15:00 PM 22.99 73.382 0.82 8.36 26.31 10.04
6/3/2022 4:30:00 PM 22.94 73.292 0.819 8.36 35.4 9.92
6/3/2022 4:45:00 PM 22.94 73.292 0.819 8.35 35.92 9.83
6/3/2022 5:00:00 PM 22.9 73.22 0.818 8.35 30.55 9.75
6/3/2022 5:15:00 PM 22.85 73.13 0.817 8.35 32.42 9.6
6/3/2022 5:30:00 PM 22.83 73.094 0.817 8.34 43.43 9.42
6/3/2022 5:45:00 PM 22.81 73.058 0.816 8.35 30.14 9.3
6/3/2022 6:00:00 PM 22.78 73.004 0.816 8.34 40.27 9.13
6/3/2022 6:15:00 PM 22.78 73.004 0.815 8.34 29.15 8.99
6/3/2022 6:30:00 PM 22.76 72.968 0.815 8.33 32.05 8.85
6/3/2022 6:45:00 PM 22.73 72.914 0.815 8.33 45.28 8.71
6/3/2022 7:00:00 PM 22.71 72.878 0.814 8.32 45.54 8.54
6/3/2022 7:15:00 PM 22.69 72.842 0.814 8.31 33.8 8.4
6/3/2022 7:30:00 PM 22.66 72.788 0.814 8.3 41.32 8.19
6/3/2022 7:45:00 PM 22.61 72.698 0.814 8.3 35.84 8.03
6/3/2022 8:00:00 PM 22.56 72.608 0.814 8.29 44.88 7.9
6/3/2022 8:15:00 PM 22.51 72.518 0.814 8.28 39.56 7.74
6/3/2022 8:30:00 PM 22.45 72.41 0.815 8.27 36.31 7.59
6/3/2022 8:45:00 PM 22.39 72.302 0.814 8.26 44.44 7.46
6/3/2022 9:00:00 PM 22.33 72.194 0.814 8.25 33.09 7.33
6/3/2022 9:15:00 PM 22.27 72.086 0.751 8.23 66.67 7.19
6/3/2022 9:30:00 PM 22.2 71.96 0.796 8.23 49.4 7.17
6/3/2022 9:45:00 PM 22.13 71.834 0.761 8.22 56.09 7.08
6/3/2022 10:00:00 PM 22.06 71.708 0.816 8.21 51.94 6.97
6/3/2022 10:15:00 PM 21.99 71.582 0.784 8.2 58.16 6.93
6/3/2022 10:30:00 PM 21.92 71.456 0.817 8.19 49.19 6.82
6/3/2022 10:45:00 PM 21.84 71.312 0.815 8.18 47.07 6.77
6/3/2022 11:00:00 PM 21.76 71.168 0.675 8.17 58.72 6.69
6/3/2022 11:15:00 PM 21.68 71.024 0.819 8.16 55.97 6.71
6/3/2022 11:30:00 PM 21.6 70.88 0.82 8.15 54.94 6.61
6/3/2022 11:45:00 PM 21.5 70.7 0.821 8.14 63.41 6.61
6/4/2022 12:00:00 AM 21.42 70.556 0.822 8.14 56.47 6.59
6/4/2022 12:15:00 AM 21.33 70.394 0.822 8.13 54.32 6.54
6/4/2022 12:30:00 AM 21.24 70.232 0.823 8.12 61.23 6.51
6/4/2022 12:45:00 AM 21.15 70.07 0.824 8.12 57.15 6.55
6/4/2022 1:00:00 AM 21.07 69.926 0.825 8.1 61.05 6.47
6/4/2022 1:15:00 AM 20.98 69.764 0.826 8.1 56.69 6.52
6/4/2022 1:30:00 AM 20.89 69.602 0.827 8.09 59.59 6.49
6/4/2022 1:45:00 AM 20.81 69.458 0.828 8.09 64.06 6.52
6/4/2022 2:00:00 AM 20.73 69.314 0.829 8.09 54.97 6.54
6/4/2022 2:15:00 AM 20.64 69.152 0.829 8.08 43.9 6.5
6/4/2022 2:30:00 AM 20.56 69.008 0.83 8.07 55.65 6.54
6/4/2022 2:45:00 AM 20.48 68.864 0.831 8.07 57.72 6.55
6/4/2022 3:00:00 AM 20.41 68.738 0.832 8.06 62.17 6.48
6/4/2022 3:15:00 AM 20.33 68.594 0.833 8.06 56.56 6.52
6/4/2022 3:30:00 AM 20.25 68.45 0.834 8.06 50.93 6.53
6/4/2022 3:45:00 AM 20.18 68.324 0.834 8.05 48.58 6.55
6/4/2022 4:00:00 AM 20.1 68.18 0.835 8.05 47.89 6.54
6/4/2022 4:15:00 AM 20.02 68.036 0.836 8.05 47.69 6.55
6/4/2022 4:30:00 AM 19.94 67.892 0.837 8.04 35.9 6.57
6/4/2022 4:45:00 AM 19.86 67.748 0.837 8.04 45.95 6.62
6/4/2022 5:00:00 AM 19.78 67.604 0.838 8.04 39.57 6.63
6/4/2022 5:15:00 AM 19.7 67.46 0.838 8.04 35.38 6.61
6/4/2022 5:30:00 AM 19.63 67.334 0.839 8.03 36.63 6.6
6/4/2022 5:45:00 AM 19.55 67.19 0.839 8.03 36.19 6.65
6/4/2022 6:00:00 AM 19.49 67.082 0.84 8.03 40.94 6.67
6/4/2022 6:15:00 AM 19.42 66.956 0.84 8.03 28.55 6.72
6/4/2022 6:30:00 AM 19.35 66.83 0.841 8.03 33.53 6.79
6/4/2022 6:45:00 AM 19.29 66.722 0.841 8.03 35.61 6.78
6/4/2022 7:00:00 AM 19.23 66.614 0.841 8.03 32.78 6.82
6/4/2022 7:15:00 AM 19.18 66.524 0.842 8.03 36.28 6.92
6/4/2022 7:30:00 AM 19.14 66.452 0.842 8.03 43.17 7.01
6/4/2022 7:45:00 AM 19.1 66.38 0.842 8.03 40.32 7.03
6/4/2022 8:00:00 AM 19.08 66.344 0.842 8.03 35.44 7.05
6/4/2022 8:15:00 AM 19.06 66.308 0.843 8.03 26.09 7.1
6/4/2022 8:30:00 AM 19.05 66.29 0.843 8.04 36.31 7.16
6/4/2022 8:45:00 AM 19.05 66.29 0.843 8.04 41.12 7.25
6/4/2022 9:00:00 AM 19.07 66.326 0.843 8.05 34 7.39
6/4/2022 9:15:00 AM 19.09 66.362 0.843 8.05 35.43 7.46
6/4/2022 9:30:00 AM 19.14 66.452 0.843 8.06 38.45 7.6
6/4/2022 9:45:00 AM 19.2 66.56 0.843 8.06 36.05 7.69
6/4/2022 10:00:00 AM 19.3 66.74 0.843 8.08 38 7.92
6/4/2022 10:15:00 AM 19.44 66.992 0.843 8.09 41.32 8.12
6/4/2022 10:30:00 AM 19.7 67.46 0.843 8.12 41.66 8.57
6/4/2022 10:45:00 AM 19.88 67.784 0.843 8.14 28.8 8.79
6/4/2022 11:00:00 AM 20.05 68.09 0.843 8.16 38.48 9.07
6/4/2022 11:15:00 AM 20.19 68.342 0.842 8.17 41.75 9.21
6/4/2022 11:30:00 AM 20.38 68.684 0.842 8.19 45.15 9.55
6/4/2022 11:45:00 AM 20.58 69.044 0.841 8.21 38.48 9.76
6/4/2022 12:00:00 PM 20.75 69.35 0.841 8.23 38.37 9.91
6/4/2022 12:15:00 PM 20.89 69.602 0.84 8.24 42.51 10.15
6/4/2022 12:30:00 PM 21.03 69.854 0.84 8.26 50.02 10.23
6/4/2022 12:45:00 PM 21.21 70.17799 0.839 8.27 37.38 10.4
6/4/2022 1:00:00 PM 21.38 70.484 0.839 8.29 40.18 10.54
6/4/2022 1:15:00 PM 21.51 70.718 0.838 8.29 33.97 10.55
6/4/2022 1:30:00 PM 21.66 70.988 0.837 8.31 34.58 10.7
6/4/2022 1:45:00 PM 21.8 71.24 0.837 8.31 40.95 10.61
6/4/2022 2:00:00 PM 21.99 71.582 0.836 8.32 30.97 10.86
6/4/2022 2:15:00 PM 22.09 71.762 0.835 8.33 28.32 10.82
6/4/2022 2:30:00 PM 22.21 71.978 0.835 8.34 34.07 10.83
6/4/2022 2:45:00 PM 22.29 72.122 0.834 8.34 31.41 10.69
6/4/2022 3:00:00 PM 22.37 72.266 0.833 8.35 38.18 10.73
6/4/2022 3:15:00 PM 22.42 72.356 0.833 8.35 35.47 10.69
6/4/2022 3:30:00 PM 22.44 72.392 0.832 8.34 39.4 10.43
6/4/2022 3:45:00 PM 22.48 72.464 0.832 8.35 41.57 10.4
6/4/2022 4:00:00 PM 22.49 72.482 0.831 8.34 36.09 10.19
6/4/2022 4:15:00 PM 22.49 72.482 0.83 8.34 33.44 10.1
6/4/2022 4:30:00 PM 22.49 72.482 0.83 8.34 33.67 10.03
6/4/2022 4:45:00 PM 22.47 72.446 0.829 8.34 34.44 9.83
6/4/2022 5:00:00 PM 22.44 72.392 0.829 8.33 43.54 9.62
6/4/2022 5:15:00 PM 22.38 72.284 0.828 8.32 36.85 9.4
6/4/2022 5:30:00 PM 22.36 72.248 0.828 8.32 28.87 9.22
6/4/2022 5:45:00 PM 22.33 72.194 0.827 8.31 43.72 9.01
6/4/2022 6:00:00 PM 22.29 72.122 0.827 8.3 36.07 8.77
6/4/2022 6:15:00 PM 22.26 72.068 0.827 8.28 48.77 8.51
6/4/2022 6:30:00 PM 22.24 72.032 0.826 8.28 36.9 8.37
6/4/2022 6:45:00 PM 22.22 71.996 0.826 8.27 44.66 8.26
6/4/2022 7:00:00 PM 22.21 71.978 0.825 8.27 37.66 8.15
6/4/2022 7:15:00 PM 22.19 71.942 0.825 8.26 39.65 8.04
6/4/2022 7:30:00 PM 22.18 71.924 0.825 8.25 52.19 7.84
6/4/2022 7:45:00 PM 22.16 71.888 0.824 8.24 47 7.73
6/4/2022 8:00:00 PM 22.13 71.834 0.825 8.24 35.54 7.62
6/4/2022 8:15:00 PM 22.09 71.762 0.824 8.23 31.21 7.44
6/4/2022 8:30:00 PM 22.05 71.69 0.825 8.22 37.24 7.35
6/4/2022 8:45:00 PM 21.99 71.582 0.825 8.21 33.07 7.26
6/4/2022 9:00:00 PM 21.93 71.474 0.825 8.2 36.57 7.11
6/4/2022 9:15:00 PM 21.87 71.366 0.826 8.19 39.77 6.96
6/4/2022 9:30:00 PM 21.8 71.24 0.825 8.19 37.07 6.96
6/4/2022 9:45:00 PM 21.73 71.114 0.826 8.17 54.41 6.77
6/4/2022 10:00:00 PM 21.66 70.988 0.826 8.17 53.76 6.81
6/4/2022 10:15:00 PM 21.58 70.844 0.826 8.16 50.47 6.72
6/4/2022 10:30:00 PM 21.49 70.682 0.827 8.15 62.54 6.65
6/4/2022 10:45:00 PM 21.41 70.538 0.827 8.15 48.44 6.64
6/4/2022 11:00:00 PM 21.32 70.376 0.828 8.14 48.8 6.63
6/4/2022 11:15:00 PM 21.23 70.214 0.828 8.13 52.9 6.63
6/4/2022 11:30:00 PM 21.13 70.034 0.829 8.13 51.46 6.6
6/4/2022 11:45:00 PM 21.04 69.872 0.83 8.12 63.21 6.53
6/5/2022 12:00:00 AM 20.94 69.692 0.83 8.11 63.19 6.51
6/5/2022 12:15:00 AM 20.83 69.494 0.831 8.11 53.76 6.57
6/5/2022 12:30:00 AM 20.72 69.296 0.831 8.1 44.26 6.57
6/5/2022 12:45:00 AM 20.62 69.116 0.832 8.1 38.37 6.57
6/5/2022 1:00:00 AM 20.52 68.936 0.832 8.09 38.98 6.53
6/5/2022 1:15:00 AM 20.41 68.738 0.833 8.09 61.3 6.58
6/5/2022 1:30:00 AM 20.32 68.576 0.833 8.08 51.58 6.55
6/5/2022 1:45:00 AM 20.22 68.396 0.834 8.08 47.66 6.61
6/5/2022 2:00:00 AM 20.11 68.198 0.835 8.08 51.24 6.62
6/5/2022 2:15:00 AM 20.02 68.036 0.835 8.07 57.41 6.62
6/5/2022 2:30:00 AM 19.93 67.874 0.836 8.06 51.4 6.61
6/5/2022 2:45:00 AM 19.84 67.712 0.837 8.06 52.4 6.68
6/5/2022 3:00:00 AM 19.74 67.532 0.838 8.06 52.8 6.66
6/5/2022 3:15:00 AM 19.66 67.388 0.839 8.06 62.09 6.65
6/5/2022 3:30:00 AM 19.57 67.226 0.839 8.06 53.77 6.7
6/5/2022 3:45:00 AM 19.48 67.064 0.84 8.05 66.4 6.72
6/5/2022 4:00:00 AM 19.39 66.902 0.841 8.06 47.7 6.73
6/5/2022 4:15:00 AM 19.29 66.722 0.841 8.05 56.86 6.79
6/5/2022 4:30:00 AM 19.21 66.578 0.842 8.05 66.13 6.76
6/5/2022 4:45:00 AM 19.13 66.434 0.843 8.04 68.24 6.72
6/5/2022 5:00:00 AM 19.04 66.272 0.843 8.04 68.76 6.75
6/5/2022 5:15:00 AM 18.96 66.128 0.844 8.04 53.86 6.73
6/5/2022 5:30:00 AM 18.88 65.984 0.845 8.05 71.97 6.84
6/5/2022 5:45:00 AM 18.79 65.82201 0.845 8.04 70.62 6.83
6/5/2022 6:00:00 AM 18.71 65.67799 0.846 8.04 74.59 6.88
6/5/2022 6:15:00 AM 18.63 65.534 0.847 8.04 71.06 6.93
6/5/2022 6:30:00 AM 18.56 65.408 0.847 8.04 59.52 6.95
6/5/2022 6:45:00 AM 18.49 65.282 0.848 8.04 66.79 7.02
6/5/2022 7:00:00 AM 18.43 65.174 0.848 8.04 67.72 7.05
6/5/2022 7:15:00 AM 18.37 65.066 0.849 8.04 61.94 7.07
6/5/2022 7:30:00 AM 18.32 64.976 0.849 8.04 56.1 7.19
6/5/2022 7:45:00 AM 18.28 64.904 0.85 8.04 68.26 7.2
6/5/2022 8:00:00 AM 18.25 64.85 0.85 8.04 49.18 7.19
6/5/2022 8:15:00 AM 18.21 64.778 0.851 8.04 53.58 7.31
6/5/2022 8:30:00 AM 18.2 64.76 0.851 8.05 61.31 7.31
6/5/2022 8:45:00 AM 18.2 64.76 0.851 8.05 64.11 7.32
6/5/2022 9:00:00 AM 18.19 64.742 0.852 8.04 51.51 7.42
6/5/2022 9:15:00 AM 18.19 64.742 0.852 8.05 60.77 7.54
6/5/2022 9:30:00 AM 18.21 64.778 0.852 8.06 56.04 7.61
6/5/2022 9:45:00 AM 18.25 64.85 0.852 8.07 50.95 7.72
6/5/2022 10:00:00 AM 18.32 64.976 0.853 8.08 63.29 7.92
6/5/2022 10:15:00 AM 18.44 65.192 0.853 8.09 69.16 8.12
6/5/2022 10:30:00 AM 18.69 65.642 0.854 8.11 57.91 8.51
6/5/2022 10:45:00 AM 18.85 65.93 0.853 8.13 58.13 8.79
6/5/2022 11:00:00 AM 18.98 66.164 0.853 8.15 54.73 9.01
6/5/2022 11:15:00 AM 19.15 66.47 0.852 8.16 60.13 9.29
6/5/2022 11:30:00 AM 19.32 66.776 0.852 8.18 62.57 9.47
6/5/2022 11:45:00 AM 19.52 67.136 0.852 8.19 55 9.69
6/5/2022 12:00:00 PM 19.7 67.46 0.852 8.22 67.41 9.93
6/5/2022 12:15:00 PM 19.85 67.73 0.852 8.23 67.71 10.08
6/5/2022 12:30:00 PM 20 68 0.851 8.25 68.09 10.32
6/5/2022 12:45:00 PM 20.17 68.306 0.851 8.27 67.03 10.38
6/5/2022 1:00:00 PM 20.35 68.63 0.85 8.28 39.68 10.66
6/5/2022 1:15:00 PM 20.48 68.864 0.85 8.29 42.49 10.72
6/5/2022 1:30:00 PM 20.63 69.134 0.849 8.31 68.9 10.96
6/5/2022 1:45:00 PM 20.78 69.404 0.849 8.33 66.64 11.04
6/5/2022 2:00:00 PM 20.91 69.638 0.849 8.33 65.47 11.04
6/5/2022 2:15:00 PM 21.04 69.872 0.848 8.34 52.6 11.07
6/5/2022 2:30:00 PM 21.14 70.052 0.848 8.35 67.74 11.04
6/5/2022 2:45:00 PM 21.24 70.232 0.847 8.35 73.36 10.96
6/5/2022 3:00:00 PM 21.32 70.376 0.847 8.36 75.6 11.04
6/5/2022 3:15:00 PM 21.36 70.448 0.846 8.37 80.92 10.98
6/5/2022 3:30:00 PM 21.44 70.592 0.664 8.37 74.87 10.98
6/5/2022 3:45:00 PM 21.46 70.628 0.844 8.36 73.79 10.77
6/5/2022 4:00:00 PM 21.48 70.664 0.844 8.37 77.65 10.72
6/5/2022 4:15:00 PM 21.49 70.682 0.843 8.36 71.55 10.5
6/5/2022 4:30:00 PM 21.49 70.682 0.843 8.36 55.94 10.36
6/5/2022 4:45:00 PM 21.46 70.628 0.842 8.35 73.37 10.18
6/5/2022 5:00:00 PM 21.41 70.538 0.842 8.35 74.24 9.94
6/5/2022 5:15:00 PM 21.38 70.484 0.841 8.34 61.38 9.72
6/5/2022 5:30:00 PM 21.34 70.412 0.841 8.34 67.72 9.54
6/5/2022 5:45:00 PM 21.31 70.358 0.84 8.33 79.28 9.41
6/5/2022 6:00:00 PM 21.27 70.286 0.84 8.32 80.01 9.14
6/5/2022 6:15:00 PM 21.24 70.232 0.839 8.31 77.76 9
6/5/2022 6:30:00 PM 21.22 70.196 0.839 8.3 80.34 8.75
6/5/2022 6:45:00 PM 21.2 70.16 0.838 8.29 91.2 8.52
6/5/2022 7:00:00 PM 21.19 70.142 0.837 8.29 64.54 8.47
6/5/2022 7:15:00 PM 21.18 70.124 0.837 8.28 68.54 8.28
6/5/2022 7:30:00 PM 21.17 70.106 0.836 8.28 76.34 8.17
6/5/2022 7:45:00 PM 21.16 70.088 0.835 8.26 80.86 7.99
6/5/2022 8:00:00 PM 21.14 70.052 0.835 8.26 79.3 7.95
6/5/2022 8:15:00 PM 21.11 69.998 0.834 8.25 77.65 7.8
6/5/2022 8:30:00 PM 21.08 69.944 0.834 8.25 72.16 7.73
6/5/2022 8:45:00 PM 21.05 69.89 0.833 8.25 84.02 7.61
6/5/2022 9:00:00 PM 21 69.8 0.833 8.23 72.98 7.49
6/5/2022 9:15:00 PM 20.95 69.71 0.833 8.22 76.38 7.41
6/5/2022 9:30:00 PM 20.89 69.602 0.832 8.22 84.46 7.33
6/5/2022 9:45:00 PM 20.83 69.494 0.832 8.2 39.99 7.25
6/5/2022 10:00:00 PM 20.77 69.386 0.832 8.2 73.95 7.14
6/5/2022 10:15:00 PM 20.69 69.242 0.832 8.19 79.39 7.12
6/5/2022 10:30:00 PM 20.62 69.116 0.831 8.19 75.87 7.08
6/5/2022 10:45:00 PM 20.55 68.99 0.831 8.18 82.25 7.06
6/5/2022 11:00:00 PM 20.47 68.846 0.831 8.17 76.61 7.02
6/5/2022 11:15:00 PM 20.39 68.702 0.831 8.17 78.32 7
6/5/2022 11:30:00 PM 20.31 68.558 0.831 8.16 66.85 6.94
6/5/2022 11:45:00 PM 20.23 68.414 0.831 8.15 57.72 6.9
6/6/2022 12:00:00 AM 20.14 68.252 0.831 8.14 57.91 6.94
6/6/2022 12:15:00 AM 20.05 68.09 0.832 8.14 57.87 6.92
6/6/2022 12:30:00 AM 19.97 67.946 0.832 8.13 49.99 6.91
6/6/2022 12:45:00 AM 19.89 67.802 0.832 8.13 51.63 6.87
6/6/2022 1:00:00 AM 19.8 67.64 0.833 8.12 47.92 6.87
6/6/2022 1:15:00 AM 19.71 67.478 0.833 8.11 50.07 6.87
6/6/2022 1:30:00 AM 19.63 67.334 0.834 8.11 55.72 6.9
6/6/2022 1:45:00 AM 19.54 67.172 0.835 8.11 57.8 6.88
6/6/2022 2:00:00 AM 19.47 67.046 0.835 8.1 45.23 6.91
6/6/2022 2:15:00 AM 19.38 66.884 0.836 8.1 46.94 6.93
6/6/2022 2:30:00 AM 19.29 66.722 0.837 8.1 55.21 6.95
6/6/2022 2:45:00 AM 19.21 66.578 0.838 8.09 53.45 6.96
6/6/2022 3:00:00 AM 19.13 66.434 0.839 8.09 51.74 7
6/6/2022 3:15:00 AM 19.06 66.308 0.84 8.09 48.92 6.96
6/6/2022 3:30:00 AM 18.97 66.146 0.841 8.08 58.15 6.96
6/6/2022 3:45:00 AM 18.88 65.984 0.832 8.08 57.73 7.02
6/6/2022 4:00:00 AM 18.81 65.858 0.843 8.08 47.64 6.99
6/6/2022 4:15:00 AM 18.72 65.696 0.844 8.08 68.74 7.03
6/6/2022 4:30:00 AM 18.65 65.57 0.845 8.08 43.92 7.02
6/6/2022 4:45:00 AM 18.57 65.426 0.846 8.07 47.15 7
6/6/2022 5:00:00 AM 18.5 65.3 0.847 8.07 42.76 7.04
6/6/2022 5:15:00 AM 18.42 65.156 0.848 8.07 49.27 7.12
6/6/2022 5:30:00 AM 18.35 65.03 0.849 8.07 51.04 7.11
6/6/2022 5:45:00 AM 18.28 64.904 0.85 8.07 46.18 7.09
6/6/2022 6:00:00 AM 18.21 64.778 0.851 8.07 52.21 7.18
6/6/2022 6:15:00 AM 18.14 64.652 0.852 8.06 53.76 7.17
6/6/2022 6:30:00 AM 18.07 64.526 0.853 8.07 47.09 7.24
6/6/2022 6:45:00 AM 18.02 64.436 0.854 8.07 55.45 7.28
6/6/2022 7:00:00 AM 17.96 64.328 0.855 8.07 53.38 7.27
6/6/2022 7:15:00 AM 17.91 64.238 0.856 8.07 58.46 7.44
6/6/2022 7:30:00 AM 17.87 64.166 0.857 8.07 50.06 7.46
6/6/2022 7:45:00 AM 17.84 64.112 0.858 8.07 42.27 7.52
6/6/2022 8:00:00 AM 17.81 64.058 0.858 8.08 48.76 7.58
6/6/2022 8:15:00 AM 17.79 64.022 0.859 8.08 41.24 7.65
6/6/2022 8:30:00 AM 17.78 64.004 0.86 8.08 42.98 7.69
6/6/2022 8:45:00 AM 17.78 64.004 0.861 8.08 54.29 7.72
6/6/2022 9:00:00 AM 17.79 64.022 0.861 8.08 53.3 7.77
6/6/2022 9:15:00 AM 17.81 64.058 0.862 8.09 52.2 7.84
6/6/2022 9:30:00 AM 17.85 64.13 0.862 8.09 49.08 7.96
6/6/2022 9:45:00 AM 17.9 64.22 0.863 8.1 55.68 8.12
6/6/2022 10:00:00 AM 18 64.4 0.863 8.11 55.97 8.35
6/6/2022 10:15:00 AM 18.13 64.634 0.863 8.12 48.53 8.41
6/6/2022 10:30:00 AM 18.4 65.12 0.864 8.14 50.59 8.82
6/6/2022 10:45:00 AM 18.58 65.444 0.864 8.17 59.81 9.15
6/6/2022 11:00:00 AM 18.76 65.768 0.864 8.19 53.37 9.4
6/6/2022 11:15:00 AM 18.88 65.984 0.864 8.2 62.1 9.55
6/6/2022 11:30:00 AM 19.1 66.38 0.863 8.22 54.06 9.83
6/6/2022 11:45:00 AM 19.34 66.812 0.863 8.24 44.72 10.26
6/6/2022 12:00:00 PM 19.54 67.172 0.863 8.27 64.56 10.45
6/6/2022 12:15:00 PM 19.72 67.496 0.863 8.29 53.91 10.7
6/6/2022 12:30:00 PM 19.89 67.802 0.862 8.29 55.46 10.83
6/6/2022 12:45:00 PM 20.06 68.108 0.863 8.31 54.76 11
6/6/2022 1:00:00 PM 20.22 68.396 0.862 8.32 58.6 11.15
6/6/2022 1:15:00 PM 20.4 68.72 0.862 8.34 56.97 11.24
6/6/2022 1:30:00 PM 20.55 68.99 0.862 8.35 54.97 11.3
6/6/2022 1:45:00 PM 20.7 69.26 0.862 8.35 55.3 11.3
6/6/2022 2:00:00 PM 20.87 69.566 0.861 8.36 55.09 11.43
6/6/2022 2:15:00 PM 20.99 69.782 0.861 8.37 53.78 11.4
6/6/2022 2:30:00 PM 21.12 70.016 0.861 8.38 49.66 11.42
6/6/2022 2:45:00 PM 21.23 70.214 0.86 8.39 52.44 11.42
6/6/2022 3:00:00 PM 21.32 70.376 0.86 8.39 51.2 11.37
6/6/2022 3:15:00 PM 21.38 70.484 0.86 8.4 47.59 11.25
6/6/2022 3:30:00 PM 21.42 70.556 0.859 8.4 54.39 11.18
6/6/2022 3:45:00 PM 21.44 70.592 0.859 8.4 50.59 11.05
6/6/2022 4:00:00 PM 21.45 70.61 0.858 8.39 45.24 10.91
6/6/2022 4:15:00 PM 21.45 70.61 0.858 8.38 51.18 10.74
6/6/2022 4:30:00 PM 21.46 70.628 0.858 8.38 56.5 10.6
6/6/2022 4:45:00 PM 21.44 70.592 0.858 8.38 56.84 10.46
6/6/2022 5:00:00 PM 21.4 70.52 0.857 8.37 51.65 10.26
6/6/2022 5:15:00 PM 21.37 70.466 0.857 8.37 45.76 10.07
6/6/2022 5:30:00 PM 21.32 70.376 0.856 8.36 54.14 9.92
6/6/2022 5:45:00 PM 21.26 70.268 0.856 8.35 58.24 9.7
6/6/2022 6:00:00 PM 21.21 70.17799 0.856 8.34 59.89 9.47
6/6/2022 6:15:00 PM 21.17 70.106 0.856 8.34 66.18 9.26
6/6/2022 6:30:00 PM 21.15 70.07 0.856 8.33 68.9 9.04
6/6/2022 6:45:00 PM 21.16 70.088 0.855 8.32 67.37 8.95
6/6/2022 7:00:00 PM 21.16 70.088 0.855 8.32 51.95 8.81
6/6/2022 7:15:00 PM 21.16 70.088 0.854 8.31 66.26 8.7
6/6/2022 7:30:00 PM 21.15 70.07 0.853 8.3 65.53 8.54
6/6/2022 7:45:00 PM 21.15 70.07 0.853 8.29 52.26 8.39
6/6/2022 8:00:00 PM 21.13 70.034 0.852 8.29 48.23 8.27
6/6/2022 8:15:00 PM 21.1 69.98 0.851 8.28 52.46 8.14
6/6/2022 8:30:00 PM 21.07 69.926 0.851 8.27 52.51 7.99
6/6/2022 8:45:00 PM 21.03 69.854 0.851 8.26 46 7.84
6/6/2022 9:00:00 PM 21 69.8 0.847 8.25 46.15 7.75
6/6/2022 9:15:00 PM 20.95 69.71 0.85 8.24 46.61 7.63
6/6/2022 9:30:00 PM 20.9 69.62 0.849 8.23 47.2 7.53
6/6/2022 9:45:00 PM 20.85 69.53 0.849 8.22 42.7 7.45
6/6/2022 10:00:00 PM 20.8 69.44 0.848 8.22 51 7.39
6/6/2022 10:15:00 PM 20.75 69.35 0.847 8.21 45.66 7.33
6/6/2022 10:30:00 PM 20.69 69.242 0.847 8.2 49.28 7.25
6/6/2022 10:45:00 PM 20.63 69.134 0.846 8.19 41.32 7.18
6/6/2022 11:00:00 PM 20.55 68.99 0.846 8.18 40.34 7.11
6/6/2022 11:15:00 PM 20.5 68.9 0.845 8.18 52.1 7.11
6/6/2022 11:30:00 PM 20.43 68.774 0.845 8.17 59.72 7.1
6/6/2022 11:45:00 PM 20.37 68.666 0.844 8.16 47.57 7.04
6/7/2022 12:00:00 AM 20.3 68.54 0.844 8.16 52.66 7.04
6/7/2022 12:15:00 AM 20.24 68.432 0.843 8.16 58.52 7.04
6/7/2022 12:30:00 AM 20.16 68.288 0.842 8.15 52.04 7.05
6/7/2022 12:45:00 AM 20.09 68.162 0.842 8.14 59.53 7
6/7/2022 1:00:00 AM 20 68 0.842 8.14 41.24 7.01
6/7/2022 1:15:00 AM 19.92 67.856 0.841 8.14 58.47 7
6/7/2022 1:30:00 AM 19.84 67.712 0.841 8.13 58.16 7
6/7/2022 1:45:00 AM 19.76 67.568 0.841 8.13 56.44 7.01
6/7/2022 2:00:00 AM 19.67 67.406 0.84 8.12 52.28 7.03
6/7/2022 2:15:00 AM 19.59 67.262 0.84 8.12 59.28 7.05
6/7/2022 2:30:00 AM 19.52 67.136 0.84 8.11 53.37 7.05
6/7/2022 2:45:00 AM 19.44 66.992 0.84 8.11 62.32 7.09
6/7/2022 3:00:00 AM 19.37 66.866 0.84 8.11 59.63 7.05
6/7/2022 3:15:00 AM 19.3 66.74 0.84 8.1 55.86 7.05
6/7/2022 3:30:00 AM 19.23 66.614 0.84 8.1 67.37 7.1
6/7/2022 3:45:00 AM 19.16 66.488 0.84 8.1 60.92 7.07
6/7/2022 4:00:00 AM 19.11 66.398 0.84 8.1 61.25 7.07
6/7/2022 4:15:00 AM 19.05 66.29 0.84 8.09 58.39 7.11
6/7/2022 4:30:00 AM 19.01 66.218 0.841 8.09 59.93 7.11
6/7/2022 4:45:00 AM 18.95 66.11 0.841 8.09 52.78 7.05
6/7/2022 5:00:00 AM 18.88 65.984 0.841 8.09 58.94 7.11
6/7/2022 5:15:00 AM 18.81 65.858 0.842 8.08 50.89 7
6/7/2022 5:30:00 AM 18.75 65.75 0.842 8.07 51.11 7.05
6/7/2022 5:45:00 AM 18.69 65.642 0.843 8.08 47.7 7.13
6/7/2022 6:00:00 AM 18.64 65.552 0.843 8.08 50.86 7.15
6/7/2022 6:15:00 AM 18.59 65.462 0.844 8.08 48.72 7.19
6/7/2022 6:30:00 AM 18.55 65.39 0.844 8.07 52.08 7.19
6/7/2022 6:45:00 AM 18.51 65.318 0.844 8.08 51.32 7.26
6/7/2022 7:00:00 AM 18.47 65.246 0.846 8.08 47.03 7.37
6/7/2022 7:15:00 AM 18.45 65.21 0.846 8.08 42 7.45
6/7/2022 7:30:00 AM 18.43 65.174 0.848 8.09 40.52 7.57
6/7/2022 7:45:00 AM 18.42 65.156 0.847 8.09 51.02 7.67
6/7/2022 8:00:00 AM 18.43 65.174 0.847 8.1 51.36 7.77
6/7/2022 8:15:00 AM 18.44 65.192 0.848 8.1 56.79 7.92
6/7/2022 8:30:00 AM 18.46 65.228 0.848 8.11 51.59 8.04
6/7/2022 8:45:00 AM 18.47 65.246 0.85 8.12 35.9 8.03
6/7/2022 9:00:00 AM 18.48 65.264 0.85 8.13 47.05 8.22
6/7/2022 9:15:00 AM 18.52 65.336 0.85 8.13 53.14 8.31
6/7/2022 9:30:00 AM 18.59 65.462 0.85 8.14 49.69 8.48
6/7/2022 9:45:00 AM 18.67 65.606 0.851 8.15 48.1 8.71
6/7/2022 10:00:00 AM 18.76 65.768 0.851 8.17 52.91 8.95
6/7/2022 10:15:00 AM 18.82 65.876 0.852 8.18 55.29 9.15
6/7/2022 10:30:00 AM 18.89 66.002 0.853 8.2 52.76 9.3
6/7/2022 10:45:00 AM 19.06 66.308 0.852 8.21 50.02 9.55
6/7/2022 11:00:00 AM 19.24 66.632 0.854 8.23 55.42 9.81
6/7/2022 11:15:00 AM 19.41 66.938 0.853 8.25 56.26 10.11
6/7/2022 11:30:00 AM 19.54 67.172 0.853 8.28 53.95 10.36
6/7/2022 11:45:00 AM 19.59 67.262 0.854 8.3 51.96 10.53
6/7/2022 12:00:00 PM 19.58 67.244 0.854 8.3 54.08 10.47
6/7/2022 12:15:00 PM 19.59 67.262 0.855 8.3 54.29 10.31
6/7/2022 12:30:00 PM 19.69 67.442 0.855 8.31 48.09 10.37
6/7/2022 12:45:00 PM 19.76 67.568 0.855 8.32 49.93 10.57
6/7/2022 1:00:00 PM 19.85 67.73 0.855 8.33 52.5 10.6
6/7/2022 1:15:00 PM 19.99 67.982 0.855 8.34 57.44 10.75
6/7/2022 1:30:00 PM 20.19 68.342 0.854 8.35 58.08 11.01
6/7/2022 1:45:00 PM 20.17 68.306 0.855 8.36 62.43 10.95
6/7/2022 2:00:00 PM 20.15 68.27 0.856 8.35 60.32 10.61
6/7/2022 2:15:00 PM 20.17 68.306 0.856 8.34 57.68 10.41
6/7/2022 2:30:00 PM 20.19 68.342 0.856 8.34 55.9 10.17
6/7/2022 2:45:00 PM 20.2 68.36 0.857 8.33 59.06 10
6/7/2022 3:00:00 PM 20.21 68.378 0.856 8.32 57.82 9.87
6/7/2022 3:15:00 PM 20.22 68.396 0.856 8.32 56.85 9.73
6/7/2022 3:30:00 PM 20.23 68.414 0.857 8.31 56.96 9.57
6/7/2022 3:45:00 PM 20.23 68.414 0.856 8.31 58.74 9.39
6/7/2022 4:00:00 PM 20.25 68.45 0.857 8.3 56.63 9.29
6/7/2022 4:15:00 PM 20.25 68.45 0.856 8.3 50.03 9.15
6/7/2022 4:30:00 PM 20.27 68.486 0.856 8.29 56.27 9.06
6/7/2022 4:45:00 PM 20.28 68.504 0.856 8.27 53.53 8.89
6/7/2022 5:00:00 PM 20.29 68.522 0.856 8.27 53.45 8.83
6/7/2022 5:15:00 PM 20.28 68.504 0.856 8.27 56.95 8.7
6/7/2022 5:30:00 PM 20.29 68.522 0.855 8.27 59.48 8.56
6/7/2022 5:45:00 PM 20.3 68.54 0.853 8.26 53.79 8.42
6/7/2022 6:00:00 PM 20.31 68.558 0.85 8.25 47.52 8.31
6/7/2022 6:15:00 PM 20.31 68.558 0.849 8.23 58.36 8.07
6/7/2022 6:30:00 PM 20.32 68.576 0.85 8.22 61.82 7.95
6/7/2022 6:45:00 PM 20.32 68.576 0.85 8.22 56.57 7.84
6/7/2022 7:00:00 PM 20.32 68.576 0.849 8.21 59.54 7.67
6/7/2022 7:15:00 PM 20.32 68.576 0.848 8.21 54.06 7.75
6/7/2022 7:30:00 PM 20.32 68.576 0.848 8.21 63.21 7.65
6/7/2022 7:45:00 PM 20.32 68.576 0.847 8.2 51.99 7.58
6/7/2022 8:00:00 PM 20.32 68.576 0.846 8.2 55.44 7.5
6/7/2022 8:15:00 PM 20.32 68.576 0.846 8.2 55.08 7.49
6/7/2022 8:30:00 PM 20.31 68.558 0.845 8.19 54.99 7.39
6/7/2022 8:45:00 PM 20.29 68.522 0.844 8.18 58.74 7.33
6/7/2022 9:00:00 PM 20.28 68.504 0.841 8.17 61.83 7.32
6/7/2022 9:15:00 PM 20.26 68.468 0.838 8.17 53.15 7.28
6/7/2022 9:30:00 PM 20.25 68.45 0.836 8.16 58.87 7.29
6/7/2022 9:45:00 PM 20.23 68.414 0.836 8.16 63.33 7.21
6/7/2022 10:00:00 PM 20.21 68.378 0.836 8.15 66.33 7.16
6/7/2022 10:15:00 PM 20.19 68.342 0.836 8.14 63.66 7.06
6/7/2022 10:30:00 PM 20.17 68.306 0.834 8.13 65.69 7.09
6/7/2022 10:45:00 PM 20.14 68.252 0.833 8.12 59.73 7.01
6/7/2022 11:00:00 PM 20.12 68.216 0.832 8.12 60.61 7.02
6/7/2022 11:15:00 PM 20.09 68.162 0.831 8.11 59.4 7
6/7/2022 11:30:00 PM 20.05 68.09 0.83 8.11 56.35 6.98
6/7/2022 11:45:00 PM 20.02 68.036 0.828 8.11 62.65 7.02
6/8/2022 12:00:00 AM 19.99 67.982 0.827 8.1 50.35 6.99
6/8/2022 12:15:00 AM 19.96 67.92799 0.827 8.1 61.63 6.97
6/8/2022 12:30:00 AM 19.94 67.892 0.825 8.1 61.54 6.99
6/8/2022 12:45:00 AM 19.91 67.838 0.824 8.09 60.26 6.94
6/8/2022 1:00:00 AM 19.87 67.766 0.823 8.08 71.04 6.91
6/8/2022 1:15:00 AM 19.84 67.712 0.823 8.07 67.53 6.91
6/8/2022 1:30:00 AM 19.81 67.658 0.821 8.08 57.05 7.01
6/8/2022 1:45:00 AM 19.77 67.586 0.82 8.08 63.98 7.03
6/8/2022 2:00:00 AM 19.74 67.532 0.819 8.07 77.07 7.04
6/8/2022 2:15:00 AM 19.7 67.46 0.817 8.07 67.62 7.04
6/8/2022 2:30:00 AM 19.67 67.406 0.815 8.06 71.39 7.05
6/8/2022 2:45:00 AM 19.63 67.334 0.813 8.06 73.85 7.03
6/8/2022 3:00:00 AM 19.59 67.262 0.811 8.05 75.25 7.04
6/8/2022 3:15:00 AM 19.55 67.19 0.81 8.05 72.55 7.05
6/8/2022 3:30:00 AM 19.51 67.118 0.809 8.05 72.81 7.06
6/8/2022 3:45:00 AM 19.48 67.064 0.808 8.05 81.77 7.08
6/8/2022 4:00:00 AM 19.46 67.028 0.808 8.05 77.35 7.1
6/8/2022 4:15:00 AM 19.44 66.992 0.807 8.04 68.17 7.05
6/8/2022 4:30:00 AM 19.42 66.956 0.807 8.03 69.86 7.03
6/8/2022 4:45:00 AM 19.39 66.902 0.806 8.03 79.44 7.05
6/8/2022 5:00:00 AM 19.37 66.866 0.806 8.03 75.88 7.04
6/8/2022 5:15:00 AM 19.35 66.83 0.805 8.03 77.31 7.05
6/8/2022 5:30:00 AM 19.33 66.794 0.805 8.03 77.47 7.07
6/8/2022 5:45:00 AM 19.3 66.74 0.804 8.03 74.48 7.07
6/8/2022 6:00:00 AM 19.29 66.722 0.804 8.03 79.13 7.09
6/8/2022 6:15:00 AM 19.28 66.704 0.803 8.02 75.66 7.11
6/8/2022 6:30:00 AM 19.27 66.686 0.802 8.02 69.39 7.09
6/8/2022 6:45:00 AM 19.26 66.668 0.801 8.02 80.99 7.19
6/8/2022 7:00:00 AM 19.25 66.65 0.8 8.03 76.04 7.26
6/8/2022 7:15:00 AM 19.25 66.65 0.799 8.03 77.59 7.3
6/8/2022 7:30:00 AM 19.25 66.65 0.799 8.03 82.06 7.32
6/8/2022 7:45:00 AM 19.25 66.65 0.798 8.03 76.1 7.36
6/8/2022 8:00:00 AM 19.26 66.668 0.797 8.04 81.4 7.46
6/8/2022 8:15:00 AM 19.29 66.722 0.795 8.04 81.12 7.55
6/8/2022 8:30:00 AM 19.31 66.758 0.794 8.04 78.35 7.61
6/8/2022 8:45:00 AM 19.35 66.83 0.793 8.05 81.72 7.73
6/8/2022 9:00:00 AM 19.39 66.902 0.792 8.05 68.16 7.81
6/8/2022 9:15:00 AM 19.41 66.938 0.79 8.06 88.23 7.86
6/8/2022 9:30:00 AM 19.44 66.992 0.789 8.07 78.05 7.97
6/8/2022 9:45:00 AM 19.51 67.118 0.787 8.07 89.45 8.14
6/8/2022 10:00:00 AM 19.58 67.244 0.786 8.09 83.62 8.32
6/8/2022 10:15:00 AM 19.64 67.352 0.785 8.11 89.26 8.48
6/8/2022 10:30:00 AM 19.72 67.496 0.783 8.12 105 8.62
6/8/2022 10:45:00 AM 19.84 67.712 0.783 8.13 96.65 8.79
6/8/2022 11:00:00 AM 19.94 67.892 0.781 8.14 88.66 9.05
6/8/2022 11:15:00 AM 20.07 68.126 0.779 8.17 99.27 9.34
6/8/2022 11:30:00 AM 20.22 68.396 0.778 8.19 91.32 9.5
6/8/2022 11:45:00 AM 20.38 68.684 0.776 8.19 92.8 9.79
6/8/2022 12:00:00 PM 20.58 69.044 0.775 8.2 97.58 9.98
6/8/2022 12:15:00 PM 20.79 69.422 0.772 8.22 95.26 10.19
6/8/2022 12:30:00 PM 20.95 69.71 0.771 8.23 93.78 10.32
6/8/2022 12:45:00 PM 21.11 69.998 0.769 8.24 97.42 10.46
6/8/2022 1:00:00 PM 21.26 70.268 0.768 8.26 105.9 10.56
6/8/2022 1:15:00 PM 21.4 70.52 0.766 8.27 109.5 10.65
6/8/2022 1:30:00 PM 21.52 70.736 0.765 8.27 102.3 10.7
6/8/2022 1:45:00 PM 21.66 70.988 0.764 8.28 73.89 10.74
6/8/2022 2:00:00 PM 21.77 71.186 0.763 8.28 111.1 10.71
6/8/2022 2:15:00 PM 21.89 71.402 0.762 8.29 117.5 10.8
6/8/2022 2:30:00 PM 21.97 71.546 0.762 8.3 101.1 10.73
6/8/2022 2:45:00 PM 22.07 71.726 0.762 8.3 111.5 10.72
6/8/2022 3:00:00 PM 22.12 71.816 0.762 8.29 109.5 10.55
6/8/2022 3:15:00 PM 22.18 71.924 0.761 8.29 101.1 10.55
6/8/2022 3:30:00 PM 22.21 71.978 0.762 8.3 90.43 10.43
6/8/2022 3:45:00 PM 22.23 72.014 0.762 8.29 110.2 10.24
6/8/2022 4:00:00 PM 22.24 72.032 0.762 8.29 104.5 10.13
6/8/2022 4:15:00 PM 22.27 72.086 0.762 8.29 111 10.05
6/8/2022 4:30:00 PM 22.28 72.104 0.762 8.28 113.4 9.88
6/8/2022 4:45:00 PM 22.27 72.086 0.763 8.28 105 9.69
6/8/2022 5:00:00 PM 22.23 72.014 0.763 8.27 92.32 9.52
6/8/2022 5:15:00 PM 22.2 71.96 0.763 8.26 114.8 9.34
6/8/2022 5:30:00 PM 22.18 71.924 0.763 8.25 104.7 9.09
6/8/2022 5:45:00 PM 22.14 71.852 0.762 8.25 93.77 8.99
6/8/2022 6:00:00 PM 22.12 71.816 0.763 8.24 101.2 8.74
6/8/2022 6:15:00 PM 22.11 71.798 0.762 8.23 99.4 8.56
6/8/2022 6:30:00 PM 22.1 71.78 0.762 8.22 97.87 8.46
6/8/2022 6:45:00 PM 22.08 71.744 0.762 8.21 91.87 8.32
6/8/2022 7:00:00 PM 22.06 71.708 0.762 8.2 90.84 8.16
6/8/2022 7:15:00 PM 22.05 71.69 0.761 8.2 86.85 7.99
6/8/2022 7:30:00 PM 22.06 71.708 0.761 8.19 87.69 7.93
6/8/2022 7:45:00 PM 22.05 71.69 0.761 8.18 92.36 7.84
6/8/2022 8:00:00 PM 22.03 71.654 0.761 8.18 77.09 7.7
6/8/2022 8:15:00 PM 22.01 71.618 0.761 8.16 80.41 7.52
6/8/2022 8:30:00 PM 21.98 71.564 0.761 8.16 89.67 7.48
6/8/2022 8:45:00 PM 21.95 71.51 0.762 8.14 90.37 7.33
6/8/2022 9:00:00 PM 21.92 71.456 0.763 8.11 79.73 6.95
6/8/2022 9:15:00 PM 21.89 71.402 0.763 8.12 84.37 7.11
6/8/2022 9:30:00 PM 21.85 71.33 0.764 8.11 91.38 7.07
6/8/2022 9:45:00 PM 21.8 71.24 0.765 8.11 83.64 7.01
6/8/2022 10:00:00 PM 21.76 71.168 0.766 8.1 92.96 6.92
6/8/2022 10:15:00 PM 21.72 71.096 0.767 8.09 92.4 6.87
6/8/2022 10:30:00 PM 21.67 71.006 0.768 8.08 107 6.8
6/8/2022 10:45:00 PM 21.62 70.916 0.769 8.07 99.38 6.78
6/8/2022 11:00:00 PM 21.57 70.826 0.771 8.06 97.11 6.71
6/8/2022 11:15:00 PM 21.52 70.736 0.772 8.05 111.7 6.65
6/8/2022 11:30:00 PM 21.47 70.646 0.774 8.04 108.2 6.59
6/8/2022 11:45:00 PM 21.42 70.556 0.776 8.04 105.9 6.6
6/9/2022 12:00:00 AM 21.38 70.484 0.778 8.03 111.6 6.53
6/9/2022 12:15:00 AM 21.33 70.394 0.78 8.03 121.8 6.58
6/9/2022 12:30:00 AM 21.29 70.32201 0.782 8.02 101.4 6.5
6/9/2022 12:45:00 AM 21.24 70.232 0.784 8.01 124 6.5
6/9/2022 1:00:00 AM 21.19 70.142 0.787 8.02 127 6.55
6/9/2022 1:15:00 AM 21.14 70.052 0.79 8.01 101.9 6.51
6/9/2022 1:30:00 AM 21.1 69.98 0.792 8 119.1 6.46
6/9/2022 1:45:00 AM 21.06 69.908 0.795 8 110.5 6.47
6/9/2022 2:00:00 AM 21.02 69.836 0.798 8.01 128.6 6.49
6/9/2022 2:15:00 AM 20.98 69.764 0.801 8 100.5 6.54
6/9/2022 2:30:00 AM 20.95 69.71 0.804 8.01 128.4 6.57
6/9/2022 2:45:00 AM 20.91 69.638 0.806 8.01 129.9 6.54
6/9/2022 3:00:00 AM 20.88 69.584 0.809 8 116.5 6.54
6/9/2022 3:15:00 AM 20.85 69.53 0.812 8 146.2 6.46
6/9/2022 3:30:00 AM 20.82 69.476 0.813 8 135.8 6.56
6/9/2022 3:45:00 AM 20.79 69.422 0.816 8 137.4 6.49
6/9/2022 4:00:00 AM 20.76 69.368 0.818 7.99 120.3 6.39
6/9/2022 4:15:00 AM 20.72 69.296 0.821 8 121.6 6.53
6/9/2022 4:30:00 AM 20.69 69.242 0.825 7.99 76.55 6.49
6/9/2022 4:45:00 AM 20.66 69.188 0.827 7.99 119.1 6.49
6/9/2022 5:00:00 AM 20.63 69.134 0.829 7.99 153.1 6.51
6/9/2022 5:15:00 AM 20.6 69.08 0.831 7.99 142.4 6.5
6/9/2022 5:30:00 AM 20.57 69.026 0.834 7.98 136.2 6.44
6/9/2022 5:45:00 AM 20.53 68.954 0.836 7.99 129.2 6.43
6/9/2022 6:00:00 AM 20.49 68.882 0.838 7.98 133.6 6.46
6/9/2022 6:15:00 AM 20.46 68.828 0.84 7.98 129.8 6.43
6/9/2022 6:30:00 AM 20.44 68.792 0.842 7.99 108.4 6.52
6/9/2022 6:45:00 AM 20.42 68.756 0.844 7.99 128.9 6.61
6/9/2022 7:00:00 AM 20.39 68.702 0.845 7.99 119.9 6.71
6/9/2022 7:15:00 AM 20.37 68.666 0.846 7.99 110.5 6.63
6/9/2022 7:30:00 AM 20.35 68.63 0.848 7.99 144.4 6.65
6/9/2022 7:45:00 AM 20.34 68.612 0.849 7.99 146.8 6.66
6/9/2022 8:00:00 AM 20.32 68.576 0.85 8 134.4 6.74
6/9/2022 8:15:00 AM 20.32 68.576 0.851 8 108.7 6.81
6/9/2022 8:30:00 AM 20.31 68.558 0.852 8 140.4 6.74
6/9/2022 8:45:00 AM 20.31 68.558 0.853 8 144.3 6.83
6/9/2022 9:00:00 AM 20.31 68.558 0.853 8.01 136.7 6.94
6/9/2022 9:15:00 AM 20.33 68.594 0.853 8.03 141 7.12
6/9/2022 9:30:00 AM 20.35 68.63 0.854 8.02 136.4 7.02
6/9/2022 9:45:00 AM 20.43 68.774 0.854 8.04 145.1 7.32
6/9/2022 10:00:00 AM 20.5 68.9 0.853 8.06 161.4 7.66
6/9/2022 10:15:00 AM 20.59 69.062 0.853 8.07 150.5 7.8
6/9/2022 10:30:00 AM 20.68 69.224 0.854 8.07 141.5 7.86
6/9/2022 10:45:00 AM 20.8 69.44 0.853 8.08 128.9 8.07
6/9/2022 11:00:00 AM 21.01 69.818 0.852 8.12 137.2 8.69
6/9/2022 11:15:00 AM 21.13 70.034 0.85 8.14 133.9 9.03
6/9/2022 11:30:00 AM 21.25 70.25 0.85 8.15 138.6 9.07
6/9/2022 11:45:00 AM 21.46 70.628 0.849 8.17 138.4 9.33
6/9/2022 12:00:00 PM 21.62 70.916 0.849 8.19 143.6 9.61
6/9/2022 12:15:00 PM 21.76 71.168 0.847 8.2 128.6 9.85
6/9/2022 12:30:00 PM 21.85 71.33 0.846 8.22 133.7 9.88
6/9/2022 12:45:00 PM 21.94 71.492 0.846 8.23 130.8 9.84
6/9/2022 1:00:00 PM 22.06 71.708 0.845 8.24 120.5 10.14
6/9/2022 1:15:00 PM 22.13 71.834 0.844 8.26 133 10.34
6/9/2022 1:30:00 PM 22.16 71.888 0.843 8.27 118.4 10.3
6/9/2022 1:45:00 PM 22.17 71.906 0.842 8.28 133.8 10.28
6/9/2022 2:00:00 PM 22.29 72.122 0.842 8.28 131.9 10.32
6/9/2022 2:15:00 PM 22.42 72.356 0.84 8.29 125.7 10.42
6/9/2022 2:30:00 PM 22.53 72.554 0.84 8.3 128.1 10.54
6/9/2022 2:45:00 PM 22.52 72.536 0.839 8.3 150.9 10.46
6/9/2022 3:00:00 PM 22.48 72.464 0.839 8.3 124.1 10.29
6/9/2022 3:15:00 PM 22.51 72.518 0.838 8.3 108.9 10.21
6/9/2022 3:30:00 PM 22.48 72.464 0.838 8.3 124.2 10.08
6/9/2022 3:45:00 PM 22.52 72.536 0.837 8.31 123.4 10.12
6/9/2022 4:00:00 PM 22.51 72.518 0.836 8.3 120.2 9.93
6/9/2022 4:15:00 PM 22.51 72.518 0.835 8.31 109.1 9.88
6/9/2022 4:30:00 PM 22.49 72.482 0.834 8.31 116.9 9.83
6/9/2022 4:45:00 PM 22.45 72.41 0.834 8.3 96.33 9.7
6/9/2022 5:00:00 PM 22.43 72.374 0.833 8.3 116.9 9.66
6/9/2022 5:15:00 PM 22.39 72.302 0.833 8.3 109.5 9.51
6/9/2022 5:30:00 PM 22.34 72.212 0.832 8.3 135.4 9.47
6/9/2022 5:45:00 PM 22.27 72.086 0.832 8.29 125.8 9.14
6/9/2022 6:00:00 PM 22.23 72.014 0.831 8.28 114.5 8.95
6/9/2022 6:15:00 PM 22.18 71.924 0.831 8.27 126.9 8.73
6/9/2022 6:30:00 PM 22.14 71.852 0.831 8.26 116.8 8.5
6/9/2022 6:45:00 PM 22.11 71.798 0.83 8.25 100.3 8.4
6/9/2022 7:00:00 PM 22.06 71.708 0.83 8.24 111.7 8.18
6/9/2022 7:15:00 PM 22.03 71.654 0.83 8.24 131.9 8.07
6/9/2022 7:30:00 PM 21.99 71.582 0.83 8.24 109.7 8.06
6/9/2022 7:45:00 PM 21.96 71.528 0.83 8.23 114.6 7.91
6/9/2022 8:00:00 PM 21.94 71.492 0.83 8.22 112.5 7.84
6/9/2022 8:15:00 PM 21.89 71.402 0.83 8.21 104.7 7.68
6/9/2022 8:30:00 PM 21.84 71.312 0.83 8.21 111.1 7.54
6/9/2022 8:45:00 PM 21.77 71.186 0.83 8.19 115.6 7.4
6/9/2022 9:00:00 PM 21.7 71.06 0.83 8.18 99.59 7.3
6/9/2022 9:15:00 PM 21.64 70.952 0.83 8.17 116.8 7.19
6/9/2022 9:30:00 PM 21.58 70.844 0.83 8.17 98.34 7.2
6/9/2022 9:45:00 PM 21.52 70.736 0.83 8.16 111.7 7.09
6/9/2022 10:00:00 PM 21.45 70.61 0.831 8.15 115.7 6.99
6/9/2022 10:15:00 PM 21.39 70.502 0.831 8.14 104.5 6.95
6/9/2022 10:30:00 PM 21.32 70.376 0.831 8.13 108.6 6.92
6/9/2022 10:45:00 PM 21.24 70.232 0.83 8.13 113.4 6.97
6/9/2022 11:00:00 PM 21.17 70.106 0.831 8.12 111.2 6.91
6/9/2022 11:15:00 PM 21.1 69.98 0.831 8.12 122.7 6.88
6/9/2022 11:30:00 PM 21.02 69.836 0.831 8.11 116.3 6.85
6/9/2022 11:45:00 PM 20.95 69.71 0.831 8.11 114.9 6.87
6/10/2022 12:00:00 AM 20.87 69.566 0.831 8.1 111.4 6.84
6/10/2022 12:15:00 AM 20.79 69.422 0.831 8.1 125.9 6.76
6/10/2022 12:30:00 AM 20.72 69.296 0.831 8.09 108.3 6.83
6/10/2022 12:45:00 AM 20.64 69.152 0.831 8.08 105.3 6.75
6/10/2022 1:00:00 AM 20.57 69.026 0.831 8.08 106.5 6.76
6/10/2022 1:15:00 AM 20.49 68.882 0.831 8.07 126.5 6.73
6/10/2022 1:30:00 AM 20.42 68.756 0.831 8.07 108.3 6.71
6/10/2022 1:45:00 AM 20.34 68.612 0.831 8.07 110 6.77
6/10/2022 2:00:00 AM 20.26 68.468 0.831 8.06 118.1 6.72
6/10/2022 2:15:00 AM 20.19 68.342 0.831 8.06 102.7 6.77
6/10/2022 2:30:00 AM 20.11 68.198 0.831 8.05 111.7 6.72
6/10/2022 2:45:00 AM 20.04 68.07201 0.831 8.05 109.2 6.7
6/10/2022 3:00:00 AM 19.96 67.92799 0.83 8.04 106.4 6.73
6/10/2022 3:15:00 AM 19.88 67.784 0.83 8.04 117 6.71
6/10/2022 3:30:00 AM 19.81 67.658 0.83 8.04 115.7 6.81
6/10/2022 3:45:00 AM 19.73 67.514 0.83 8.03 110.4 6.71
6/10/2022 4:00:00 AM 19.66 67.388 0.83 8.03 107.6 6.82
6/10/2022 4:15:00 AM 19.58 67.244 0.829 8.03 108.9 6.85
6/10/2022 4:30:00 AM 19.51 67.118 0.829 8.02 112.6 6.86
6/10/2022 4:45:00 AM 19.44 66.992 0.829 8.02 123.2 6.85
6/10/2022 5:00:00 AM 19.37 66.866 0.829 8.02 116.6 6.92
6/10/2022 5:15:00 AM 19.3 66.74 0.829 8.02 132.8 6.89
6/10/2022 5:30:00 AM 19.24 66.632 0.828 8.02 126.9 6.89
6/10/2022 5:45:00 AM 19.17 66.506 0.828 8.02 137.5 6.93
6/10/2022 6:00:00 AM 19.11 66.398 0.828 8.02 131.4 6.94
6/10/2022 6:15:00 AM 19.05 66.29 0.828 8.01 128.4 6.96
6/10/2022 6:30:00 AM 19 66.2 0.828 8.01 119.4 7
6/10/2022 6:45:00 AM 18.95 66.11 0.828 8.01 117.2 7
6/10/2022 7:00:00 AM 18.91 66.038 0.828 8.01 123.5 7.04
6/10/2022 7:15:00 AM 18.87 65.966 0.828 8.02 115.2 7.09
6/10/2022 7:30:00 AM 18.83 65.894 0.828 8.02 117 7.16
6/10/2022 7:45:00 AM 18.81 65.858 0.828 8.02 107.8 7.19
6/10/2022 8:00:00 AM 18.79 65.82201 0.828 8.02 110.4 7.22
6/10/2022 8:15:00 AM 18.78 65.804 0.828 8.02 129.8 7.21
6/10/2022 8:30:00 AM 18.77 65.786 0.829 8.02 111.6 7.25
6/10/2022 8:45:00 AM 18.76 65.768 0.829 8.03 114.4 7.32
6/10/2022 9:00:00 AM 18.78 65.804 0.829 8.03 120.9 7.35
6/10/2022 9:15:00 AM 18.79 65.82201 0.829 8.03 111.1 7.45
6/10/2022 9:30:00 AM 18.83 65.894 0.829 8.04 118.9 7.52
6/10/2022 9:45:00 AM 18.88 65.984 0.829 8.04 127.7 7.61
6/10/2022 10:00:00 AM 18.98 66.164 0.829 8.05 121.8 7.85
6/10/2022 10:15:00 AM 19.13 66.434 0.